
Distance (Route):
Temperature : 0°C
Humidity : 0%
Pressure : 0hPa| Receiver | Date | Latitude | Longitude | Direction | Speed | Altitude | Climb | Temperature | Humidity | Pressure | Voltage | Killtimer | Uptime | BKT | XDATA |
|---|---|---|---|---|---|---|---|---|---|---|---|---|---|---|---|
| EA3GEO | 2026-08-31 12:45:21 | 41.66162 | 3.20606 | 209° | 15km/h | 310m | -7.3m/s | 0°C | 0% | 0hPa | 0V | 00:00:00 | 00:00:00 | 00:00:00 | |
| EA3GEO | 2026-08-31 12:44:43 | 41.66229 | 3.20627 | 107° | 13km/h | 565m | -2.8m/s | 0°C | 0% | 0hPa | 0V | 00:00:00 | 00:00:00 | 00:00:00 | |
| EA3GEO | 2026-08-31 12:44:30 | 41.66236 | 3.20575 | 73° | 15km/h | 634m | -6.8m/s | 0°C | 0% | 0hPa | 0V | 00:00:00 | 00:00:00 | 00:00:00 | |
| EA3GEO | 2026-08-31 12:44:21 | 41.66225 | 3.20528 | 57° | 18km/h | 685m | -3.7m/s | 0°C | 0% | 0hPa | 0V | 00:00:00 | 00:00:00 | 00:00:00 | |
| EA3GEO | 2026-08-31 12:44:10 | 41.66204 | 3.20474 | 39° | 18km/h | 752m | -5.9m/s | 0°C | 0% | 0hPa | 0V | 00:00:00 | 00:00:00 | 00:00:00 | |
| EA3GEO | 2026-08-31 12:43:49 | 41.66149 | 3.20403 | 38° | 15km/h | 888m | -8.1m/s | 0°C | 0% | 0hPa | 0V | 00:00:00 | 00:00:00 | 00:00:00 | |
| EA3GEO | 2026-08-31 12:43:43 | 41.66129 | 3.20388 | 42° | 13km/h | 936m | -4.9m/s | 0°C | 0% | 0hPa | 0V | 00:00:00 | 00:00:00 | 00:00:00 | |
| EA3GEO | 2026-08-31 12:43:26 | 41.66079 | 3.20351 | 32° | 9km/h | 1052m | -4.6m/s | 0°C | 0% | 0hPa | 0V | 00:00:00 | 00:00:00 | 00:00:00 | |
| EA3GEO | 2026-08-31 12:43:19 | 41.66058 | 3.20338 | 28° | 13km/h | 1102m | -5.7m/s | 0°C | 0% | 0hPa | 0V | 00:00:00 | 00:00:00 | 00:00:00 | |
| EA3GEO | 2026-08-31 12:43:14 | 41.66047 | 3.20327 | 61° | 5km/h | 1140m | -8.2m/s | 0°C | 0% | 0hPa | 0V | 00:00:00 | 00:00:00 | 00:00:00 | |
| EA3GEO | 2026-08-31 12:43:09 | 41.66038 | 3.20312 | 46° | 13km/h | 1180m | -5.3m/s | 0°C | 0% | 0hPa | 0V | 00:00:00 | 00:00:00 | 00:00:00 | |
| EA3GEO | 2026-08-31 12:43:03 | 41.66030 | 3.20293 | 62° | 13km/h | 1222m | -6.0m/s | 0°C | 0% | 0hPa | 0V | 00:00:00 | 00:00:00 | 00:00:00 | |
| EA3GEO | 2026-08-31 12:42:57 | 41.66021 | 3.20266 | 72° | 16km/h | 1267m | -5.4m/s | 0°C | 0% | 0hPa | 0V | 00:00:00 | 00:00:00 | 00:00:00 | |
| EA3GEO | 2026-08-31 12:42:51 | 41.66014 | 3.20236 | 63° | 15km/h | 1311m | -6.9m/s | 0°C | 0% | 0hPa | 0V | 00:00:00 | 00:00:00 | 00:00:00 | |
| EA3GEO | 2026-08-31 12:42:45 | 41.66006 | 3.20205 | 74° | 22km/h | 1357m | -11.1m/s | 0°C | 0% | 0hPa | 0V | 00:00:00 | 00:00:00 | 00:00:00 | |
| EA3GEO | 2026-08-31 12:42:40 | 41.66000 | 3.20177 | 74° | 16km/h | 1400m | -6.7m/s | 0°C | 0% | 0hPa | 0V | 00:00:00 | 00:00:00 | 00:00:00 | |
| EA3GEO | 2026-08-31 12:42:35 | 41.65995 | 3.20148 | 80° | 20km/h | 1441m | -8.9m/s | 0°C | 0% | 0hPa | 0V | 00:00:00 | 00:00:00 | 00:00:00 | |
| EA3GEO | 2026-08-31 12:42:28 | 41.65983 | 3.20106 | 61° | 24km/h | 1495m | -5.8m/s | 0°C | 0% | 0hPa | 0V | 00:00:00 | 00:00:00 | 00:00:00 | |
| EA3GEO | 2026-08-31 12:42:23 | 41.65973 | 3.20071 | 84° | 18km/h | 1537m | -9.0m/s | 0°C | 0% | 0hPa | 0V | 00:00:00 | 00:00:00 | 00:00:00 | |
| EA3GEO | 2026-08-31 12:42:17 | 41.65961 | 3.20024 | 63° | 26km/h | 1587m | -7.9m/s | 0°C | 0% | 0hPa | 0V | 00:00:00 | 00:00:00 | 00:00:00 | |
| EA3GEO | 2026-08-31 12:42:11 | 41.65942 | 3.19971 | 58° | 29km/h | 1640m | -5.3m/s | 0°C | 0% | 0hPa | 0V | 00:00:00 | 00:00:00 | 00:00:00 | |
| EA3GEO | 2026-08-31 12:42:06 | 41.65926 | 3.19924 | 71° | 35km/h | 1684m | -7.9m/s | 0°C | 0% | 0hPa | 0V | 00:00:00 | 00:00:00 | 00:00:00 | |
| EA3GEO | 2026-08-31 12:42:00 | 41.65909 | 3.19861 | 81° | 33km/h | 1732m | -7.6m/s | 0°C | 0% | 0hPa | 0V | 00:00:00 | 00:00:00 | 00:00:00 | |
| EA3GEO | 2026-08-31 12:41:55 | 41.65897 | 3.19804 | 80° | 38km/h | 1775m | -8.2m/s | 0°C | 0% | 0hPa | 0V | 00:00:00 | 00:00:00 | 00:00:00 | |
| EA3GEO | 2026-08-31 12:41:49 | 41.65886 | 3.19733 | 82° | 33km/h | 1827m | -8.5m/s | 0°C | 0% | 0hPa | 0V | 00:00:00 | 00:00:00 | 00:00:00 | |
| EA3GEO | 2026-08-31 12:41:43 | 41.65877 | 3.19659 | 83° | 42km/h | 1878m | -7.5m/s | 0°C | 0% | 0hPa | 0V | 00:00:00 | 00:00:00 | 00:00:00 | |
| EA3GEO | 2026-08-31 12:41:37 | 41.65873 | 3.19586 | 88° | 35km/h | 1925m | -9.6m/s | 0°C | 0% | 0hPa | 0V | 00:00:00 | 00:00:00 | 00:00:00 | |
| EA3GEO | 2026-08-31 12:41:31 | 41.65864 | 3.19514 | 73° | 35km/h | 1976m | -7.6m/s | 0°C | 0% | 0hPa | 0V | 00:00:00 | 00:00:00 | 00:00:00 | |
| EA3GEO | 2026-08-31 12:41:26 | 41.65854 | 3.19454 | 81° | 37km/h | 2017m | -6.4m/s | 0°C | 0% | 0hPa | 0V | 00:00:00 | 00:00:00 | 00:00:00 | |
| EA3GEO | 2026-08-31 12:41:21 | 41.65846 | 3.19396 | 79° | 35km/h | 2057m | -8.0m/s | 0°C | 0% | 0hPa | 0V | 00:00:00 | 00:00:00 | 00:00:00 | |
| EA3GEO | 2026-08-31 12:41:14 | 41.65831 | 3.19311 | 73° | 35km/h | 2117m | -8.1m/s | 0°C | 0% | 0hPa | 0V | 00:00:00 | 00:00:00 | 00:00:00 | |
| EA3GEO | 2026-08-31 12:41:02 | 41.65812 | 3.19158 | 82° | 38km/h | 2220m | -8.0m/s | 0°C | 0% | 0hPa | 0V | 00:00:00 | 00:00:00 | 00:00:00 | |
| EA3GEO | 2026-08-31 12:40:56 | 41.65803 | 3.19073 | 83° | 42km/h | 2274m | -8.4m/s | 0°C | 0% | 0hPa | 0V | 00:00:00 | 00:00:00 | 00:00:00 | |
| EA3GEO | 2026-08-31 12:40:50 | 41.65794 | 3.18988 | 80° | 40km/h | 2327m | -4.9m/s | 0°C | 0% | 0hPa | 0V | 00:00:00 | 00:00:00 | 00:00:00 | |
| EA3GEO | 2026-08-31 12:40:45 | 41.65784 | 3.18918 | 81° | 42km/h | 2369m | -6.8m/s | 0°C | 0% | 0hPa | 0V | 00:00:00 | 00:00:00 | 00:00:00 | |
| EA3GEO | 2026-08-31 12:40:39 | 41.65772 | 3.18833 | 78° | 44km/h | 2415m | -8.5m/s | 0°C | 0% | 0hPa | 0V | 00:00:00 | 00:00:00 | 00:00:00 | |
| EA3GEO | 2026-08-31 12:40:34 | 41.65762 | 3.18759 | 80° | 42km/h | 2454m | -8.2m/s | 0°C | 0% | 0hPa | 0V | 00:00:00 | 00:00:00 | 00:00:00 | |
| EA3GEO | 2026-08-31 12:40:28 | 41.65748 | 3.18672 | 80° | 44km/h | 2503m | -8.4m/s | 0°C | 0% | 0hPa | 0V | 00:00:00 | 00:00:00 | 00:00:00 | |
| EA3GEO | 2026-08-31 12:40:22 | 41.65735 | 3.18580 | 80° | 46km/h | 2548m | -6.6m/s | 0°C | 0% | 0hPa | 0V | 00:00:00 | 00:00:00 | 00:00:00 | |
| EA3GEO | 2026-08-31 12:40:16 | 41.65724 | 3.18488 | 86° | 44km/h | 2598m | -7.1m/s | 0°C | 0% | 0hPa | 0V | 00:00:00 | 00:00:00 | 00:00:00 | |
| EA3GEO | 2026-08-31 12:40:11 | 41.65717 | 3.18409 | 82° | 47km/h | 2638m | -8.2m/s | 0°C | 0% | 0hPa | 0V | 00:00:00 | 00:00:00 | 00:00:00 | |
| EA3GEO | 2026-08-31 12:40:05 | 41.65707 | 3.18314 | 87° | 44km/h | 2687m | -10.8m/s | 0°C | 0% | 0hPa | 0V | 00:00:00 | 00:00:00 | 00:00:00 | |
| EA3GEO | 2026-08-31 12:39:59 | 41.65700 | 3.18218 | 83° | 47km/h | 2737m | -4.1m/s | 0°C | 0% | 0hPa | 0V | 00:00:00 | 00:00:00 | 00:00:00 | |
| EA3GEO | 2026-08-31 12:39:47 | 41.65680 | 3.18025 | 84° | 47km/h | 2832m | -5.6m/s | 0°C | 0% | 0hPa | 0V | 00:00:00 | 00:00:00 | 00:00:00 | |
| EA3GEO | 2026-08-31 12:39:41 | 41.65668 | 3.17927 | 80° | 47km/h | 2875m | -5.7m/s | 0°C | 0% | 0hPa | 0V | 00:00:00 | 00:00:00 | 00:00:00 | |
| EA3GEO | 2026-08-31 12:39:36 | 41.65660 | 3.17844 | 82° | 51km/h | 2912m | -8.4m/s | 0°C | 0% | 0hPa | 0V | 00:00:00 | 00:00:00 | 00:00:00 | |
| EA3GEO | 2026-08-31 12:39:25 | 41.65638 | 3.17660 | 81° | 49km/h | 2994m | -8.2m/s | 0°C | 0% | 0hPa | 0V | 00:00:00 | 00:00:00 | 00:00:00 | |
| EA3GEO | 2026-08-31 12:39:20 | 41.65630 | 3.17578 | 80° | 49km/h | 3033m | -8.5m/s | 0°C | 0% | 0hPa | 0V | 00:00:00 | 00:00:00 | 00:00:00 | |
| EA3GEO | 2026-08-31 12:39:09 | 41.65609 | 3.17395 | 85° | 49km/h | 3121m | -6.8m/s | 0°C | 0% | 0hPa | 0V | 00:00:00 | 00:00:00 | 00:00:00 | |
| EA3GEO | 2026-08-31 12:39:04 | 41.65601 | 3.17312 | 85° | 49km/h | 3161m | -5.8m/s | 0°C | 0% | 0hPa | 0V | 00:00:00 | 00:00:00 | 00:00:00 | |
| EA3GEO | 2026-08-31 12:38:58 | 41.65592 | 3.17214 | 83° | 49km/h | 3210m | -5.9m/s | 0°C | 0% | 0hPa | 0V | 00:00:00 | 00:00:00 | 00:00:00 | |
| EA3GEO | 2026-08-31 12:38:52 | 41.65588 | 3.17115 | 89° | 47km/h | 3256m | -6.5m/s | 0°C | 0% | 0hPa | 0V | 00:00:00 | 00:00:00 | 00:00:00 | |
| EA3GEO | 2026-08-31 12:38:47 | 41.65586 | 3.17016 | 91° | 53km/h | 3310m | -9.8m/s | 0°C | 0% | 0hPa | 0V | 00:00:00 | 00:00:00 | 00:00:00 | |
| EA3GEO | 2026-08-31 12:38:41 | 41.65588 | 3.16930 | 94° | 46km/h | 3349m | -7.6m/s | 0°C | 0% | 0hPa | 0V | 00:00:00 | 00:00:00 | 00:00:00 | |
| EA3GEO | 2026-08-31 12:38:36 | 41.65583 | 3.16849 | 86° | 46km/h | 3387m | -5.4m/s | 0°C | 0% | 0hPa | 0V | 00:00:00 | 00:00:00 | 00:00:00 | |
| EA3GEO | 2026-08-31 12:38:30 | 41.65576 | 3.16757 | 85° | 47km/h | 3433m | -6.9m/s | 0°C | 0% | 0hPa | 0V | 00:00:00 | 00:00:00 | 00:00:00 | |
| EA3GEO | 2026-08-31 12:38:25 | 41.65569 | 3.16680 | 84° | 47km/h | 3475m | -9.8m/s | 0°C | 0% | 0hPa | 0V | 00:00:00 | 00:00:00 | 00:00:00 | |
| EA3GEO | 2026-08-31 12:38:19 | 41.65561 | 3.16585 | 86° | 47km/h | 3529m | -6.1m/s | 0°C | 0% | 0hPa | 0V | 00:00:00 | 00:00:00 | 00:00:00 | |
| EA3GEO | 2026-08-31 12:38:14 | 41.65557 | 3.16505 | 87° | 47km/h | 3570m | -7.8m/s | 0°C | 0% | 0hPa | 0V | 00:00:00 | 00:00:00 | 00:00:00 | |
| EA3GEO | 2026-08-31 12:38:08 | 41.65553 | 3.16403 | 92° | 53km/h | 3616m | -6.7m/s | 0°C | 0% | 0hPa | 0V | 00:00:00 | 00:00:00 | 00:00:00 | |
| EA3GEO | 2026-08-31 12:38:02 | 41.65552 | 3.16297 | 89° | 53km/h | 3662m | -7.9m/s | 0°C | 0% | 0hPa | 0V | 00:00:00 | 00:00:00 | 00:00:00 | |
| EA3GEO | 2026-08-31 12:37:56 | 41.65551 | 3.16191 | 91° | 55km/h | 3708m | -6.1m/s | 0°C | 0% | 0hPa | 0V | 00:00:00 | 00:00:00 | 00:00:00 | |
| EA3GEO | 2026-08-31 12:37:51 | 41.65550 | 3.16101 | 94° | 53km/h | 3742m | -6.8m/s | 0°C | 0% | 0hPa | 0V | 00:00:00 | 00:00:00 | 00:00:00 | |
| EA3GEO | 2026-08-31 12:37:44 | 41.65547 | 3.15975 | 87° | 53km/h | 3800m | -7.0m/s | 0°C | 0% | 0hPa | 0V | 00:00:00 | 00:00:00 | 00:00:00 | |
| EA3GEO | 2026-08-31 12:37:39 | 41.65544 | 3.15885 | 87° | 55km/h | 3837m | -8.2m/s | 0°C | 0% | 0hPa | 0V | 00:00:00 | 00:00:00 | 00:00:00 | |
| EA3GEO | 2026-08-31 12:37:31 | 41.65537 | 3.15740 | 87° | 51km/h | 3898m | -8.3m/s | 0°C | 0% | 0hPa | 0V | 00:00:00 | 00:00:00 | 00:00:00 | |
| EA3GEO | 2026-08-31 12:37:26 | 41.65532 | 3.15652 | 83° | 55km/h | 3936m | -7.7m/s | 0°C | 0% | 0hPa | 0V | 00:00:00 | 00:00:00 | 00:00:00 | |
| EA3GEO | 2026-08-31 12:37:20 | 41.65522 | 3.15539 | 80° | 55km/h | 3987m | -9.2m/s | 0°C | 0% | 0hPa | 0V | 00:00:00 | 00:00:00 | 00:00:00 | |
| EA3GEO | 2026-08-31 12:37:15 | 41.65512 | 3.15442 | 78° | 58km/h | 4026m | -5.4m/s | 0°C | 0% | 0hPa | 0V | 00:00:00 | 00:00:00 | 00:00:00 | |
| EA3GEO | 2026-08-31 12:37:09 | 41.65497 | 3.15322 | 82° | 58km/h | 4067m | -6.1m/s | 0°C | 0% | 0hPa | 0V | 00:00:00 | 00:00:00 | 00:00:00 | |
| EA3GEO | 2026-08-31 12:37:04 | 41.65486 | 3.15223 | 82° | 55km/h | 4104m | -10.3m/s | 0°C | 0% | 0hPa | 0V | 00:00:00 | 00:00:00 | 00:00:00 | |
| EA3GEO | 2026-08-31 12:36:58 | 41.65475 | 3.15102 | 85° | 60km/h | 4150m | -8.3m/s | 0°C | 0% | 0hPa | 0V | 00:00:00 | 00:00:00 | 00:00:00 | |
| EA3GEO | 2026-08-31 12:36:52 | 41.65467 | 3.14979 | 90° | 60km/h | 4200m | -7.6m/s | 0°C | 0% | 0hPa | 0V | 00:00:00 | 00:00:00 | 00:00:00 | |
| EA3GEO | 2026-08-31 12:36:47 | 41.65460 | 3.14875 | 86° | 62km/h | 4246m | -8.1m/s | 0°C | 0% | 0hPa | 0V | 00:00:00 | 00:00:00 | 00:00:00 | |
| EA3GEO | 2026-08-31 12:36:41 | 41.65454 | 3.14749 | 86° | 66km/h | 4292m | -5.4m/s | 0°C | 0% | 0hPa | 0V | 00:00:00 | 00:00:00 | 00:00:00 | |
| EA3GEO | 2026-08-31 12:36:35 | 41.65447 | 3.14619 | 88° | 64km/h | 4338m | -8.8m/s | 0°C | 0% | 0hPa | 0V | 00:00:00 | 00:00:00 | 00:00:00 | |
| EA3GEO | 2026-08-31 12:36:30 | 41.65443 | 3.14490 | 89° | 64km/h | 4391m | -8.9m/s | 0°C | 0% | 0hPa | 0V | 00:00:00 | 00:00:00 | 00:00:00 | |
| EA3GEO | 2026-08-31 12:36:23 | 41.65439 | 3.14357 | 86° | 66km/h | 4440m | -7.1m/s | 0°C | 0% | 0hPa | 0V | 00:00:00 | 00:00:00 | 00:00:00 | |
| EA3GEO | 2026-08-31 12:36:17 | 41.65432 | 3.14223 | 86° | 68km/h | 4490m | -9.1m/s | 0°C | 0% | 0hPa | 0V | 00:00:00 | 00:00:00 | 00:00:00 | |
| EA3GEO | 2026-08-31 12:36:11 | 41.65425 | 3.14085 | 87° | 68km/h | 4541m | -8.1m/s | 0°C | 0% | 0hPa | 0V | 00:00:00 | 00:00:00 | 00:00:00 | |
| EA3GEO | 2026-08-31 12:34:54 | 41.65312 | 3.12423 | 90° | 55km/h | 5159m | -8.5m/s | 0°C | 0% | 0hPa | 0V | 00:00:00 | 00:00:00 | 00:00:00 | |
| EA3GEO | 2026-08-31 12:34:48 | 41.65305 | 3.12312 | 91° | 55km/h | 5209m | -8.7m/s | 0°C | 0% | 0hPa | 0V | 00:00:00 | 00:00:00 | 00:00:00 | |
| EA3GEO | 2026-08-31 12:34:42 | 41.65298 | 3.12194 | 86° | 57km/h | 5261m | -8.0m/s | 0°C | 0% | 0hPa | 0V | 00:00:00 | 00:00:00 | 00:00:00 | |
| EA3GEO | 2026-08-31 12:34:37 | 41.65290 | 3.12093 | 87° | 60km/h | 5301m | -7.6m/s | 0°C | 0% | 0hPa | 0V | 00:00:00 | 00:00:00 | 00:00:00 | |
| EA3GEO | 2026-08-31 12:34:32 | 41.65282 | 3.11988 | 90° | 62km/h | 5346m | -5.9m/s | 0°C | 0% | 0hPa | 0V | 00:00:00 | 00:00:00 | 00:00:00 | |
| EA3GEO | 2026-08-31 12:34:26 | 41.65273 | 3.11859 | 88° | 64km/h | 5396m | -7.4m/s | 0°C | 0% | 0hPa | 0V | 00:00:00 | 00:00:00 | 00:00:00 | |
| EA3GEO | 2026-08-31 12:34:21 | 41.65265 | 3.11753 | 85° | 62km/h | 5442m | -7.6m/s | 0°C | 0% | 0hPa | 0V | 00:00:00 | 00:00:00 | 00:00:00 | |
| EA3GEO | 2026-08-31 12:34:15 | 41.65257 | 3.11625 | 85° | 64km/h | 5491m | -7.6m/s | 0°C | 0% | 0hPa | 0V | 00:00:00 | 00:00:00 | 00:00:00 | |
| EA3GEO | 2026-08-31 12:34:08 | 41.65245 | 3.11478 | 87° | 64km/h | 5552m | -9.6m/s | 0°C | 0% | 0hPa | 0V | 00:00:00 | 00:00:00 | 00:00:00 | |
| EA3GEO | 2026-08-31 12:34:02 | 41.65235 | 3.11350 | 87° | 62km/h | 5603m | -5.5m/s | 0°C | 0% | 0hPa | 0V | 00:00:00 | 00:00:00 | 00:00:00 | |
| EA3GEO | 2026-08-31 12:33:56 | 41.65225 | 3.11225 | 86° | 62km/h | 5650m | -8.6m/s | 0°C | 0% | 0hPa | 0V | 00:00:00 | 00:00:00 | 00:00:00 | |
| EA3GEO | 2026-08-31 12:33:51 | 41.65218 | 3.11119 | 87° | 62km/h | 5698m | -6.9m/s | 0°C | 0% | 0hPa | 0V | 00:00:00 | 00:00:00 | 00:00:00 | |
| EA3GEO | 2026-08-31 12:33:46 | 41.65213 | 3.11015 | 89° | 64km/h | 5741m | -10.7m/s | 0°C | 0% | 0hPa | 0V | 00:00:00 | 00:00:00 | 00:00:00 | |
| EA3GEO | 2026-08-31 12:33:38 | 41.65208 | 3.10842 | 89° | 68km/h | 5815m | -7.2m/s | 0°C | 0% | 0hPa | 0V | 00:00:00 | 00:00:00 | 00:00:00 | |
| EA3GEO | 2026-08-31 12:33:32 | 41.65206 | 3.10711 | 90° | 68km/h | 5868m | -8.5m/s | 0°C | 0% | 0hPa | 0V | 00:00:00 | 00:00:00 | 00:00:00 | |
| EA3GEO | 2026-08-31 12:33:26 | 41.65206 | 3.10580 | 93° | 64km/h | 5915m | -9.1m/s | 0°C | 0% | 0hPa | 0V | 00:00:00 | 00:00:00 | 00:00:00 | |
| EA3GEO | 2026-08-31 12:33:21 | 41.65208 | 3.10473 | 92° | 64km/h | 5956m | -7.4m/s | 0°C | 0% | 0hPa | 0V | 00:00:00 | 00:00:00 | 00:00:00 | |
| EA3GEO | 2026-08-31 12:33:14 | 41.65206 | 3.10319 | 90° | 66km/h | 6016m | -8.3m/s | 0°C | 0% | 0hPa | 0V | 00:00:00 | 00:00:00 | 00:00:00 | |
| EA3GEO | 2026-08-31 12:33:08 | 41.65205 | 3.10186 | 90° | 66km/h | 6066m | -6.9m/s | 0°C | 0% | 0hPa | 0V | 00:00:00 | 00:00:00 | 00:00:00 | |
| EA3GEO | 2026-08-31 12:33:03 | 41.65204 | 3.10077 | 89° | 62km/h | 6111m | -8.5m/s | 0°C | 0% | 0hPa | 0V | 00:00:00 | 00:00:00 | 00:00:00 | |
| EA3GEO | 2026-08-31 12:32:57 | 41.65202 | 3.09943 | 87° | 64km/h | 6168m | -7.8m/s | 0°C | 0% | 0hPa | 0V | 00:00:00 | 00:00:00 | 00:00:00 | |
| EA3GEO | 2026-08-31 12:32:52 | 41.65198 | 3.09830 | 85° | 68km/h | 6209m | -8.3m/s | 0°C | 0% | 0hPa | 0V | 00:00:00 | 00:00:00 | 00:00:00 | |
| EA3GEO | 2026-08-31 12:32:47 | 41.65190 | 3.09692 | 88° | 66km/h | 6262m | -8.3m/s | 0°C | 0% | 0hPa | 0V | 00:00:00 | 00:00:00 | 00:00:00 | |
| EA3GEO | 2026-08-31 12:32:40 | 41.65182 | 3.09551 | 86° | 71km/h | 6317m | -7.6m/s | 0°C | 0% | 0hPa | 0V | 00:00:00 | 00:00:00 | 00:00:00 | |
| EA3GEO | 2026-08-31 12:32:34 | 41.65173 | 3.09412 | 86° | 68km/h | 6368m | -8.3m/s | 0°C | 0% | 0hPa | 0V | 00:00:00 | 00:00:00 | 00:00:00 | |
| EA3GEO | 2026-08-31 12:32:29 | 41.65166 | 3.09295 | 85° | 71km/h | 6411m | -7.8m/s | 0°C | 0% | 0hPa | 0V | 00:00:00 | 00:00:00 | 00:00:00 | |
| EA3GEO | 2026-08-31 12:32:23 | 41.65156 | 3.09155 | 86° | 66km/h | 6465m | -6.5m/s | 0°C | 0% | 0hPa | 0V | 00:00:00 | 00:00:00 | 00:00:00 | |
| EA3GEO | 2026-08-31 12:32:17 | 41.65146 | 3.09017 | 83° | 66km/h | 6518m | -8.1m/s | 0°C | 0% | 0hPa | 0V | 00:00:00 | 00:00:00 | 00:00:00 | |
| EA3GEO | 2026-08-31 12:32:11 | 41.65136 | 3.08880 | 87° | 69km/h | 6569m | -6.7m/s | 0°C | 0% | 0hPa | 0V | 00:00:00 | 00:00:00 | 00:00:00 | |
| EA3GEO | 2026-08-31 12:32:05 | 41.65126 | 3.08740 | 86° | 71km/h | 6621m | -9.7m/s | 0°C | 0% | 0hPa | 0V | 00:00:00 | 00:00:00 | 00:00:00 | |
| EA3GEO | 2026-08-31 12:32:00 | 41.65118 | 3.08622 | 85° | 73km/h | 6669m | -6.4m/s | 0°C | 0% | 0hPa | 0V | 00:00:00 | 00:00:00 | 00:00:00 | |
| EA3GEO | 2026-08-31 12:31:54 | 41.65105 | 3.08478 | 84° | 73km/h | 6720m | -8.4m/s | 0°C | 0% | 0hPa | 0V | 00:00:00 | 00:00:00 | 00:00:00 | |
| EA3GEO | 2026-08-31 12:31:47 | 41.65089 | 3.08309 | 84° | 69km/h | 6781m | -8.2m/s | 0°C | 0% | 0hPa | 0V | 00:00:00 | 00:00:00 | 00:00:00 | |
| EA3GEO | 2026-08-31 12:31:42 | 41.65078 | 3.08189 | 82° | 71km/h | 6827m | -8.7m/s | 0°C | 0% | 0hPa | 0V | 00:00:00 | 00:00:00 | 00:00:00 | |
| EA3GEO | 2026-08-31 12:31:36 | 41.65065 | 3.08049 | 85° | 69km/h | 6889m | -6.7m/s | 0°C | 0% | 0hPa | 0V | 00:00:00 | 00:00:00 | 00:00:00 | |
| EA3GEO | 2026-08-31 12:31:31 | 41.65056 | 3.07931 | 87° | 69km/h | 6930m | -7.2m/s | 0°C | 0% | 0hPa | 0V | 00:00:00 | 00:00:00 | 00:00:00 | |
| EA3GEO | 2026-08-31 12:31:25 | 41.65043 | 3.07790 | 84° | 69km/h | 6984m | -6.8m/s | 0°C | 0% | 0hPa | 0V | 00:00:00 | 00:00:00 | 00:00:00 | |
| EA3GEO | 2026-08-31 12:31:19 | 41.65028 | 3.07650 | 82° | 69km/h | 7035m | -6.4m/s | 0°C | 0% | 0hPa | 0V | 00:00:00 | 00:00:00 | 00:00:00 | |
| EA3GEO | 2026-08-31 12:31:13 | 41.65010 | 3.07512 | 80° | 66km/h | 7087m | -8.3m/s | 0°C | 0% | 0hPa | 0V | 00:00:00 | 00:00:00 | 00:00:00 | |
| EA3GEO | 2026-08-31 12:31:03 | 41.64980 | 3.07283 | 81° | 73km/h | 7174m | -6.9m/s | 0°C | 0% | 0hPa | 0V | 00:00:00 | 00:00:00 | 00:00:00 | |
| EA3GEO | 2026-08-31 12:30:56 | 41.64956 | 3.07120 | 78° | 73km/h | 7234m | -7.8m/s | 0°C | 0% | 0hPa | 0V | 00:00:00 | 00:00:00 | 00:00:00 | |
| EA3GEO | 2026-08-31 12:30:51 | 41.64938 | 3.07004 | 81° | 69km/h | 7283m | -7.5m/s | 0°C | 0% | 0hPa | 0V | 00:00:00 | 00:00:00 | 00:00:00 | |
| EA3GEO | 2026-08-31 12:30:45 | 41.64915 | 3.06865 | 80° | 71km/h | 7337m | -7.3m/s | 0°C | 0% | 0hPa | 0V | 00:00:00 | 00:00:00 | 00:00:00 | |
| EA3GEO | 2026-08-31 12:30:40 | 41.64896 | 3.06727 | 81° | 66km/h | 7392m | -8.0m/s | 0°C | 0% | 0hPa | 0V | 00:00:00 | 00:00:00 | 00:00:00 | |
| EA3GEO | 2026-08-31 12:30:32 | 41.64874 | 3.06569 | 81° | 64km/h | 7455m | -7.2m/s | 0°C | 0% | 0hPa | 0V | 00:00:00 | 00:00:00 | 00:00:00 | |
| EA3GEO | 2026-08-31 12:30:27 | 41.64859 | 3.06459 | 78° | 64km/h | 7498m | -9.1m/s | 0°C | 0% | 0hPa | 0V | 00:00:00 | 00:00:00 | 00:00:00 | |
| EA3GEO | 2026-08-31 12:30:22 | 41.64842 | 3.06351 | 77° | 68km/h | 7543m | -8.1m/s | 0°C | 0% | 0hPa | 0V | 00:00:00 | 00:00:00 | 00:00:00 | |
| EA3GEO | 2026-08-31 12:30:17 | 41.64819 | 3.06223 | 78° | 64km/h | 7598m | -8.2m/s | 0°C | 0% | 0hPa | 0V | 00:00:00 | 00:00:00 | 00:00:00 | |
| EA3GEO | 2026-08-31 12:30:10 | 41.64797 | 3.06091 | 80° | 68km/h | 7651m | -7.8m/s | 0°C | 0% | 0hPa | 0V | 00:00:00 | 00:00:00 | 00:00:00 | |
| EA3GEO | 2026-08-31 12:30:05 | 41.64780 | 3.05979 | 78° | 68km/h | 7697m | -7.6m/s | 0°C | 0% | 0hPa | 0V | 00:00:00 | 00:00:00 | 00:00:00 | |
| EA3GEO | 2026-08-31 12:29:59 | 41.64757 | 3.05848 | 80° | 66km/h | 7756m | -9.6m/s | 0°C | 0% | 0hPa | 0V | 00:00:00 | 00:00:00 | 00:00:00 | |
| EA3GEO | 2026-08-31 12:29:54 | 41.64736 | 3.05739 | 77° | 68km/h | 7802m | -6.3m/s | 0°C | 0% | 0hPa | 0V | 00:00:00 | 00:00:00 | 00:00:00 | |
| EA3GEO | 2026-08-31 12:29:49 | 41.64714 | 3.05628 | 76° | 66km/h | 7842m | -7.5m/s | 0°C | 0% | 0hPa | 0V | 00:00:00 | 00:00:00 | 00:00:00 | |
| EA3GEO | 2026-08-31 12:29:42 | 41.64684 | 3.05471 | 77° | 69km/h | 7907m | -8.6m/s | 0°C | 0% | 0hPa | 0V | 00:00:00 | 00:00:00 | 00:00:00 | |
| EA3GEO | 2026-08-31 12:29:36 | 41.64657 | 3.05333 | 78° | 69km/h | 7963m | -8.0m/s | 0°C | 0% | 0hPa | 0V | 00:00:00 | 00:00:00 | 00:00:00 | |
| EA3GEO | 2026-08-31 12:29:27 | 41.64619 | 3.05125 | 79° | 69km/h | 8043m | -8.3m/s | 0°C | 0% | 0hPa | 0V | 00:00:00 | 00:00:00 | 00:00:00 | |
| EA3GEO | 2026-08-31 12:29:20 | 41.64587 | 3.04960 | 77° | 71km/h | 8107m | -7.7m/s | 0°C | 0% | 0hPa | 0V | 00:00:00 | 00:00:00 | 00:00:00 | |
| EA3GEO | 2026-08-31 12:29:15 | 41.64562 | 3.04844 | 74° | 69km/h | 8152m | -6.8m/s | 0°C | 0% | 0hPa | 0V | 00:00:00 | 00:00:00 | 00:00:00 | |
| EA3GEO | 2026-08-31 12:29:09 | 41.64531 | 3.04708 | 72° | 69km/h | 8206m | -8.7m/s | 0°C | 0% | 0hPa | 0V | 00:00:00 | 00:00:00 | 00:00:00 | |
| EA3GEO | 2026-08-31 12:29:04 | 41.64503 | 3.04592 | 72° | 75km/h | 8250m | -7.4m/s | 0°C | 0% | 0hPa | 0V | 00:00:00 | 00:00:00 | 00:00:00 | |
| EA3GEO | 2026-08-31 12:28:59 | 41.64474 | 3.04476 | 72° | 71km/h | 8298m | -8.9m/s | 0°C | 0% | 0hPa | 0V | 00:00:00 | 00:00:00 | 00:00:00 | |
| EA3GEO | 2026-08-31 12:28:52 | 41.64433 | 3.04314 | 72° | 69km/h | 8362m | -8.3m/s | 0°C | 0% | 0hPa | 0V | 00:00:00 | 00:00:00 | 00:00:00 | |
| EA3GEO | 2026-08-31 12:28:43 | 41.64380 | 3.04104 | 71° | 71km/h | 8445m | -7.0m/s | 0°C | 0% | 0hPa | 0V | 00:00:00 | 00:00:00 | 00:00:00 | |
| EA3GEO | 2026-08-31 12:28:36 | 41.64334 | 3.03942 | 71° | 75km/h | 8511m | -7.2m/s | 0°C | 0% | 0hPa | 0V | 00:00:00 | 00:00:00 | 00:00:00 | |
| EA3GEO | 2026-08-31 12:28:27 | 41.64276 | 3.03732 | 70° | 73km/h | 8590m | -7.8m/s | 0°C | 0% | 0hPa | 0V | 00:00:00 | 00:00:00 | 00:00:00 | |
| EA3GEO | 2026-08-31 12:28:21 | 41.64236 | 3.03592 | 71° | 73km/h | 8646m | -8.6m/s | 0°C | 0% | 0hPa | 0V | 00:00:00 | 00:00:00 | 00:00:00 | |
| EA3GEO | 2026-08-31 12:28:15 | 41.64196 | 3.03456 | 69° | 73km/h | 8698m | -8.6m/s | 0°C | 0% | 0hPa | 0V | 00:00:00 | 00:00:00 | 00:00:00 | |
| EA3GEO | 2026-08-31 12:28:11 | 41.64163 | 3.03342 | 69° | 68km/h | 8747m | -8.1m/s | 0°C | 0% | 0hPa | 0V | 00:00:00 | 00:00:00 | 00:00:00 | |
| EA3GEO | 2026-08-31 12:28:05 | 41.64129 | 3.03229 | 69° | 73km/h | 8795m | -10.2m/s | 0°C | 0% | 0hPa | 0V | 00:00:00 | 00:00:00 | 00:00:00 | |
| EA3GEO | 2026-08-31 12:27:58 | 41.64081 | 3.03067 | 66° | 75km/h | 8859m | -8.3m/s | 0°C | 0% | 0hPa | 0V | 00:00:00 | 00:00:00 | 00:00:00 | |
| EA3GEO | 2026-08-31 12:27:52 | 41.64036 | 3.02927 | 68° | 75km/h | 8917m | -9.1m/s | 0°C | 0% | 0hPa | 0V | 00:00:00 | 00:00:00 | 00:00:00 | |
| EA3GEO | 2026-08-31 12:27:44 | 41.63981 | 3.02741 | 72° | 69km/h | 8990m | -8.8m/s | 0°C | 0% | 0hPa | 0V | 00:00:00 | 00:00:00 | 00:00:00 | |
| EA3GEO | 2026-08-31 12:27:37 | 41.63934 | 3.02584 | 69° | 73km/h | 9057m | -7.2m/s | 0°C | 0% | 0hPa | 0V | 00:00:00 | 00:00:00 | 00:00:00 | |
| EA3GEO | 2026-08-31 12:27:32 | 41.63899 | 3.02470 | 70° | 73km/h | 9102m | -7.4m/s | 0°C | 0% | 0hPa | 0V | 00:00:00 | 00:00:00 | 00:00:00 | |
| EA3GEO | 2026-08-31 12:27:26 | 41.63857 | 3.02328 | 71° | 80km/h | 9163m | -9.5m/s | 0°C | 0% | 0hPa | 0V | 00:00:00 | 00:00:00 | 00:00:00 | |
| EA3GEO | 2026-08-31 12:27:21 | 41.63820 | 3.02207 | 71° | 82km/h | 9210m | -7.2m/s | 0°C | 0% | 0hPa | 0V | 00:00:00 | 00:00:00 | 00:00:00 | |
| EA3GEO | 2026-08-31 12:27:15 | 41.63777 | 3.02052 | 71° | 84km/h | 9263m | -7.1m/s | 0°C | 0% | 0hPa | 0V | 00:00:00 | 00:00:00 | 00:00:00 | |
| EA3GEO | 2026-08-31 12:27:10 | 41.63741 | 3.01916 | 69° | 88km/h | 9309m | -10.7m/s | 0°C | 0% | 0hPa | 0V | 00:00:00 | 00:00:00 | 00:00:00 | |
| EA3GEO | 2026-08-31 12:27:03 | 41.63684 | 3.01717 | 74° | 86km/h | 9374m | -10.9m/s | 0°C | 0% | 0hPa | 0V | 00:00:00 | 00:00:00 | 00:00:00 | |
| EA3GEO | 2026-08-31 12:26:57 | 41.63636 | 3.01546 | 70° | 93km/h | 9431m | -8.4m/s | 0°C | 0% | 0hPa | 0V | 00:00:00 | 00:00:00 | 00:00:00 | |
| EA3GEO | 2026-08-31 12:26:52 | 41.63593 | 3.01401 | 70° | 91km/h | 9479m | -8.2m/s | 0°C | 0% | 0hPa | 0V | 00:00:00 | 00:00:00 | 00:00:00 | |
| EA3GEO | 2026-08-31 12:26:46 | 41.63542 | 3.01232 | 71° | 91km/h | 9541m | -7.1m/s | 0°C | 0% | 0hPa | 0V | 00:00:00 | 00:00:00 | 00:00:00 | |
| EA3GEO | 2026-08-31 12:26:40 | 41.63489 | 3.01060 | 68° | 89km/h | 9596m | -8.6m/s | 0°C | 0% | 0hPa | 0V | 00:00:00 | 00:00:00 | 00:00:00 | |
| EA3GEO | 2026-08-31 12:26:35 | 41.63443 | 3.00918 | 68° | 89km/h | 9645m | -10.0m/s | 0°C | 0% | 0hPa | 0V | 00:00:00 | 00:00:00 | 00:00:00 | |
| EA3GEO | 2026-08-31 12:26:29 | 41.63386 | 3.00747 | 67° | 93km/h | 9705m | -8.5m/s | 0°C | 0% | 0hPa | 0V | 00:00:00 | 00:00:00 | 00:00:00 | |
| EA3GEO | 2026-08-31 12:26:23 | 41.63327 | 3.00575 | 65° | 95km/h | 9764m | -6.5m/s | 0°C | 0% | 0hPa | 0V | 00:00:00 | 00:00:00 | 00:00:00 | |
| EA3GEO | 2026-08-31 12:26:17 | 41.63265 | 3.00397 | 66° | 100km/h | 9820m | -8.0m/s | 0°C | 0% | 0hPa | 0V | 00:00:00 | 00:00:00 | 00:00:00 | |
| EA3GEO | 2026-08-31 12:26:12 | 41.63211 | 3.00244 | 65° | 100km/h | 9866m | -7.1m/s | 0°C | 0% | 0hPa | 0V | 00:00:00 | 00:00:00 | 00:00:00 | |
| EA3GEO | 2026-08-31 12:26:06 | 41.63144 | 3.00054 | 66° | 104km/h | 9920m | -9.1m/s | 0°C | 0% | 0hPa | 0V | 00:00:00 | 00:00:00 | 00:00:00 | |
| EA3GEO | 2026-08-31 12:26:01 | 41.63084 | 2.99889 | 65° | 110km/h | 9970m | -8.3m/s | 0°C | 0% | 0hPa | 0V | 00:00:00 | 00:00:00 | 00:00:00 | |
| EA3GEO | 2026-08-31 12:25:43 | 41.62870 | 2.99286 | 64° | 113km/h | 10140m | -7.8m/s | 0°C | 0% | 0hPa | 0V | 00:00:00 | 00:00:00 | 00:00:00 | |
| EA3GEO | 2026-08-31 12:25:38 | 41.62808 | 2.99119 | 64° | 113km/h | 10188m | -8.6m/s | 0°C | 0% | 0hPa | 0V | 00:00:00 | 00:00:00 | 00:00:00 | |
| EA3GEO | 2026-08-31 12:25:32 | 41.62733 | 2.98922 | 64° | 111km/h | 10245m | -8.6m/s | 0°C | 0% | 0hPa | 0V | 00:00:00 | 00:00:00 | 00:00:00 | |
| EA3GEO | 2026-08-31 12:25:26 | 41.62660 | 2.98723 | 64° | 108km/h | 10305m | -8.2m/s | 0°C | 0% | 0hPa | 0V | 00:00:00 | 00:00:00 | 00:00:00 | |
| EA3GEO | 2026-08-31 12:25:20 | 41.62588 | 2.98525 | 66° | 110km/h | 10364m | -10.2m/s | 0°C | 0% | 0hPa | 0V | 00:00:00 | 00:00:00 | 00:00:00 | |
| EA3GEO | 2026-08-31 12:25:15 | 41.62527 | 2.98361 | 66° | 111km/h | 10415m | -7.6m/s | 0°C | 0% | 0hPa | 0V | 00:00:00 | 00:00:00 | 00:00:00 | |
| EA3GEO | 2026-08-31 12:25:10 | 41.62471 | 2.98194 | 68° | 108km/h | 10460m | -7.1m/s | 0°C | 0% | 0hPa | 0V | 00:00:00 | 00:00:00 | 00:00:00 | |
| EA3GEO | 2026-08-31 12:25:04 | 41.62403 | 2.97992 | 68° | 108km/h | 10518m | -10.5m/s | 0°C | 0% | 0hPa | 0V | 00:00:00 | 00:00:00 | 00:00:00 | |
| EA3GEO | 2026-08-31 12:24:58 | 41.62335 | 2.97791 | 65° | 110km/h | 10580m | -8.7m/s | 0°C | 0% | 0hPa | 0V | 00:00:00 | 00:00:00 | 00:00:00 | |
| EA3GEO | 2026-08-31 12:24:52 | 41.62260 | 2.97597 | 63° | 106km/h | 10637m | -8.8m/s | 0°C | 0% | 0hPa | 0V | 00:00:00 | 00:00:00 | 00:00:00 | |
| EA3GEO | 2026-08-31 12:24:46 | 41.62183 | 2.97404 | 61° | 110km/h | 10695m | -10.0m/s | 0°C | 0% | 0hPa | 0V | 00:00:00 | 00:00:00 | 00:00:00 | |
| EA3GEO | 2026-08-31 12:24:41 | 41.62117 | 2.97242 | 63° | 111km/h | 10748m | -9.8m/s | 0°C | 0% | 0hPa | 0V | 00:00:00 | 00:00:00 | 00:00:00 | |
| EA3GEO | 2026-08-31 12:24:35 | 41.62039 | 2.97042 | 65° | 111km/h | 10806m | -9.4m/s | 0°C | 0% | 0hPa | 0V | 00:00:00 | 00:00:00 | 00:00:00 | |
| EA3GEO | 2026-08-31 12:24:26 | 41.61927 | 2.96741 | 67° | 106km/h | 10901m | -10.9m/s | 0°C | 0% | 0hPa | 0V | 00:00:00 | 00:00:00 | 00:00:00 | |
| EA3GEO | 2026-08-31 12:24:21 | 41.61869 | 2.96573 | 65° | 110km/h | 10948m | -8.4m/s | 0°C | 0% | 0hPa | 0V | 00:00:00 | 00:00:00 | 00:00:00 | |
| EA3GEO | 2026-08-31 12:24:14 | 41.61785 | 2.96334 | 65° | 111km/h | 11010m | -9.7m/s | 0°C | 0% | 0hPa | 0V | 00:00:00 | 00:00:00 | 00:00:00 | |
| EA3GEO | 2026-08-31 12:24:05 | 41.61674 | 2.96025 | 66° | 115km/h | 11102m | -13.0m/s | 0°C | 0% | 0hPa | 0V | 00:00:00 | 00:00:00 | 00:00:00 | |
| EA3GEO | 2026-08-31 12:23:57 | 41.61576 | 2.95744 | 66° | 115km/h | 11191m | -9.3m/s | 0°C | 0% | 0hPa | 0V | 00:00:00 | 00:00:00 | 00:00:00 | |
| EA3GEO | 2026-08-31 12:23:50 | 41.61487 | 2.95496 | 66° | 115km/h | 11261m | -7.3m/s | 0°C | 0% | 0hPa | 0V | 00:00:00 | 00:00:00 | 00:00:00 | |
| EA3GEO | 2026-08-31 12:23:42 | 41.61384 | 2.95213 | 65° | 119km/h | 11350m | -8.8m/s | 0°C | 0% | 0hPa | 0V | 00:00:00 | 00:00:00 | 00:00:00 | |
| EA3GEO | 2026-08-31 12:23:35 | 41.61289 | 2.94968 | 63° | 117km/h | 11420m | -8.4m/s | 0°C | 0% | 0hPa | 0V | 00:00:00 | 00:00:00 | 00:00:00 | |
| EA3GEO | 2026-08-31 12:23:29 | 41.61208 | 2.94758 | 64° | 117km/h | 11478m | -10.8m/s | 0°C | 0% | 0hPa | 0V | 00:00:00 | 00:00:00 | 00:00:00 | |
| EA3GEO | 2026-08-31 12:23:22 | 41.61112 | 2.94512 | 64° | 115km/h | 11550m | -9.5m/s | 0°C | 0% | 0hPa | 0V | 00:00:00 | 00:00:00 | 00:00:00 | |
| EA3GEO | 2026-08-31 12:23:17 | 41.61031 | 2.94304 | 64° | 120km/h | 11614m | -9.3m/s | 0°C | 0% | 0hPa | 0V | 00:00:00 | 00:00:00 | 00:00:00 | |
| EA3GEO | 2026-08-31 12:23:10 | 41.60947 | 2.94091 | 62° | 120km/h | 11675m | -9.3m/s | 0°C | 0% | 0hPa | 0V | 00:00:00 | 00:00:00 | 00:00:00 | |
| EA3GEO | 2026-08-31 12:23:05 | 41.60873 | 2.93915 | 61° | 122km/h | 11730m | -9.6m/s | 0°C | 0% | 0hPa | 0V | 00:00:00 | 00:00:00 | 00:00:00 | |
| EA3GEO | 2026-08-31 12:22:58 | 41.60770 | 2.93660 | 62° | 124km/h | 11811m | -10.0m/s | 0°C | 0% | 0hPa | 0V | 00:00:00 | 00:00:00 | 00:00:00 | |
| EA3GEO | 2026-08-31 12:22:52 | 41.60685 | 2.93440 | 64° | 126km/h | 11875m | -6.8m/s | 0°C | 0% | 0hPa | 0V | 00:00:00 | 00:00:00 | 00:00:00 | |
| EA3GEO | 2026-08-31 12:22:47 | 41.60612 | 2.93252 | 63° | 124km/h | 11928m | -7.7m/s | 0°C | 0% | 0hPa | 0V | 00:00:00 | 00:00:00 | 00:00:00 | |
| EA3GEO | 2026-08-31 12:22:41 | 41.60522 | 2.93030 | 62° | 122km/h | 11996m | -8.9m/s | 0°C | 0% | 0hPa | 0V | 00:00:00 | 00:00:00 | 00:00:00 | |
| EA3GEO | 2026-08-31 12:22:33 | 41.60405 | 2.92734 | 62° | 126km/h | 12076m | -10.0m/s | 0°C | 0% | 0hPa | 0V | 00:00:00 | 00:00:00 | 00:00:00 | |
| EA3GEO | 2026-08-31 12:22:19 | 41.60192 | 2.92208 | 62° | 128km/h | 12224m | -8.3m/s | 0°C | 0% | 0hPa | 0V | 00:00:00 | 00:00:00 | 00:00:00 | |
| EA3GEO | 2026-08-31 12:22:14 | 41.60117 | 2.92017 | 64° | 130km/h | 12283m | -9.6m/s | 0°C | 0% | 0hPa | 0V | 00:00:00 | 00:00:00 | 00:00:00 | |
| EA3GEO | 2026-08-31 12:22:06 | 41.59995 | 2.91709 | 63° | 128km/h | 12375m | -9.8m/s | 0°C | 0% | 0hPa | 0V | 00:00:00 | 00:00:00 | 00:00:00 | |
| EA3GEO | 2026-08-31 12:22:00 | 41.59904 | 2.91478 | 64° | 128km/h | 12438m | -12.3m/s | 0°C | 0% | 0hPa | 0V | 00:00:00 | 00:00:00 | 00:00:00 | |
| EA3GEO | 2026-08-31 12:21:38 | 41.59560 | 2.90654 | 64° | 128km/h | 12713m | -9.6m/s | 0°C | 0% | 0hPa | 0V | 00:00:00 | 00:00:00 | 00:00:00 | |
| EA3GEO | 2026-08-31 12:21:29 | 41.59433 | 2.90313 | 66° | 128km/h | 12829m | -11.3m/s | 0°C | 0% | 0hPa | 0V | 00:00:00 | 00:00:00 | 00:00:00 | |
| EA3GEO | 2026-08-31 12:21:24 | 41.59364 | 2.90117 | 66° | 128km/h | 12897m | -14.6m/s | 0°C | 0% | 0hPa | 0V | 00:00:00 | 00:00:00 | 00:00:00 | |
| EA3GEO | 2026-08-31 12:21:18 | 41.59286 | 2.89877 | 69° | 130km/h | 12982m | -12.4m/s | 0°C | 0% | 0hPa | 0V | 00:00:00 | 00:00:00 | 00:00:00 | |
| EA3GEO | 2026-08-31 12:21:13 | 41.59224 | 2.89680 | 68° | 120km/h | 13054m | -13.6m/s | 0°C | 0% | 0hPa | 0V | 00:00:00 | 00:00:00 | 00:00:00 | |
| EA3GEO | 2026-08-31 12:21:06 | 41.59149 | 2.89412 | 72° | 120km/h | 13168m | -14.6m/s | 0°C | 0% | 0hPa | 0V | 00:00:00 | 00:00:00 | 00:00:00 | |
| EA3GEO | 2026-08-31 12:21:00 | 41.59095 | 2.89184 | 74° | 115km/h | 13255m | -11.9m/s | 0°C | 0% | 0hPa | 0V | 00:00:00 | 00:00:00 | 00:00:00 | |
| EA3GEO | 2026-08-31 12:20:52 | 41.59024 | 2.88882 | 74° | 120km/h | 13370m | -13.4m/s | 0°C | 0% | 0hPa | 0V | 00:00:00 | 00:00:00 | 00:00:00 | |
| EA3GEO | 2026-08-31 12:20:44 | 41.58958 | 2.88587 | 72° | 113km/h | 13487m | -14.4m/s | 0°C | 0% | 0hPa | 0V | 00:00:00 | 00:00:00 | 00:00:00 | |
| EA3GEO | 2026-08-31 12:20:30 | 41.58852 | 2.88099 | 78° | 108km/h | 13705m | -13.8m/s | 0°C | 0% | 0hPa | 0V | 00:00:00 | 00:00:00 | 00:00:00 | |
| EA3GEO | 2026-08-31 12:20:23 | 41.58817 | 2.87856 | 80° | 102km/h | 13822m | -16.9m/s | 0°C | 0% | 0hPa | 0V | 00:00:00 | 00:00:00 | 00:00:00 | |
| EA3GEO | 2026-08-31 12:20:16 | 41.58779 | 2.87627 | 77° | 100km/h | 13937m | -12.8m/s | 0°C | 0% | 0hPa | 0V | 00:00:00 | 00:00:00 | 00:00:00 | |
| EA3GEO | 2026-08-31 12:20:01 | 41.58680 | 2.87144 | 76° | 93km/h | 14153m | -14.8m/s | 0°C | 0% | 0hPa | 0V | 00:00:00 | 00:00:00 | 00:00:00 | |
| EA3GEO | 2026-08-31 12:19:55 | 41.58641 | 2.86967 | 73° | 89km/h | 14268m | -16.1m/s | 0°C | 0% | 0hPa | 0V | 00:00:00 | 00:00:00 | 00:00:00 | |
| EA3GEO | 2026-08-31 12:19:48 | 41.58593 | 2.86765 | 75° | 91km/h | 14397m | -18.1m/s | 0°C | 0% | 0hPa | 0V | 00:00:00 | 00:00:00 | 00:00:00 | |
| EA3GEO | 2026-08-31 12:19:42 | 41.58564 | 2.86583 | 81° | 97km/h | 14507m | -14.2m/s | 0°C | 0% | 0hPa | 0V | 00:00:00 | 00:00:00 | 00:00:00 | |
| EA3GEO | 2026-08-31 12:19:25 | 41.58505 | 2.86114 | 84° | 77km/h | 14800m | -15.7m/s | 0°C | 0% | 0hPa | 0V | 00:00:00 | 00:00:00 | 00:00:00 | |
| EA3GEO | 2026-08-31 12:19:19 | 41.58489 | 2.85971 | 81° | 68km/h | 14897m | -14.3m/s | 0°C | 0% | 0hPa | 0V | 00:00:00 | 00:00:00 | 00:00:00 | |
| EA3GEO | 2026-08-31 12:19:14 | 41.58474 | 2.85862 | 78° | 64km/h | 14982m | -15.2m/s | 0°C | 0% | 0hPa | 0V | 00:00:00 | 00:00:00 | 00:00:00 | |
| EA3GEO | 2026-08-31 12:19:02 | 41.58435 | 2.85614 | 80° | 60km/h | 15169m | -13.2m/s | 0°C | 0% | 0hPa | 0V | 00:00:00 | 00:00:00 | 00:00:00 | |
| EA3GEO | 2026-08-31 12:18:54 | 41.58412 | 2.85453 | 84° | 60km/h | 15301m | -18.4m/s | 0°C | 0% | 0hPa | 0V | 00:00:00 | 00:00:00 | 00:00:00 | |
| EA3GEO | 2026-08-31 12:18:35 | 41.58366 | 2.85084 | 73° | 47km/h | 15616m | -16.1m/s | 0°C | 0% | 0hPa | 0V | 00:00:00 | 00:00:00 | 00:00:00 | |
| EA3GEO | 2026-08-31 12:18:29 | 41.58345 | 2.84997 | 79° | 44km/h | 15727m | -19.7m/s | 0°C | 0% | 0hPa | 0V | 00:00:00 | 00:00:00 | 00:00:00 | |
| EA3GEO | 2026-08-31 12:17:58 | 41.58290 | 2.84536 | 78° | 58km/h | 16313m | -15.2m/s | 0°C | 0% | 0hPa | 0V | 00:00:00 | 00:00:00 | 00:00:00 | |
| EA3GEO | 2026-08-31 12:17:52 | 41.58273 | 2.84424 | 82° | 53km/h | 16413m | -16.3m/s | 0°C | 0% | 0hPa | 0V | 00:00:00 | 00:00:00 | 00:00:00 | |
| EA3GEO | 2026-08-31 12:17:11 | 41.58258 | 2.83939 | 66° | 40km/h | 17053m | -11.5m/s | 0°C | 0% | 0hPa | 0V | 00:00:00 | 00:00:00 | 00:00:00 | |
| EA3GEO | 2026-08-31 12:16:41 | 41.58060 | 2.83503 | 80° | 62km/h | 17521m | -9.1m/s | 0°C | 0% | 0hPa | 0V | 00:00:00 | 00:00:00 | 00:00:00 | |
| EA3GEO | 2026-08-31 12:16:32 | 41.58048 | 2.83326 | 89° | 53km/h | 17640m | -14.3m/s | 0°C | 0% | 0hPa | 0V | 00:00:00 | 00:00:00 | 00:00:00 | |
| EA3GEO | 2026-08-31 12:15:41 | 41.58140 | 2.82936 | 309° | 15km/h | 18388m | -13.6m/s | 0°C | 0% | 0hPa | 0V | 00:00:00 | 00:00:00 | 00:00:00 | |
| EA3GEO | 2026-08-31 12:15:31 | 41.58103 | 2.82959 | 7° | 20km/h | 18535m | -12.3m/s | 0°C | 0% | 0hPa | 0V | 00:00:00 | 00:00:00 | 00:00:00 | |
| EA3GEO | 2026-08-31 12:15:25 | 41.58069 | 2.82956 | 2° | 29km/h | 18622m | -14.9m/s | 0°C | 0% | 0hPa | 0V | 00:00:00 | 00:00:00 | 00:00:00 | |
| EA3GEO | 2026-08-31 12:15:17 | 41.58001 | 2.82947 | 13° | 38km/h | 18748m | -11.8m/s | 0°C | 0% | 0hPa | 0V | 00:00:00 | 00:00:00 | 00:00:00 | |
| EA3GEO | 2026-08-31 12:15:09 | 41.57934 | 2.82917 | 30° | 40km/h | 18849m | -13.5m/s | 0°C | 0% | 0hPa | 0V | 00:00:00 | 00:00:00 | 00:00:00 | |
| EA3GEO | 2026-08-31 12:14:42 | 41.57851 | 2.82819 | 0° | 0km/h | 19247m | -12.3m/s | 0°C | 0% | 0hPa | 0V | 00:00:00 | 00:00:00 | 00:00:00 | |
| EA3GEO | 2026-08-31 12:14:24 | 41.57841 | 2.82812 | 339° | 4km/h | 19484m | -10.9m/s | 0°C | 0% | 0hPa | 0V | 00:00:00 | 00:00:00 | 00:00:00 | |
| EA3GEO | 2026-08-31 12:13:47 | 41.57686 | 2.82851 | 8° | 20km/h | 20019m | -13.1m/s | 0°C | 0% | 0hPa | 0V | 00:00:00 | 00:00:00 | 00:00:00 | |
| EA3GEO | 2026-08-31 12:13:41 | 41.57664 | 2.82829 | 54° | 22km/h | 20104m | -12.3m/s | 0°C | 0% | 0hPa | 0V | 00:00:00 | 00:00:00 | 00:00:00 | |
| EA3GEO | 2026-08-31 12:13:34 | 41.57641 | 2.82787 | 66° | 18km/h | 20207m | -11.4m/s | 0°C | 0% | 0hPa | 0V | 00:00:00 | 00:00:00 | 00:00:00 | |
| EA3GEO | 2026-08-31 12:13:16 | 41.57611 | 2.82722 | 339° | 7km/h | 20475m | -13.8m/s | 0°C | 0% | 0hPa | 0V | 00:00:00 | 00:00:00 | 00:00:00 | |
| EA3GEO | 2026-08-31 12:12:48 | 41.57556 | 2.82677 | 74° | 9km/h | 20880m | -13.9m/s | 0°C | 0% | 0hPa | 0V | 00:00:00 | 00:00:00 | 00:00:00 | |
| EA3GEO | 2026-08-31 12:12:42 | 41.57547 | 2.82662 | 6° | 9km/h | 20965m | -12.9m/s | 0°C | 0% | 0hPa | 0V | 00:00:00 | 00:00:00 | 00:00:00 | |
| EA3GEO | 2026-08-31 12:12:25 | 41.57545 | 2.82668 | 205° | 7km/h | 21239m | -12.5m/s | 0°C | 0% | 0hPa | 0V | 00:00:00 | 00:00:00 | 00:00:00 | |
| EA3GEO | 2026-08-31 12:12:03 | 41.57581 | 2.82693 | 237° | 18km/h | 21575m | -9.7m/s | 0°C | 0% | 0hPa | 0V | 00:00:00 | 00:00:00 | 00:00:00 | |
| EA3GEO | 2026-08-31 12:11:56 | 41.57580 | 2.82712 | 317° | 27km/h | 21666m | -13.9m/s | 0°C | 0% | 0hPa | 0V | 00:00:00 | 00:00:00 | 00:00:00 | |
| EA3GEO | 2026-08-31 12:11:46 | 41.57571 | 2.82743 | 290° | 16km/h | 21810m | -9.5m/s | 0°C | 0% | 0hPa | 0V | 00:00:00 | 00:00:00 | 00:00:00 | |
| EA3GEO | 2026-08-31 12:11:34 | 41.57538 | 2.82782 | 319° | 18km/h | 21973m | -14.0m/s | 0°C | 0% | 0hPa | 0V | 00:00:00 | 00:00:00 | 00:00:00 | |
| EA3GEO | 2026-08-31 12:11:23 | 41.57518 | 2.82798 | 294° | 7km/h | 22135m | -13.2m/s | 0°C | 0% | 0hPa | 0V | 00:00:00 | 00:00:00 | 00:00:00 | |
| EA3GEO | 2026-08-31 12:11:02 | 41.57488 | 2.82882 | 309° | 22km/h | 22421m | -20.5m/s | 0°C | 0% | 0hPa | 0V | 00:00:00 | 00:00:00 | 00:00:00 | |
| EA3GEO | 2026-08-31 12:10:54 | 41.57478 | 2.82936 | 280° | 24km/h | 22422m | 4.8m/s | 0°C | 0% | 0hPa | 0V | 00:00:00 | 00:00:00 | 00:00:00 | |
| EA3GEO | 2026-08-31 12:10:48 | 41.57463 | 2.82977 | 316° | 22km/h | 22390m | 3.6m/s | 0°C | 0% | 0hPa | 0V | 00:00:00 | 00:00:00 | 00:00:00 | |
| EA3GEO | 2026-08-31 12:10:41 | 41.57466 | 2.83021 | 301° | 22km/h | 22354m | 4.3m/s | 0°C | 0% | 0hPa | 0V | 00:00:00 | 00:00:00 | 00:00:00 | |
| EA3GEO | 2026-08-31 12:10:35 | 41.57459 | 2.83047 | 269° | 16km/h | 22323m | 5.3m/s | 0°C | 0% | 0hPa | 0V | 00:00:00 | 00:00:00 | 00:00:00 | |
| EA3GEO | 2026-08-31 12:10:27 | 41.57447 | 2.83090 | 295° | 7km/h | 22281m | 4.6m/s | 0°C | 0% | 0hPa | 0V | 00:00:00 | 00:00:00 | 00:00:00 | |
| EA3GEO | 2026-08-31 12:10:20 | 41.57450 | 2.83124 | 311° | 16km/h | 22248m | 7.1m/s | 0°C | 0% | 0hPa | 0V | 00:00:00 | 00:00:00 | 00:00:00 | |
| EA3GEO | 2026-08-31 12:10:14 | 41.57440 | 2.83140 | 219° | 16km/h | 22218m | 5.4m/s | 0°C | 0% | 0hPa | 0V | 00:00:00 | 00:00:00 | 00:00:00 | |
| EA3GEO | 2026-08-31 12:10:08 | 41.57430 | 2.83155 | 335° | 13km/h | 22184m | 6.5m/s | 0°C | 0% | 0hPa | 0V | 00:00:00 | 00:00:00 | 00:00:00 | |
| EA3GEO | 2026-08-31 12:10:01 | 41.57434 | 2.83158 | 179° | 7km/h | 22153m | 5.2m/s | 0°C | 0% | 0hPa | 0V | 00:00:00 | 00:00:00 | 00:00:00 | |
| EA3GEO | 2026-08-31 12:09:56 | 41.57427 | 2.83159 | 330° | 11km/h | 22128m | 6.6m/s | 0°C | 0% | 0hPa | 0V | 00:00:00 | 00:00:00 | 00:00:00 | |
| EA3GEO | 2026-08-31 12:09:50 | 41.57423 | 2.83164 | 318° | 2km/h | 22100m | 7.0m/s | 0°C | 0% | 0hPa | 0V | 00:00:00 | 00:00:00 | 00:00:00 | |
| EA3GEO | 2026-08-31 12:09:44 | 41.57414 | 2.83182 | 326° | 16km/h | 22068m | 5.4m/s | 0°C | 0% | 0hPa | 0V | 00:00:00 | 00:00:00 | 00:00:00 | |
| EA3GEO | 2026-08-31 12:09:38 | 41.57390 | 2.83188 | 321° | 24km/h | 22038m | 5.3m/s | 0°C | 0% | 0hPa | 0V | 00:00:00 | 00:00:00 | 00:00:00 | |
| EA3GEO | 2026-08-31 12:09:33 | 41.57373 | 2.83209 | 323° | 18km/h | 22013m | 5.8m/s | 0°C | 0% | 0hPa | 0V | 00:00:00 | 00:00:00 | 00:00:00 | |
| EA3IBE | 2026-08-31 12:09:30 | 41.57361 | 2.83220 | 338° | 16km/h | 21998m | 6.2m/s | 0°C | 0% | 0hPa | 0V | 00:00:00 | 00:00:00 | 00:00:00 | |
| EA3IBE | 2026-08-31 12:09:25 | 41.57345 | 2.83226 | 317° | 9km/h | 21973m | 5.9m/s | 0°C | 0% | 0hPa | 0V | 00:00:00 | 00:00:00 | 00:00:00 | |
| EA3GEO | 2026-08-31 12:09:24 | 41.57344 | 2.83228 | 290° | 5km/h | 21968m | 5.0m/s | 0°C | 0% | 0hPa | 0V | 00:00:00 | 00:00:00 | 00:00:00 | |
| EA3GEO | 2026-08-31 12:09:18 | 41.57330 | 2.83251 | 348° | 13km/h | 21937m | 4.7m/s | 0°C | 0% | 0hPa | 0V | 00:00:00 | 00:00:00 | 00:00:00 | |
| EA3GEO | 2026-08-31 12:09:12 | 41.57315 | 2.83267 | 297° | 11km/h | 21908m | 6.0m/s | 0°C | 0% | 0hPa | 0V | 00:00:00 | 00:00:00 | 00:00:00 | |
| EA3GEO | 2026-08-31 12:09:05 | 41.57302 | 2.83290 | 307° | 9km/h | 21867m | 6.0m/s | 0°C | 0% | 0hPa | 0V | 00:00:00 | 00:00:00 | 00:00:00 | |
| EA3IBE | 2026-08-31 12:08:59 | 41.57295 | 2.83299 | 290° | 4km/h | 21841m | 5.7m/s | 0°C | 0% | 0hPa | 0V | 00:00:00 | 00:00:00 | 00:00:00 | |
| EA3GEO | 2026-08-31 12:08:58 | 41.57295 | 2.83301 | 284° | 5km/h | 21836m | 5.4m/s | 0°C | 0% | 0hPa | 0V | 00:00:00 | 00:00:00 | 00:00:00 | |
| EA3GEO | 2026-08-31 12:08:50 | 41.57290 | 2.83320 | 277° | 7km/h | 21796m | 5.5m/s | 0°C | 0% | 0hPa | 0V | 00:00:00 | 00:00:00 | 00:00:00 | |
| EA3IBE | 2026-08-31 12:08:46 | 41.57285 | 2.83329 | 307° | 16km/h | 21777m | 4.2m/s | 0°C | 0% | 0hPa | 0V | 00:00:00 | 00:00:00 | 00:00:00 | |
| EA3GEO | 2026-08-31 12:08:45 | 41.57282 | 2.83333 | 306° | 15km/h | 21772m | 5.1m/s | 0°C | 0% | 0hPa | 0V | 00:00:00 | 00:00:00 | 00:00:00 | |
| EA3GEO | 2026-08-31 12:08:40 | 41.57263 | 2.83351 | 326° | 29km/h | 21747m | 4.9m/s | 0°C | 0% | 0hPa | 0V | 00:00:00 | 00:00:00 | 00:00:00 | |
| EA3IBE | 2026-08-31 12:08:33 | 41.57243 | 2.83381 | 264° | 7km/h | 21712m | 6.8m/s | 0°C | 0% | 0hPa | 0V | 00:00:00 | 00:00:00 | 00:00:00 | |
| EA3IBE | 2026-08-31 12:08:23 | 41.57228 | 2.83406 | 240° | 13km/h | 21662m | 6.8m/s | 0°C | 0% | 0hPa | 0V | 00:00:00 | 00:00:00 | 00:00:00 | |
| EA3GEO | 2026-08-31 12:08:19 | 41.57231 | 2.83425 | 299° | 7km/h | 21642m | 5.5m/s | 0°C | 0% | 0hPa | 0V | 00:00:00 | 00:00:00 | 00:00:00 | |
| EA3IBE | 2026-08-31 12:08:17 | 41.57227 | 2.83430 | 316° | 13km/h | 21630m | 5.3m/s | 0°C | 0% | 0hPa | 0V | 00:00:00 | 00:00:00 | 00:00:00 | |
| EA3GEO | 2026-08-31 12:08:13 | 41.57225 | 2.83437 | 217° | 9km/h | 21611m | 4.0m/s | 0°C | 0% | 0hPa | 0V | 00:00:00 | 00:00:00 | 00:00:00 | |
| EA3GEO | 2026-08-31 12:08:01 | 41.57241 | 2.83479 | 239° | 9km/h | 21549m | 6.6m/s | 0°C | 0% | 0hPa | 0V | 00:00:00 | 00:00:00 | 00:00:00 | |
| EA3GEO | 2026-08-31 12:07:45 | 41.57277 | 2.83506 | 202° | 5km/h | 21469m | 4.6m/s | 0°C | 0% | 0hPa | 0V | 00:00:00 | 00:00:00 | 00:00:00 | |
| EA3GEO | 2026-08-31 12:07:39 | 41.57297 | 2.83513 | 174° | 13km/h | 21439m | 4.9m/s | 0°C | 0% | 0hPa | 0V | 00:00:00 | 00:00:00 | 00:00:00 | |
| EA3GEO | 2026-08-31 12:07:33 | 41.57306 | 2.83517 | 191° | 7km/h | 21408m | 6.1m/s | 0°C | 0% | 0hPa | 0V | 00:00:00 | 00:00:00 | 00:00:00 | |
| EA3GEO | 2026-08-31 12:07:25 | 41.57321 | 2.83516 | 302° | 4km/h | 21368m | 5.1m/s | 0°C | 0% | 0hPa | 0V | 00:00:00 | 00:00:00 | 00:00:00 | |
| EA3GEO | 2026-08-31 12:07:18 | 41.57329 | 2.83517 | 156° | 5km/h | 21335m | 6.2m/s | 0°C | 0% | 0hPa | 0V | 00:00:00 | 00:00:00 | 00:00:00 | |
| EA3GEO | 2026-08-31 12:07:11 | 41.57336 | 2.83521 | 229° | 9km/h | 21299m | 5.0m/s | 0°C | 0% | 0hPa | 0V | 00:00:00 | 00:00:00 | 00:00:00 | |
| EA3GEO | 2026-08-31 12:07:06 | 41.57338 | 2.83520 | 101° | 9km/h | 21275m | 6.4m/s | 0°C | 0% | 0hPa | 0V | 00:00:00 | 00:00:00 | 00:00:00 | |
| EA3GEO | 2026-08-31 12:06:52 | 41.57338 | 2.83497 | 106° | 7km/h | 21202m | 5.8m/s | 0°C | 0% | 0hPa | 0V | 00:00:00 | 00:00:00 | 00:00:00 | |
| EA3GEO | 2026-08-31 12:06:43 | 41.57333 | 2.83502 | 47° | 5km/h | 21156m | 6.6m/s | 0°C | 0% | 0hPa | 0V | 00:00:00 | 00:00:00 | 00:00:00 | |
| EA3GEO | 2026-08-31 12:06:36 | 41.57327 | 2.83516 | 15° | 2km/h | 21120m | 4.4m/s | 0°C | 0% | 0hPa | 0V | 00:00:00 | 00:00:00 | 00:00:00 | |
| EA3GEO | 2026-08-31 12:06:30 | 41.57323 | 2.83517 | 311° | 7km/h | 21089m | 5.5m/s | 0°C | 0% | 0hPa | 0V | 00:00:00 | 00:00:00 | 00:00:00 | |
| EA3GEO | 2026-08-31 12:06:24 | 41.57313 | 2.83534 | 6° | 15km/h | 21059m | 4.8m/s | 0°C | 0% | 0hPa | 0V | 00:00:00 | 00:00:00 | 00:00:00 | |
| EA3GEO | 2026-08-31 12:06:18 | 41.57299 | 2.83548 | 321° | 18km/h | 21029m | 4.8m/s | 0°C | 0% | 0hPa | 0V | 00:00:00 | 00:00:00 | 00:00:00 | |
| EA3GEO | 2026-08-31 12:06:13 | 41.57286 | 2.83553 | 3° | 13km/h | 21003m | 4.3m/s | 0°C | 0% | 0hPa | 0V | 00:00:00 | 00:00:00 | 00:00:00 | |
| EA3GEO | 2026-08-31 12:06:08 | 41.57279 | 2.83559 | 337° | 11km/h | 20976m | 4.3m/s | 0°C | 0% | 0hPa | 0V | 00:00:00 | 00:00:00 | 00:00:00 | |
| EA3GEO | 2026-08-31 12:05:56 | 41.57257 | 2.83556 | 54° | 16km/h | 20916m | 6.8m/s | 0°C | 0% | 0hPa | 0V | 00:00:00 | 00:00:00 | 00:00:00 | |
| EA3GEO | 2026-08-31 12:05:49 | 41.57251 | 2.83521 | 125° | 5km/h | 20882m | 5.6m/s | 0°C | 0% | 0hPa | 0V | 00:00:00 | 00:00:00 | 00:00:00 | |
| EA3GEO | 2026-08-31 12:05:44 | 41.57253 | 2.83517 | 95° | 9km/h | 20856m | 3.9m/s | 0°C | 0% | 0hPa | 0V | 00:00:00 | 00:00:00 | 00:00:00 | |
| EA3GEO | 2026-08-31 12:05:38 | 41.57247 | 2.83504 | 152° | 7km/h | 20828m | 5.2m/s | 0°C | 0% | 0hPa | 0V | 00:00:00 | 00:00:00 | 00:00:00 | |
| EA3GEO | 2026-08-31 12:05:32 | 41.57251 | 2.83501 | 26° | 4km/h | 20798m | 5.4m/s | 0°C | 0% | 0hPa | 0V | 00:00:00 | 00:00:00 | 00:00:00 | |
| EA3GEO | 2026-08-31 12:05:25 | 41.57245 | 2.83495 | 29° | 4km/h | 20762m | 5.6m/s | 0°C | 0% | 0hPa | 0V | 00:00:00 | 00:00:00 | 00:00:00 | |
| EA3GEO | 2026-08-31 12:05:20 | 41.57238 | 2.83488 | 31° | 11km/h | 20739m | 3.7m/s | 0°C | 0% | 0hPa | 0V | 00:00:00 | 00:00:00 | 00:00:00 | |
| EA3GEO | 2026-08-31 12:05:12 | 41.57214 | 2.83486 | 352° | 7km/h | 20699m | 4.3m/s | 0°C | 0% | 0hPa | 0V | 00:00:00 | 00:00:00 | 00:00:00 | |
| EA3GEO | 2026-08-31 12:05:07 | 41.57202 | 2.83480 | 32° | 15km/h | 20674m | 5.2m/s | 0°C | 0% | 0hPa | 0V | 00:00:00 | 00:00:00 | 00:00:00 | |
| EA3GEO | 2026-08-31 12:04:56 | 41.57168 | 2.83453 | 39° | 18km/h | 20619m | 5.6m/s | 0°C | 0% | 0hPa | 0V | 00:00:00 | 00:00:00 | 00:00:00 | |
| EA3GEO | 2026-08-31 12:04:50 | 41.57142 | 2.83441 | 5° | 15km/h | 20589m | 6.4m/s | 0°C | 0% | 0hPa | 0V | 00:00:00 | 00:00:00 | 00:00:00 | |
| EA3GEO | 2026-08-31 12:04:45 | 41.57131 | 2.83432 | 30° | 13km/h | 20563m | 4.6m/s | 0°C | 0% | 0hPa | 0V | 00:00:00 | 00:00:00 | 00:00:00 | |
| EA3GEO | 2026-08-31 12:04:37 | 41.57109 | 2.83434 | 287° | 5km/h | 20522m | 3.5m/s | 0°C | 0% | 0hPa | 0V | 00:00:00 | 00:00:00 | 00:00:00 | |
| EA3GEO | 2026-08-31 12:04:29 | 41.57094 | 2.83442 | 355° | 5km/h | 20483m | 4.7m/s | 0°C | 0% | 0hPa | 0V | 00:00:00 | 00:00:00 | 00:00:00 | |
| EA3GEO | 2026-08-31 12:04:17 | 41.57082 | 2.83436 | 338° | 2km/h | 20423m | 4.6m/s | 0°C | 0% | 0hPa | 0V | 00:00:00 | 00:00:00 | 00:00:00 | |
| EA3GEO | 2026-08-31 12:04:12 | 41.57079 | 2.83431 | 113° | 4km/h | 20398m | 4.7m/s | 0°C | 0% | 0hPa | 0V | 00:00:00 | 00:00:00 | 00:00:00 | |
| EA3GEO | 2026-08-31 12:04:06 | 41.57075 | 2.83413 | 58° | 5km/h | 20369m | 4.1m/s | 0°C | 0% | 0hPa | 0V | 00:00:00 | 00:00:00 | 00:00:00 | |
| EA3GEO | 2026-08-31 12:03:59 | 41.57074 | 2.83387 | 80° | 16km/h | 20336m | 5.3m/s | 0°C | 0% | 0hPa | 0V | 00:00:00 | 00:00:00 | 00:00:00 | |
| EA3GEO | 2026-08-31 12:03:52 | 41.57065 | 2.83354 | 102° | 16km/h | 20301m | 5.9m/s | 0°C | 0% | 0hPa | 0V | 00:00:00 | 00:00:00 | 00:00:00 | |
| EA3GEO | 2026-08-31 12:03:44 | 41.57049 | 2.83306 | 77° | 18km/h | 20262m | 4.7m/s | 0°C | 0% | 0hPa | 0V | 00:00:00 | 00:00:00 | 00:00:00 | |
| EA3GEO | 2026-08-31 12:03:39 | 41.57044 | 2.83272 | 80° | 18km/h | 20239m | 4.2m/s | 0°C | 0% | 0hPa | 0V | 00:00:00 | 00:00:00 | 00:00:00 | |
| EA3GEO | 2026-08-31 12:03:33 | 41.57021 | 2.83242 | 72° | 18km/h | 20210m | 4.8m/s | 0°C | 0% | 0hPa | 0V | 00:00:00 | 00:00:00 | 00:00:00 | |
| EA3GEO | 2026-08-31 12:03:27 | 41.57013 | 2.83201 | 41° | 20km/h | 20180m | 6.3m/s | 0°C | 0% | 0hPa | 0V | 00:00:00 | 00:00:00 | 00:00:00 | |
| EA3GEO | 2026-08-31 12:03:19 | 41.56990 | 2.83152 | 75° | 24km/h | 20144m | 2.9m/s | 0°C | 0% | 0hPa | 0V | 00:00:00 | 00:00:00 | 00:00:00 | |
| EA3GEO | 2026-08-31 12:03:12 | 41.56965 | 2.83132 | 41° | 27km/h | 20110m | 4.0m/s | 0°C | 0% | 0hPa | 0V | 00:00:00 | 00:00:00 | 00:00:00 | |
| EA3GEO | 2026-08-31 12:03:03 | 41.56932 | 2.83112 | 14° | 26km/h | 20066m | 6.2m/s | 0°C | 0% | 0hPa | 0V | 00:00:00 | 00:00:00 | 00:00:00 | |
| EA3GEO | 2026-08-31 12:02:41 | 41.56829 | 2.83135 | 354° | 20km/h | 19963m | 3.8m/s | 0°C | 0% | 0hPa | 0V | 00:00:00 | 00:00:00 | 00:00:00 | |
| EA3GEO | 2026-08-31 12:01:16 | 41.56539 | 2.83239 | 22° | 4km/h | 19550m | 4.9m/s | 0°C | 0% | 0hPa | 0V | 00:00:00 | 00:00:00 | 00:00:00 | |
| EA3GEO | 2026-08-31 12:01:10 | 41.56533 | 2.83229 | 2° | 7km/h | 19519m | 4.9m/s | 0°C | 0% | 0hPa | 0V | 00:00:00 | 00:00:00 | 00:00:00 | |
| EA3GEO | 2026-08-31 12:01:01 | 41.56534 | 2.83218 | 348° | 9km/h | 19476m | 5.2m/s | 0°C | 0% | 0hPa | 0V | 00:00:00 | 00:00:00 | 00:00:00 | |
| EA3GEO | 2026-08-31 12:00:54 | 41.56537 | 2.83213 | 136° | 15km/h | 19441m | 5.9m/s | 0°C | 0% | 0hPa | 0V | 00:00:00 | 00:00:00 | 00:00:00 | |
| EA3GEO | 2026-08-31 12:00:47 | 41.56528 | 2.83197 | 83° | 13km/h | 19406m | 4.6m/s | 0°C | 0% | 0hPa | 0V | 00:00:00 | 00:00:00 | 00:00:00 | |
| EA3GEO | 2026-08-31 12:00:39 | 41.56523 | 2.83177 | 11° | 15km/h | 19367m | 4.7m/s | 0°C | 0% | 0hPa | 0V | 00:00:00 | 00:00:00 | 00:00:00 | |
| EA3GEO | 2026-08-31 12:00:31 | 41.56523 | 2.83166 | 113° | 2km/h | 19329m | 4.0m/s | 0°C | 0% | 0hPa | 0V | 00:00:00 | 00:00:00 | 00:00:00 | |
| EA3GEO | 2026-08-31 12:00:24 | 41.56518 | 2.83168 | 44° | 2km/h | 19292m | 4.3m/s | 0°C | 0% | 0hPa | 0V | 00:00:00 | 00:00:00 | 00:00:00 | |
| EA3GEO | 2026-08-31 12:00:19 | 41.56517 | 2.83168 | 23° | 4km/h | 19264m | 3.3m/s | 0°C | 0% | 0hPa | 0V | 00:00:00 | 00:00:00 | 00:00:00 | |
| EA3GEO | 2026-08-31 12:00:10 | 41.56528 | 2.83173 | 142° | 5km/h | 19225m | 5.4m/s | 0°C | 0% | 0hPa | 0V | 00:00:00 | 00:00:00 | 00:00:00 | |
| EA3GEO | 2026-08-31 12:00:05 | 41.56530 | 2.83158 | 162° | 11km/h | 19201m | 5.2m/s | 0°C | 0% | 0hPa | 0V | 00:00:00 | 00:00:00 | 00:00:00 | |
| EA3GEO | 2026-08-31 11:59:59 | 41.56542 | 2.83144 | 106° | 15km/h | 19172m | 5.4m/s | 0°C | 0% | 0hPa | 0V | 00:00:00 | 00:00:00 | 00:00:00 | |
| EA3GEO | 2026-08-31 11:59:53 | 41.56543 | 2.83120 | 77° | 9km/h | 19144m | 2.9m/s | 0°C | 0% | 0hPa | 0V | 00:00:00 | 00:00:00 | 00:00:00 | |
| EA3GEO | 2026-08-31 11:59:47 | 41.56537 | 2.83081 | 47° | 11km/h | 19115m | 5.0m/s | 0°C | 0% | 0hPa | 0V | 00:00:00 | 00:00:00 | 00:00:00 | |
| EA3GEO | 2026-08-31 11:59:38 | 41.56519 | 2.83043 | 49° | 18km/h | 19073m | 4.5m/s | 0°C | 0% | 0hPa | 0V | 00:00:00 | 00:00:00 | 00:00:00 | |
| EA3GEO | 2026-08-31 11:59:33 | 41.56495 | 2.83026 | 51° | 22km/h | 19047m | 4.2m/s | 0°C | 0% | 0hPa | 0V | 00:00:00 | 00:00:00 | 00:00:00 | |
| EA3GEO | 2026-08-31 11:59:28 | 41.56476 | 2.82998 | 51° | 20km/h | 19024m | 3.5m/s | 0°C | 0% | 0hPa | 0V | 00:00:00 | 00:00:00 | 00:00:00 | |
| EA3GEO | 2026-08-31 11:59:20 | 41.56433 | 2.82978 | 30° | 27km/h | 18985m | 4.9m/s | 0°C | 0% | 0hPa | 0V | 00:00:00 | 00:00:00 | 00:00:00 | |
| EA3GEO | 2026-08-31 11:59:14 | 41.56397 | 2.82950 | 26° | 29km/h | 18957m | 4.7m/s | 0°C | 0% | 0hPa | 0V | 00:00:00 | 00:00:00 | 00:00:00 | |
| EA3GEO | 2026-08-31 11:59:08 | 41.56357 | 2.82928 | 33° | 37km/h | 18929m | 3.8m/s | 0°C | 0% | 0hPa | 0V | 00:00:00 | 00:00:00 | 00:00:00 | |
| EA3GEO | 2026-08-31 11:59:02 | 41.56313 | 2.82899 | 9° | 33km/h | 18901m | 5.8m/s | 0°C | 0% | 0hPa | 0V | 00:00:00 | 00:00:00 | 00:00:00 | |
| EA3GEO | 2026-08-31 11:58:55 | 41.56256 | 2.82864 | 35° | 42km/h | 18866m | 4.2m/s | 0°C | 0% | 0hPa | 0V | 00:00:00 | 00:00:00 | 00:00:00 | |
| EA3GEO | 2026-08-31 11:58:49 | 41.56201 | 2.82838 | 16° | 44km/h | 18834m | 4.9m/s | 0°C | 0% | 0hPa | 0V | 00:00:00 | 00:00:00 | 00:00:00 | |
| EA3GEO | 2026-08-31 11:58:44 | 41.56156 | 2.82813 | 15° | 38km/h | 18809m | 5.6m/s | 0°C | 0% | 0hPa | 0V | 00:00:00 | 00:00:00 | 00:00:00 | |
| EA3GEO | 2026-08-31 11:58:35 | 41.56083 | 2.82795 | 15° | 31km/h | 18766m | 4.2m/s | 0°C | 0% | 0hPa | 0V | 00:00:00 | 00:00:00 | 00:00:00 | |
| EA3GEO | 2026-08-31 11:58:24 | 41.55995 | 2.82794 | 3° | 33km/h | 18708m | 5.4m/s | 0°C | 0% | 0hPa | 0V | 00:00:00 | 00:00:00 | 00:00:00 | |
| EA3GEO | 2026-08-31 11:57:32 | 41.55703 | 2.82849 | 331° | 9km/h | 18447m | 4.7m/s | 0°C | 0% | 0hPa | 0V | 00:00:00 | 00:00:00 | 00:00:00 | |
| EA3GEO | 2026-08-31 11:57:21 | 41.55680 | 2.82895 | 299° | 15km/h | 18400m | 5.7m/s | 0°C | 0% | 0hPa | 0V | 00:00:00 | 00:00:00 | 00:00:00 | |
| EA3GEO | 2026-08-31 11:56:43 | 41.55684 | 2.82987 | 105° | 7km/h | 18205m | 4.4m/s | 0°C | 0% | 0hPa | 0V | 00:00:00 | 00:00:00 | 00:00:00 | |
| EA3GEO | 2026-08-31 11:56:35 | 41.55693 | 2.82986 | 134° | 11km/h | 18159m | 6.4m/s | 0°C | 0% | 0hPa | 0V | 00:00:00 | 00:00:00 | 00:00:00 | |
| EA3GEO | 2026-08-31 11:56:24 | 41.55726 | 2.82968 | 188° | 31km/h | 18095m | 3.8m/s | 0°C | 0% | 0hPa | 0V | 00:00:00 | 00:00:00 | 00:00:00 | |
| EA3GEO | 2026-08-31 11:56:15 | 41.55746 | 2.82913 | 124° | 29km/h | 18044m | 6.7m/s | 0°C | 0% | 0hPa | 0V | 00:00:00 | 00:00:00 | 00:00:00 | |
| EA3GEO | 2026-08-31 11:56:06 | 41.55774 | 2.82844 | 120° | 38km/h | 17995m | 5.0m/s | 0°C | 0% | 0hPa | 0V | 00:00:00 | 00:00:00 | 00:00:00 | |
| EA3GEO | 2026-08-31 11:55:33 | 41.55878 | 2.82368 | 101° | 49km/h | 17852m | 4.4m/s | 0°C | 0% | 0hPa | 0V | 00:00:00 | 00:00:00 | 00:00:00 | |
| EA3GEO | 2026-08-31 11:55:15 | 41.55908 | 2.82069 | 99° | 51km/h | 17770m | 5.1m/s | 0°C | 0% | 0hPa | 0V | 00:00:00 | 00:00:00 | 00:00:00 | |
| EA3GEO | 2026-08-31 11:53:57 | 41.55709 | 2.80656 | 63° | 51km/h | 17407m | 3.5m/s | 0°C | 0% | 0hPa | 0V | 00:00:00 | 00:00:00 | 00:00:00 | |
| EA3GEO | 2026-08-31 11:53:19 | 41.55381 | 2.80200 | 52° | 40km/h | 17218m | 3.7m/s | 0°C | 0% | 0hPa | 0V | 00:00:00 | 00:00:00 | 00:00:00 | |
| EA3GEO | 2026-08-31 11:53:08 | 41.55301 | 2.80111 | 51° | 44km/h | 17170m | 5.8m/s | 0°C | 0% | 0hPa | 0V | 00:00:00 | 00:00:00 | 00:00:00 | |
| EA3GEO | 2026-08-31 11:52:41 | 41.55121 | 2.79824 | 46° | 33km/h | 17036m | 4.7m/s | 0°C | 0% | 0hPa | 0V | 00:00:00 | 00:00:00 | 00:00:00 | |
| EA3GEO | 2026-08-31 11:52:03 | 41.55032 | 2.79504 | 93° | 26km/h | 16866m | 4.8m/s | 0°C | 0% | 0hPa | 0V | 00:00:00 | 00:00:00 | 00:00:00 | |
| EA3GEO | 2026-08-31 11:51:55 | 41.55033 | 2.79448 | 91° | 20km/h | 16831m | 5.3m/s | 0°C | 0% | 0hPa | 0V | 00:00:00 | 00:00:00 | 00:00:00 | |
| EA3GEO | 2026-08-31 11:51:24 | 41.55076 | 2.79167 | 106° | 29km/h | 16692m | 5.5m/s | 0°C | 0% | 0hPa | 0V | 00:00:00 | 00:00:00 | 00:00:00 | |
| EA3GEO | 2026-08-31 11:51:18 | 41.55086 | 2.79099 | 118° | 42km/h | 16666m | 5.8m/s | 0°C | 0% | 0hPa | 0V | 00:00:00 | 00:00:00 | 00:00:00 | |
| EA3GEO | 2026-08-31 11:49:51 | 41.54947 | 2.77668 | 75° | 49km/h | 16247m | 5.5m/s | 0°C | 0% | 0hPa | 0V | 00:00:00 | 00:00:00 | 00:00:00 | |
| EA3GEO | 2026-08-31 11:49:46 | 41.54929 | 2.77585 | 73° | 51km/h | 16224m | 5.0m/s | 0°C | 0% | 0hPa | 0V | 00:00:00 | 00:00:00 | 00:00:00 | |
| EA3GEO | 2026-08-31 11:49:40 | 41.54902 | 2.77483 | 79° | 53km/h | 16198m | 4.9m/s | 0°C | 0% | 0hPa | 0V | 00:00:00 | 00:00:00 | 00:00:00 | |
| EA3GEO | 2026-08-31 11:49:33 | 41.54871 | 2.77372 | 69° | 47km/h | 16165m | 5.4m/s | 0°C | 0% | 0hPa | 0V | 00:00:00 | 00:00:00 | 00:00:00 | |
| EA3GEO | 2026-08-31 11:49:26 | 41.54838 | 2.77270 | 60° | 46km/h | 16136m | 5.9m/s | 0°C | 0% | 0hPa | 0V | 00:00:00 | 00:00:00 | 00:00:00 | |
| EA3GEO | 2026-08-31 11:49:16 | 41.54796 | 2.77146 | 64° | 31km/h | 16088m | 4.4m/s | 0°C | 0% | 0hPa | 0V | 00:00:00 | 00:00:00 | 00:00:00 | |
| EA3GEO | 2026-08-31 11:49:06 | 41.54766 | 2.77045 | 77° | 29km/h | 16041m | 4.9m/s | 0°C | 0% | 0hPa | 0V | 00:00:00 | 00:00:00 | 00:00:00 | |
| EA3GEO | 2026-08-31 11:48:26 | 41.54707 | 2.76577 | 89° | 51km/h | 15853m | 5.3m/s | 0°C | 0% | 0hPa | 0V | 00:00:00 | 00:00:00 | 00:00:00 | |
| EA3GEO | 2026-08-31 11:47:36 | 41.54593 | 2.75873 | 64° | 37km/h | 15620m | 5.7m/s | 0°C | 0% | 0hPa | 0V | 00:00:00 | 00:00:00 | 00:00:00 | |
| EA3GEO | 2026-08-31 11:46:31 | 41.54386 | 2.74652 | 75° | 66km/h | 15313m | 4.7m/s | 0°C | 0% | 0hPa | 0V | 00:00:00 | 00:00:00 | 00:00:00 | |
| EA3GEO | 2026-08-31 11:45:58 | 41.54291 | 2.73947 | 71° | 57km/h | 15165m | 4.3m/s | 0°C | 0% | 0hPa | 0V | 00:00:00 | 00:00:00 | 00:00:00 | |
| EA3GEO | 2026-08-31 11:45:27 | 41.54187 | 2.73289 | 74° | 69km/h | 15025m | 5.9m/s | 0°C | 0% | 0hPa | 0V | 00:00:00 | 00:00:00 | 00:00:00 | |
| EA3IBE | 2026-08-31 11:44:36 | 41.54068 | 2.72031 | 85° | 80km/h | 14792m | 3.9m/s | 0°C | 0% | 0hPa | 0V | 00:00:00 | 00:00:00 | 00:00:00 | |
| EA3IBE | 2026-08-31 11:44:24 | 41.54036 | 2.71707 | 84° | 78km/h | 14737m | 5.1m/s | 0°C | 0% | 0hPa | 0V | 00:00:00 | 00:00:00 | 00:00:00 | |
| EA3IBE | 2026-08-31 11:44:17 | 41.54009 | 2.71517 | 88° | 80km/h | 14705m | 4.9m/s | 0°C | 0% | 0hPa | 0V | 00:00:00 | 00:00:00 | 00:00:00 | |
| EA3IBE | 2026-08-31 11:44:09 | 41.53994 | 2.71307 | 85° | 84km/h | 14669m | 4.9m/s | 0°C | 0% | 0hPa | 0V | 00:00:00 | 00:00:00 | 00:00:00 | |
| EA3GEO | 2026-08-31 11:43:37 | 41.53859 | 2.70415 | 78° | 95km/h | 14527m | 4.8m/s | 0°C | 0% | 0hPa | 0V | 00:00:00 | 00:00:00 | 00:00:00 | |
| EA3GEO | 2026-08-31 11:43:26 | 41.53797 | 2.70071 | 79° | 99km/h | 14477m | 4.4m/s | 0°C | 0% | 0hPa | 0V | 00:00:00 | 00:00:00 | 00:00:00 | |
| EA3GEO | 2026-08-31 11:41:41 | 41.53105 | 2.66832 | 77° | 102km/h | 14014m | 5.9m/s | 0°C | 0% | 0hPa | 0V | 00:00:00 | 00:00:00 | 00:00:00 | |
| EA3GEO | 2026-08-31 11:40:44 | 41.52746 | 2.64920 | 74° | 104km/h | 13745m | 3.4m/s | 0°C | 0% | 0hPa | 0V | 00:00:00 | 00:00:00 | 00:00:00 | |
| EA3GEO | 2026-08-31 11:39:38 | 41.52112 | 2.62555 | 73° | 122km/h | 13353m | 9.3m/s | 0°C | 0% | 0hPa | 0V | 00:00:00 | 00:00:00 | 00:00:00 | |
| EA3IBE | 2026-08-31 11:39:01 | 41.51680 | 2.61135 | 69° | 120km/h | 13115m | 2.5m/s | 0°C | 0% | 0hPa | 0V | 00:00:00 | 00:00:00 | 00:00:00 | |
| EA3GEO | 2026-08-31 11:39:00 | 41.51680 | 2.61135 | 69° | 120km/h | 13115m | 2.5m/s | 0°C | 0% | 0hPa | 0V | 00:00:00 | 00:00:00 | 00:00:00 | |
| EA3GEO | 2026-08-31 11:38:35 | 41.51346 | 2.60149 | 64° | 119km/h | 12943m | 8.8m/s | 0°C | 0% | 0hPa | 0V | 00:00:00 | 00:00:00 | 00:00:00 | |
| EA3GEO | 2026-08-31 11:38:29 | 41.51274 | 2.59954 | 66° | 131km/h | 12914m | 7.8m/s | 0°C | 0% | 0hPa | 0V | 00:00:00 | 00:00:00 | 00:00:00 | |
| EA3GEO | 2026-08-31 11:38:13 | 41.51045 | 2.59334 | 62° | 131km/h | 12813m | 6.4m/s | 0°C | 0% | 0hPa | 0V | 00:00:00 | 00:00:00 | 00:00:00 | |
| EA3GEO | 2026-08-31 11:38:07 | 41.50965 | 2.59109 | 64° | 130km/h | 12782m | 3.9m/s | 0°C | 0% | 0hPa | 0V | 00:00:00 | 00:00:00 | 00:00:00 | |
| EA3GEO | 2026-08-31 11:37:57 | 41.50816 | 2.58734 | 59° | 126km/h | 12718m | 11.8m/s | 0°C | 0% | 0hPa | 0V | 00:00:00 | 00:00:00 | 00:00:00 | |
| EA3GEO | 2026-08-31 11:37:03 | 41.49965 | 2.56744 | 60° | 126km/h | 12392m | 8.9m/s | 0°C | 0% | 0hPa | 0V | 00:00:00 | 00:00:00 | 00:00:00 | |
| EA3GEO | 2026-08-31 11:36:51 | 41.49766 | 2.56302 | 60° | 130km/h | 12318m | 3.9m/s | 0°C | 0% | 0hPa | 0V | 00:00:00 | 00:00:00 | 00:00:00 | |
| EA3GEO | 2026-08-31 11:36:40 | 41.49598 | 2.55904 | 63° | 124km/h | 12250m | 7.0m/s | 0°C | 0% | 0hPa | 0V | 00:00:00 | 00:00:00 | 00:00:00 | |
| EA3GEO | 2026-08-31 11:36:33 | 41.49489 | 2.55645 | 66° | 128km/h | 12205m | 6.4m/s | 0°C | 0% | 0hPa | 0V | 00:00:00 | 00:00:00 | 00:00:00 | |
| EA3GEO | 2026-08-31 11:36:15 | 41.49203 | 2.54977 | 62° | 124km/h | 12101m | 2.3m/s | 0°C | 0% | 0hPa | 0V | 00:00:00 | 00:00:00 | 00:00:00 | |
| EA3GEO | 2026-08-31 11:36:10 | 41.49128 | 2.54797 | 60° | 124km/h | 12070m | 3.7m/s | 0°C | 0% | 0hPa | 0V | 00:00:00 | 00:00:00 | 00:00:00 | |
| EA3GEO | 2026-08-31 11:35:53 | 41.48861 | 2.54174 | 61° | 122km/h | 11964m | 4.8m/s | 0°C | 0% | 0hPa | 0V | 00:00:00 | 00:00:00 | 00:00:00 | |
| EA3GEO | 2026-08-31 11:35:32 | 41.48527 | 2.53406 | 60° | 120km/h | 11844m | 0.7m/s | 0°C | 0% | 0hPa | 0V | 00:00:00 | 00:00:00 | 00:00:00 | |
| EA3GEO | 2026-08-31 11:35:26 | 41.48430 | 2.53195 | 57° | 124km/h | 11806m | 3.7m/s | 0°C | 0% | 0hPa | 0V | 00:00:00 | 00:00:00 | 00:00:00 | |
| EA3GEO | 2026-08-31 11:35:10 | 41.48175 | 2.52626 | 63° | 120km/h | 11714m | 7.9m/s | 0°C | 0% | 0hPa | 0V | 00:00:00 | 00:00:00 | 00:00:00 | |
| EA3GEO | 2026-08-31 11:35:01 | 41.48034 | 2.52308 | 61° | 117km/h | 11661m | 1.9m/s | 0°C | 0% | 0hPa | 0V | 00:00:00 | 00:00:00 | 00:00:00 | |
| EA3GEO | 2026-08-31 11:34:48 | 41.47812 | 2.51830 | 59° | 113km/h | 11577m | 7.6m/s | 0°C | 0% | 0hPa | 0V | 00:00:00 | 00:00:00 | 00:00:00 | |
| EA3GEO | 2026-08-31 11:34:35 | 41.47628 | 2.51431 | 62° | 113km/h | 11502m | 6.6m/s | 0°C | 0% | 0hPa | 0V | 00:00:00 | 00:00:00 | 00:00:00 | |
| EA3GEO | 2026-08-31 11:34:22 | 41.47444 | 2.51000 | 61° | 108km/h | 11428m | 5.2m/s | 0°C | 0% | 0hPa | 0V | 00:00:00 | 00:00:00 | 00:00:00 | |
| EA3GEO | 2026-08-31 11:34:15 | 41.47350 | 2.50763 | 64° | 115km/h | 11387m | 3.3m/s | 0°C | 0% | 0hPa | 0V | 00:00:00 | 00:00:00 | 00:00:00 | |
| EA3GEO | 2026-08-31 11:34:07 | 41.47242 | 2.50497 | 65° | 113km/h | 11338m | 8.7m/s | 0°C | 0% | 0hPa | 0V | 00:00:00 | 00:00:00 | 00:00:00 | |
| EA3GEO | 2026-08-31 11:34:01 | 41.47157 | 2.50298 | 63° | 115km/h | 11302m | 3.4m/s | 0°C | 0% | 0hPa | 0V | 00:00:00 | 00:00:00 | 00:00:00 | |
| EA3GEO | 2026-08-31 11:33:55 | 41.47079 | 2.50095 | 66° | 113km/h | 11264m | 5.7m/s | 0°C | 0% | 0hPa | 0V | 00:00:00 | 00:00:00 | 00:00:00 | |
| EA3GEO | 2026-08-31 11:33:47 | 41.46973 | 2.49821 | 65° | 113km/h | 11213m | 5.8m/s | 0°C | 0% | 0hPa | 0V | 00:00:00 | 00:00:00 | 00:00:00 | |
| EA3GEO | 2026-08-31 11:33:36 | 41.46832 | 2.49443 | 65° | 106km/h | 11146m | 5.2m/s | 0°C | 0% | 0hPa | 0V | 00:00:00 | 00:00:00 | 00:00:00 | |
| EA3GEO | 2026-08-31 11:33:29 | 41.46740 | 2.49203 | 67° | 113km/h | 11102m | 3.9m/s | 0°C | 0% | 0hPa | 0V | 00:00:00 | 00:00:00 | 00:00:00 | |
| EA3GEO | 2026-08-31 11:33:22 | 41.46654 | 2.48966 | 63° | 117km/h | 11060m | 7.5m/s | 0°C | 0% | 0hPa | 0V | 00:00:00 | 00:00:00 | 00:00:00 | |
| EA3GEO | 2026-08-31 11:33:16 | 41.46578 | 2.48765 | 65° | 110km/h | 11021m | 5.7m/s | 0°C | 0% | 0hPa | 0V | 00:00:00 | 00:00:00 | 00:00:00 | |
| EA3GEO | 2026-08-31 11:33:10 | 41.46507 | 2.48562 | 66° | 106km/h | 10986m | 4.1m/s | 0°C | 0% | 0hPa | 0V | 00:00:00 | 00:00:00 | 00:00:00 | |
| EA3GEO | 2026-08-31 11:33:00 | 41.46387 | 2.48231 | 65° | 110km/h | 10921m | 10.6m/s | 0°C | 0% | 0hPa | 0V | 00:00:00 | 00:00:00 | 00:00:00 | |
| EA3GEO | 2026-08-31 11:32:50 | 41.46270 | 2.47906 | 64° | 104km/h | 10862m | 4.6m/s | 0°C | 0% | 0hPa | 0V | 00:00:00 | 00:00:00 | 00:00:00 | |
| EA3GEO | 2026-08-31 11:32:45 | 41.46212 | 2.47738 | 66° | 108km/h | 10830m | 3.5m/s | 0°C | 0% | 0hPa | 0V | 00:00:00 | 00:00:00 | 00:00:00 | |
| EA3GEO | 2026-08-31 11:32:38 | 41.46128 | 2.47519 | 62° | 111km/h | 10788m | 9.1m/s | 0°C | 0% | 0hPa | 0V | 00:00:00 | 00:00:00 | 00:00:00 | |
| EA3GEO | 2026-08-31 11:32:32 | 41.46058 | 2.47320 | 64° | 99km/h | 10753m | 6.8m/s | 0°C | 0% | 0hPa | 0V | 00:00:00 | 00:00:00 | 00:00:00 | |
| EA3GEO | 2026-08-31 11:32:23 | 41.45949 | 2.47031 | 64° | 102km/h | 10691m | 6.1m/s | 0°C | 0% | 0hPa | 0V | 00:00:00 | 00:00:00 | 00:00:00 | |
| EA3GEO | 2026-08-31 11:32:18 | 41.45886 | 2.46868 | 65° | 113km/h | 10659m | 6.3m/s | 0°C | 0% | 0hPa | 0V | 00:00:00 | 00:00:00 | 00:00:00 | |
| EA3GEO | 2026-08-31 11:32:11 | 41.45811 | 2.46653 | 63° | 113km/h | 10616m | 5.0m/s | 0°C | 0% | 0hPa | 0V | 00:00:00 | 00:00:00 | 00:00:00 | |
| EA3GEO | 2026-08-31 11:32:05 | 41.45734 | 2.46460 | 68° | 102km/h | 10581m | 7.7m/s | 0°C | 0% | 0hPa | 0V | 00:00:00 | 00:00:00 | 00:00:00 | |
| EA3GEO | 2026-08-31 11:31:59 | 41.45663 | 2.46272 | 61° | 99km/h | 10548m | 9.4m/s | 0°C | 0% | 0hPa | 0V | 00:00:00 | 00:00:00 | 00:00:00 | |
| EA3GEO | 2026-08-31 11:31:53 | 41.45586 | 2.46085 | 64° | 106km/h | 10506m | 4.2m/s | 0°C | 0% | 0hPa | 0V | 00:00:00 | 00:00:00 | 00:00:00 | |
| EA3GEO | 2026-08-31 11:31:47 | 41.45520 | 2.45902 | 73° | 104km/h | 10470m | 5.2m/s | 0°C | 0% | 0hPa | 0V | 00:00:00 | 00:00:00 | 00:00:00 | |
| EA3GEO | 2026-08-31 11:31:41 | 41.45441 | 2.45675 | 66° | 104km/h | 10435m | 4.1m/s | 0°C | 0% | 0hPa | 0V | 00:00:00 | 00:00:00 | 00:00:00 | |
| EA3GEO | 2026-08-31 11:31:24 | 41.45273 | 2.45163 | 71° | 104km/h | 10328m | 2.8m/s | 0°C | 0% | 0hPa | 0V | 00:00:00 | 00:00:00 | 00:00:00 | |
| EA3GEO | 2026-08-31 11:31:19 | 41.45223 | 2.44994 | 72° | 106km/h | 10287m | 7.9m/s | 0°C | 0% | 0hPa | 0V | 00:00:00 | 00:00:00 | 00:00:00 | |
| EA3IBE | 2026-08-31 11:31:15 | 41.45187 | 2.44866 | 64° | 102km/h | 10264m | 3.9m/s | 0°C | 0% | 0hPa | 0V | 00:00:00 | 00:00:00 | 00:00:00 | |
| EA3GEO | 2026-08-31 11:31:10 | 41.45127 | 2.44709 | 68° | 113km/h | 10234m | 7.6m/s | 0°C | 0% | 0hPa | 0V | 00:00:00 | 00:00:00 | 00:00:00 | |
| EA3GEO | 2026-08-31 11:31:05 | 41.45082 | 2.44536 | 71° | 104km/h | 10208m | 4.7m/s | 0°C | 0% | 0hPa | 0V | 00:00:00 | 00:00:00 | 00:00:00 | |
| EA3GEO | 2026-08-31 11:30:57 | 41.44992 | 2.44285 | 68° | 111km/h | 10157m | 4.6m/s | 0°C | 0% | 0hPa | 0V | 00:00:00 | 00:00:00 | 00:00:00 | |
| EA3GEO | 2026-08-31 11:30:39 | 41.44776 | 2.43678 | 64° | 99km/h | 10040m | 7.7m/s | 0°C | 0% | 0hPa | 0V | 00:00:00 | 00:00:00 | 00:00:00 | |
| EA3GEO | 2026-08-31 11:30:33 | 41.44713 | 2.43530 | 62° | 99km/h | 10014m | 8.5m/s | 0°C | 0% | 0hPa | 0V | 00:00:00 | 00:00:00 | 00:00:00 | |
| EA3GEO | 2026-08-31 11:30:27 | 41.44649 | 2.43340 | 64° | 111km/h | 9976m | 4.4m/s | 0°C | 0% | 0hPa | 0V | 00:00:00 | 00:00:00 | 00:00:00 | |
| EA3GEO | 2026-08-31 11:30:22 | 41.44578 | 2.43180 | 63° | 106km/h | 9951m | 6.5m/s | 0°C | 0% | 0hPa | 0V | 00:00:00 | 00:00:00 | 00:00:00 | |
| EA3GEO | 2026-08-31 11:30:16 | 41.44497 | 2.42962 | 65° | 104km/h | 9902m | 5.4m/s | 0°C | 0% | 0hPa | 0V | 00:00:00 | 00:00:00 | 00:00:00 | |
| EA3IBE | 2026-08-31 11:30:14 | 41.44485 | 2.42930 | 66° | 108km/h | 9897m | 5.4m/s | 0°C | 0% | 0hPa | 0V | 00:00:00 | 00:00:00 | 00:00:00 | |
| EA3GEO | 2026-08-31 11:30:07 | 41.44408 | 2.42691 | 69° | 104km/h | 9852m | 9.4m/s | 0°C | 0% | 0hPa | 0V | 00:00:00 | 00:00:00 | 00:00:00 | |
| EA3GEO | 2026-08-31 11:29:57 | 41.44301 | 2.42376 | 69° | 113km/h | 9790m | 7.9m/s | 0°C | 0% | 0hPa | 0V | 00:00:00 | 00:00:00 | 00:00:00 | |
| EA3IBE | 2026-08-31 11:29:56 | 41.44290 | 2.42340 | 68° | 115km/h | 9783m | 5.8m/s | 0°C | 0% | 0hPa | 0V | 00:00:00 | 00:00:00 | 00:00:00 | |
| EA3GEO | 2026-08-31 11:29:51 | 41.44232 | 2.42189 | 65° | 95km/h | 9759m | 3.6m/s | 0°C | 0% | 0hPa | 0V | 00:00:00 | 00:00:00 | 00:00:00 | |
| EA3GEO | 2026-08-31 11:29:44 | 41.44145 | 2.41967 | 66° | 111km/h | 9711m | 7.6m/s | 0°C | 0% | 0hPa | 0V | 00:00:00 | 00:00:00 | 00:00:00 | |
| EA3IBE | 2026-08-31 11:29:40 | 41.44104 | 2.41840 | 63° | 97km/h | 9689m | 4.7m/s | 0°C | 0% | 0hPa | 0V | 00:00:00 | 00:00:00 | 00:00:00 | |
| EA3GEO | 2026-08-31 11:29:38 | 41.44079 | 2.41782 | 59° | 102km/h | 9682m | 1.8m/s | 0°C | 0% | 0hPa | 0V | 00:00:00 | 00:00:00 | 00:00:00 | |
| EA3GEO | 2026-08-31 11:29:33 | 41.44024 | 2.41631 | 68° | 102km/h | 9657m | 6.7m/s | 0°C | 0% | 0hPa | 0V | 00:00:00 | 00:00:00 | 00:00:00 | |
| EA3GEO | 2026-08-31 11:29:28 | 41.43966 | 2.41478 | 65° | 97km/h | 9634m | 4.6m/s | 0°C | 0% | 0hPa | 0V | 00:00:00 | 00:00:00 | 00:00:00 | |
| EA3IBE | 2026-08-31 11:29:26 | 41.43947 | 2.41415 | 72° | 108km/h | 9623m | 4.5m/s | 0°C | 0% | 0hPa | 0V | 00:00:00 | 00:00:00 | 00:00:00 | |
| EA3GEO | 2026-08-31 11:29:22 | 41.43905 | 2.41284 | 64° | 95km/h | 9605m | 6.2m/s | 0°C | 0% | 0hPa | 0V | 00:00:00 | 00:00:00 | 00:00:00 | |
| EA3IBE | 2026-08-31 11:29:17 | 41.43857 | 2.41138 | 74° | 104km/h | 9582m | 4.7m/s | 0°C | 0% | 0hPa | 0V | 00:00:00 | 00:00:00 | 00:00:00 | |
| EA3GEO | 2026-08-31 11:29:10 | 41.43782 | 2.40922 | 62° | 97km/h | 9552m | 4.8m/s | 0°C | 0% | 0hPa | 0V | 00:00:00 | 00:00:00 | 00:00:00 | |
| EA3IBE | 2026-08-31 11:29:03 | 41.43713 | 2.40708 | 70° | 95km/h | 9520m | 7.2m/s | 0°C | 0% | 0hPa | 0V | 00:00:00 | 00:00:00 | 00:00:00 | |
| EA3GEO | 2026-08-31 11:29:02 | 41.43704 | 2.40679 | 67° | 91km/h | 9514m | 6.3m/s | 0°C | 0% | 0hPa | 0V | 00:00:00 | 00:00:00 | 00:00:00 | |
| EA3IBE | 2026-08-31 11:28:58 | 41.43669 | 2.40565 | 69° | 91km/h | 9496m | 6.2m/s | 0°C | 0% | 0hPa | 0V | 00:00:00 | 00:00:00 | 00:00:00 | |
| EA3GEO | 2026-08-31 11:28:57 | 41.43661 | 2.40537 | 67° | 88km/h | 9491m | 5.4m/s | 0°C | 0% | 0hPa | 0V | 00:00:00 | 00:00:00 | 00:00:00 | |
| EA3IBE | 2026-08-31 11:28:51 | 41.43607 | 2.40364 | 69° | 95km/h | 9464m | 4.7m/s | 0°C | 0% | 0hPa | 0V | 00:00:00 | 00:00:00 | 00:00:00 | |
| EA3GEO | 2026-08-31 11:28:48 | 41.43579 | 2.40283 | 62° | 82km/h | 9451m | 3.2m/s | 0°C | 0% | 0hPa | 0V | 00:00:00 | 00:00:00 | 00:00:00 | |
| EA3IBE | 2026-08-31 11:28:42 | 41.43529 | 2.40116 | 68° | 99km/h | 9428m | 2.2m/s | 0°C | 0% | 0hPa | 0V | 00:00:00 | 00:00:00 | 00:00:00 | |
| EA3GEO | 2026-08-31 11:28:36 | 41.43471 | 2.39937 | 72° | 86km/h | 9399m | 7.1m/s | 0°C | 0% | 0hPa | 0V | 00:00:00 | 00:00:00 | 00:00:00 | |
| EA3IBE | 2026-08-31 11:28:35 | 41.43464 | 2.39910 | 71° | 84km/h | 9392m | 7.4m/s | 0°C | 0% | 0hPa | 0V | 00:00:00 | 00:00:00 | 00:00:00 | |
| EA3GEO | 2026-08-31 11:28:31 | 41.43423 | 2.39775 | 65° | 84km/h | 9363m | 2.8m/s | 0°C | 0% | 0hPa | 0V | 00:00:00 | 00:00:00 | 00:00:00 | |
| EA3IBE | 2026-08-31 11:28:30 | 41.43423 | 2.39775 | 65° | 84km/h | 9363m | 2.8m/s | 0°C | 0% | 0hPa | 0V | 00:00:00 | 00:00:00 | 00:00:00 | |
| EA3IBE | 2026-08-31 11:28:25 | 41.43383 | 2.39648 | 67° | 84km/h | 9342m | 4.7m/s | 0°C | 0% | 0hPa | 0V | 00:00:00 | 00:00:00 | 00:00:00 | |
| EA3IBE | 2026-08-31 11:28:16 | 41.43313 | 2.39405 | 66° | 84km/h | 9302m | 3.4m/s | 0°C | 0% | 0hPa | 0V | 00:00:00 | 00:00:00 | 00:00:00 | |
| EA3GEO | 2026-08-31 11:28:11 | 41.43270 | 2.39275 | 69° | 78km/h | 9281m | 4.2m/s | 0°C | 0% | 0hPa | 0V | 00:00:00 | 00:00:00 | 00:00:00 | |
| EA3IBE | 2026-08-31 11:28:08 | 41.43251 | 2.39194 | 76° | 89km/h | 9267m | 4.1m/s | 0°C | 0% | 0hPa | 0V | 00:00:00 | 00:00:00 | 00:00:00 | |
| EA3GEO | 2026-08-31 11:28:05 | 41.43230 | 2.39111 | 71° | 82km/h | 9255m | 4.3m/s | 0°C | 0% | 0hPa | 0V | 00:00:00 | 00:00:00 | 00:00:00 | |
| EA3IBE | 2026-08-31 11:28:03 | 41.43216 | 2.39060 | 70° | 82km/h | 9247m | 2.5m/s | 0°C | 0% | 0hPa | 0V | 00:00:00 | 00:00:00 | 00:00:00 | |
| EA3GEO | 2026-08-31 11:27:58 | 41.43184 | 2.38931 | 72° | 89km/h | 9228m | 2.5m/s | 0°C | 0% | 0hPa | 0V | 00:00:00 | 00:00:00 | 00:00:00 | |
| EA3IBE | 2026-08-31 11:27:57 | 41.43177 | 2.38902 | 71° | 93km/h | 9225m | 3.8m/s | 0°C | 0% | 0hPa | 0V | 00:00:00 | 00:00:00 | 00:00:00 | |
| EA3IBE | 2026-08-31 11:27:52 | 41.43145 | 2.38767 | 76° | 78km/h | 9195m | 7.0m/s | 0°C | 0% | 0hPa | 0V | 00:00:00 | 00:00:00 | 00:00:00 | |
| EA3IBE | 2026-08-31 11:27:47 | 41.43103 | 2.38634 | 66° | 91km/h | 9159m | 5.2m/s | 0°C | 0% | 0hPa | 0V | 00:00:00 | 00:00:00 | 00:00:00 | |
| EA3GEO | 2026-08-31 11:27:44 | 41.43083 | 2.38553 | 78° | 78km/h | 9141m | 5.9m/s | 0°C | 0% | 0hPa | 0V | 00:00:00 | 00:00:00 | 00:00:00 | |
| EA3GEO | 2026-08-31 11:27:39 | 41.43053 | 2.38422 | 72° | 84km/h | 9117m | 5.6m/s | 0°C | 0% | 0hPa | 0V | 00:00:00 | 00:00:00 | 00:00:00 | |
| EA3IBE | 2026-08-31 11:27:37 | 41.43039 | 2.38369 | 71° | 82km/h | 9105m | 5.1m/s | 0°C | 0% | 0hPa | 0V | 00:00:00 | 00:00:00 | 00:00:00 | |
| EA3GEO | 2026-08-31 11:27:33 | 41.43008 | 2.38265 | 75° | 88km/h | 9084m | 5.4m/s | 0°C | 0% | 0hPa | 0V | 00:00:00 | 00:00:00 | 00:00:00 | |
| EA3IBE | 2026-08-31 11:27:30 | 41.42992 | 2.38176 | 77° | 88km/h | 9071m | 3.7m/s | 0°C | 0% | 0hPa | 0V | 00:00:00 | 00:00:00 | 00:00:00 | |
| EA3GEO | 2026-08-31 11:27:28 | 41.42980 | 2.38122 | 72° | 78km/h | 9064m | 5.4m/s | 0°C | 0% | 0hPa | 0V | 00:00:00 | 00:00:00 | 00:00:00 | |
| EA3IBE | 2026-08-31 11:27:23 | 41.42949 | 2.37992 | 76° | 88km/h | 9037m | 6.6m/s | 0°C | 0% | 0hPa | 0V | 00:00:00 | 00:00:00 | 00:00:00 | |
| EA3GEO | 2026-08-31 11:27:22 | 41.42936 | 2.37937 | 71° | 82km/h | 9026m | 6.9m/s | 0°C | 0% | 0hPa | 0V | 00:00:00 | 00:00:00 | 00:00:00 | |
| EA3GEO | 2026-08-31 11:27:11 | 41.42888 | 2.37683 | 82° | 71km/h | 8983m | 3.3m/s | 0°C | 0% | 0hPa | 0V | 00:00:00 | 00:00:00 | 00:00:00 | |
| EA3GEO | 2026-08-31 11:27:05 | 41.42850 | 2.37527 | 73° | 78km/h | 8958m | 3.8m/s | 0°C | 0% | 0hPa | 0V | 00:00:00 | 00:00:00 | 00:00:00 | |
| EA3IBE | 2026-08-31 11:27:04 | 41.42845 | 2.37502 | 79° | 78km/h | 8954m | 4.1m/s | 0°C | 0% | 0hPa | 0V | 00:00:00 | 00:00:00 | 00:00:00 | |
| EA3GEO | 2026-08-31 11:26:59 | 41.42825 | 2.37374 | 75° | 68km/h | 8932m | 4.4m/s | 0°C | 0% | 0hPa | 0V | 00:00:00 | 00:00:00 | 00:00:00 | |
| EA3IBE | 2026-08-31 11:26:58 | 41.42816 | 2.37331 | 74° | 69km/h | 8921m | 3.7m/s | 0°C | 0% | 0hPa | 0V | 00:00:00 | 00:00:00 | 00:00:00 | |
| EA3GEO | 2026-08-31 11:26:53 | 41.42785 | 2.37239 | 66° | 78km/h | 8905m | 5.1m/s | 0°C | 0% | 0hPa | 0V | 00:00:00 | 00:00:00 | 00:00:00 | |
| EA3IBE | 2026-08-31 11:26:49 | 41.42756 | 2.37143 | 77° | 75km/h | 8885m | 6.3m/s | 0°C | 0% | 0hPa | 0V | 00:00:00 | 00:00:00 | 00:00:00 | |
| EA3GEO | 2026-08-31 11:26:48 | 41.42752 | 2.37118 | 85° | 78km/h | 8879m | 6.0m/s | 0°C | 0% | 0hPa | 0V | 00:00:00 | 00:00:00 | 00:00:00 | |
| EA3IBE | 2026-08-31 11:26:41 | 41.42724 | 2.36955 | 75° | 77km/h | 8834m | 6.4m/s | 0°C | 0% | 0hPa | 0V | 00:00:00 | 00:00:00 | 00:00:00 | |
| EA3GEO | 2026-08-31 11:26:36 | 41.42703 | 2.36838 | 83° | 60km/h | 8805m | 4.9m/s | 0°C | 0% | 0hPa | 0V | 00:00:00 | 00:00:00 | 00:00:00 | |
| EA3IBE | 2026-08-31 11:26:30 | 41.42674 | 2.36709 | 67° | 86km/h | 8769m | 5.2m/s | 0°C | 0% | 0hPa | 0V | 00:00:00 | 00:00:00 | 00:00:00 | |
| EA3GEO | 2026-08-31 11:26:29 | 41.42666 | 2.36684 | 70° | 75km/h | 8764m | 5.5m/s | 0°C | 0% | 0hPa | 0V | 00:00:00 | 00:00:00 | 00:00:00 | |
| EA3GEO | 2026-08-31 11:26:23 | 41.42645 | 2.36556 | 86° | 64km/h | 8729m | 6.2m/s | 0°C | 0% | 0hPa | 0V | 00:00:00 | 00:00:00 | 00:00:00 | |
| EA3GEO | 2026-08-31 11:26:16 | 41.42607 | 2.36393 | 78° | 73km/h | 8681m | 6.3m/s | 0°C | 0% | 0hPa | 0V | 00:00:00 | 00:00:00 | 00:00:00 | |
| EA3IBE | 2026-08-31 11:26:13 | 41.42595 | 2.36322 | 79° | 66km/h | 8666m | 3.1m/s | 0°C | 0% | 0hPa | 0V | 00:00:00 | 00:00:00 | 00:00:00 | |
| EA3GEO | 2026-08-31 11:26:11 | 41.42589 | 2.36281 | 83° | 60km/h | 8658m | 6.3m/s | 0°C | 0% | 0hPa | 0V | 00:00:00 | 00:00:00 | 00:00:00 | |
| EA3IBE | 2026-08-31 11:26:05 | 41.42556 | 2.36138 | 75° | 80km/h | 8631m | 2.2m/s | 0°C | 0% | 0hPa | 0V | 00:00:00 | 00:00:00 | 00:00:00 | |
| EA3IBE | 2026-08-31 11:25:59 | 41.42533 | 2.35996 | 75° | 68km/h | 8595m | 6.8m/s | 0°C | 0% | 0hPa | 0V | 00:00:00 | 00:00:00 | 00:00:00 | |
| EA3GEO | 2026-08-31 11:25:54 | 41.42502 | 2.35890 | 70° | 78km/h | 8562m | 7.9m/s | 0°C | 0% | 0hPa | 0V | 00:00:00 | 00:00:00 | 00:00:00 | |
| EA3GEO | 2026-08-31 11:25:48 | 41.42472 | 2.35742 | 81° | 62km/h | 8520m | 6.9m/s | 0°C | 0% | 0hPa | 0V | 00:00:00 | 00:00:00 | 00:00:00 | |
| EA3IBE | 2026-08-31 11:25:41 | 41.42427 | 2.35584 | 69° | 80km/h | 8480m | 1.7m/s | 0°C | 0% | 0hPa | 0V | 00:00:00 | 00:00:00 | 00:00:00 | |
| EA3GEO | 2026-08-31 11:25:35 | 41.42393 | 2.35456 | 76° | 64km/h | 8446m | 3.4m/s | 0°C | 0% | 0hPa | 0V | 00:00:00 | 00:00:00 | 00:00:00 | |
| EA3IBE | 2026-08-31 11:25:33 | 41.42383 | 2.35410 | 76° | 75km/h | 8436m | 2.9m/s | 0°C | 0% | 0hPa | 0V | 00:00:00 | 00:00:00 | 00:00:00 | |
| EA3IBE | 2026-08-31 11:25:28 | 41.42358 | 2.35297 | 77° | 60km/h | 8410m | 6.1m/s | 0°C | 0% | 0hPa | 0V | 00:00:00 | 00:00:00 | 00:00:00 | |
| EA3IBE | 2026-08-31 11:25:23 | 41.42335 | 2.35196 | 61° | 68km/h | 8382m | 5.0m/s | 0°C | 0% | 0hPa | 0V | 00:00:00 | 00:00:00 | 00:00:00 | |
| EA3GEO | 2026-08-31 11:25:22 | 41.42328 | 2.35175 | 69° | 69km/h | 8377m | 3.5m/s | 0°C | 0% | 0hPa | 0V | 00:00:00 | 00:00:00 | 00:00:00 | |
| EA3IBE | 2026-08-31 11:25:18 | 41.42302 | 2.35080 | 77° | 78km/h | 8361m | 4.5m/s | 0°C | 0% | 0hPa | 0V | 00:00:00 | 00:00:00 | 00:00:00 | |
| EA3GEO | 2026-08-31 11:25:17 | 41.42297 | 2.35054 | 76° | 75km/h | 8356m | 4.1m/s | 0°C | 0% | 0hPa | 0V | 00:00:00 | 00:00:00 | 00:00:00 | |
| EA3IBE | 2026-08-31 11:25:12 | 41.42276 | 2.34946 | 72° | 68km/h | 8334m | 4.8m/s | 0°C | 0% | 0hPa | 0V | 00:00:00 | 00:00:00 | 00:00:00 | |
| EA3GEO | 2026-08-31 11:25:11 | 41.42271 | 2.34924 | 72° | 68km/h | 8330m | 5.8m/s | 0°C | 0% | 0hPa | 0V | 00:00:00 | 00:00:00 | 00:00:00 | |
| EA3IBE | 2026-08-31 11:25:05 | 41.42244 | 2.34795 | 80° | 69km/h | 8285m | 4.5m/s | 0°C | 0% | 0hPa | 0V | 00:00:00 | 00:00:00 | 00:00:00 | |
| EA3IBE | 2026-08-31 11:24:59 | 41.42212 | 2.34651 | 71° | 64km/h | 8255m | 4.8m/s | 0°C | 0% | 0hPa | 0V | 00:00:00 | 00:00:00 | 00:00:00 | |
| EA3GEO | 2026-08-31 11:24:58 | 41.42205 | 2.34631 | 66° | 64km/h | 8250m | 5.7m/s | 0°C | 0% | 0hPa | 0V | 00:00:00 | 00:00:00 | 00:00:00 | |
| EA3IBE | 2026-08-31 11:24:54 | 41.42184 | 2.34544 | 77° | 69km/h | 8227m | 7.1m/s | 0°C | 0% | 0hPa | 0V | 00:00:00 | 00:00:00 | 00:00:00 | |
| EA3GEO | 2026-08-31 11:24:52 | 41.42175 | 2.34499 | 76° | 69km/h | 8212m | 6.9m/s | 0°C | 0% | 0hPa | 0V | 00:00:00 | 00:00:00 | 00:00:00 | |
| EA3IBE | 2026-08-31 11:24:46 | 41.42146 | 2.34358 | 76° | 77km/h | 8176m | 6.7m/s | 0°C | 0% | 0hPa | 0V | 00:00:00 | 00:00:00 | 00:00:00 | |
| EA3IBE | 2026-08-31 11:24:41 | 41.42128 | 2.34249 | 72° | 62km/h | 8142m | 5.8m/s | 0°C | 0% | 0hPa | 0V | 00:00:00 | 00:00:00 | 00:00:00 | |
| EA3GEO | 2026-08-31 11:24:35 | 41.42093 | 2.34111 | 77° | 78km/h | 8106m | 6.0m/s | 0°C | 0% | 0hPa | 0V | 00:00:00 | 00:00:00 | 00:00:00 | |
| EA3IBE | 2026-08-31 11:24:33 | 41.42084 | 2.34064 | 75° | 68km/h | 8095m | 5.3m/s | 0°C | 0% | 0hPa | 0V | 00:00:00 | 00:00:00 | 00:00:00 | |
| EA3GEO | 2026-08-31 11:24:30 | 41.42073 | 2.34004 | 80° | 64km/h | 8073m | 9.2m/s | 0°C | 0% | 0hPa | 0V | 00:00:00 | 00:00:00 | 00:00:00 | |
| EA3IBE | 2026-08-31 11:24:28 | 41.42063 | 2.33964 | 70° | 66km/h | 8057m | 6.7m/s | 0°C | 0% | 0hPa | 0V | 00:00:00 | 00:00:00 | 00:00:00 | |
| EA3GEO | 2026-08-31 11:24:24 | 41.42039 | 2.33875 | 77° | 73km/h | 8033m | 6.4m/s | 0°C | 0% | 0hPa | 0V | 00:00:00 | 00:00:00 | 00:00:00 | |
| EA3IBE | 2026-08-31 11:24:20 | 41.42023 | 2.33774 | 81° | 73km/h | 8007m | 5.2m/s | 0°C | 0% | 0hPa | 0V | 00:00:00 | 00:00:00 | 00:00:00 | |
| EA3GEO | 2026-08-31 11:24:19 | 41.42020 | 2.33751 | 79° | 71km/h | 8001m | 6.7m/s | 0°C | 0% | 0hPa | 0V | 00:00:00 | 00:00:00 | 00:00:00 | |
| EA3IBE | 2026-08-31 11:24:15 | 41.42003 | 2.33665 | 72° | 75km/h | 7977m | 5.2m/s | 0°C | 0% | 0hPa | 0V | 00:00:00 | 00:00:00 | 00:00:00 | |
| EA3GEO | 2026-08-31 11:24:13 | 41.41991 | 2.33617 | 74° | 75km/h | 7966m | 6.1m/s | 0°C | 0% | 0hPa | 0V | 00:00:00 | 00:00:00 | 00:00:00 | |
| EA3IBE | 2026-08-31 11:24:09 | 41.41979 | 2.33528 | 90° | 64km/h | 7941m | 5.4m/s | 0°C | 0% | 0hPa | 0V | 00:00:00 | 00:00:00 | 00:00:00 | |
| EA3GEO | 2026-08-31 11:24:07 | 41.41979 | 2.33483 | 89° | 73km/h | 7929m | 5.9m/s | 0°C | 0% | 0hPa | 0V | 00:00:00 | 00:00:00 | 00:00:00 | |
| EA3IBE | 2026-08-31 11:24:03 | 41.41965 | 2.33387 | 67° | 71km/h | 7900m | 7.7m/s | 0°C | 0% | 0hPa | 0V | 00:00:00 | 00:00:00 | 00:00:00 | |
| EA3GEO | 2026-08-31 11:24:02 | 41.41957 | 2.33367 | 66° | 68km/h | 7892m | 5.2m/s | 0°C | 0% | 0hPa | 0V | 00:00:00 | 00:00:00 | 00:00:00 | |
| EA3IBE | 2026-08-31 11:23:57 | 41.41940 | 2.33255 | 91° | 69km/h | 7866m | 3.9m/s | 0°C | 0% | 0hPa | 0V | 00:00:00 | 00:00:00 | 00:00:00 | |
| EA3GEO | 2026-08-31 11:23:56 | 41.41940 | 2.33231 | 88° | 73km/h | 7863m | 1.2m/s | 0°C | 0% | 0hPa | 0V | 00:00:00 | 00:00:00 | 00:00:00 | |
| EA3IBE | 2026-08-31 11:23:51 | 41.41919 | 2.33112 | 72° | 73km/h | 7843m | 3.2m/s | 0°C | 0% | 0hPa | 0V | 00:00:00 | 00:00:00 | 00:00:00 | |
| EA3IBE | 2026-08-31 11:23:46 | 41.41903 | 2.32999 | 81° | 73km/h | 7819m | 6.1m/s | 0°C | 0% | 0hPa | 0V | 00:00:00 | 00:00:00 | 00:00:00 | |
| EA3GEO | 2026-08-31 11:23:45 | 41.41899 | 2.32975 | 78° | 75km/h | 7813m | 6.8m/s | 0°C | 0% | 0hPa | 0V | 00:00:00 | 00:00:00 | 00:00:00 | |
| EA3IBE | 2026-08-31 11:23:40 | 41.41875 | 2.32857 | 78° | 64km/h | 7778m | 3.5m/s | 0°C | 0% | 0hPa | 0V | 00:00:00 | 00:00:00 | 00:00:00 | |
| EA3GEO | 2026-08-31 11:23:39 | 41.41871 | 2.32835 | 77° | 68km/h | 7773m | 4.9m/s | 0°C | 0% | 0hPa | 0V | 00:00:00 | 00:00:00 | 00:00:00 | |
| EA3IBE | 2026-08-31 11:23:35 | 41.41857 | 2.32717 | 81° | 64km/h | 7740m | 4.5m/s | 0°C | 0% | 0hPa | 0V | 00:00:00 | 00:00:00 | 00:00:00 | |
| EA3GEO | 2026-08-31 11:23:34 | 41.41829 | 2.32594 | 77° | 73km/h | 7702m | 6.2m/s | 0°C | 0% | 0hPa | 0V | 00:00:00 | 00:00:00 | 00:00:00 | |
| EA3GEO | 2026-08-31 11:23:25 | 41.41814 | 2.32484 | 71° | 60km/h | 7675m | 6.1m/s | 0°C | 0% | 0hPa | 0V | 00:00:00 | 00:00:00 | 00:00:00 | |
| EA3IBE | 2026-08-31 11:23:24 | 41.41814 | 2.32484 | 71° | 60km/h | 7675m | 6.1m/s | 0°C | 0% | 0hPa | 0V | 00:00:00 | 00:00:00 | 00:00:00 | |
| EA3IBE | 2026-08-31 11:23:17 | 41.41785 | 2.32352 | 83° | 73km/h | 7640m | 5.2m/s | 0°C | 0% | 0hPa | 0V | 00:00:00 | 00:00:00 | 00:00:00 | |
| EA3IBE | 2026-08-31 11:23:11 | 41.41769 | 2.32227 | 80° | 58km/h | 7601m | 5.1m/s | 0°C | 0% | 0hPa | 0V | 00:00:00 | 00:00:00 | 00:00:00 | |
| EA3GEO | 2026-08-31 11:23:10 | 41.41766 | 2.32207 | 78° | 64km/h | 7594m | 8.6m/s | 0°C | 0% | 0hPa | 0V | 00:00:00 | 00:00:00 | 00:00:00 | |
| EA3GEO | 2026-08-31 11:23:05 | 41.41751 | 2.32093 | 85° | 62km/h | 7561m | 4.6m/s | 0°C | 0% | 0hPa | 0V | 00:00:00 | 00:00:00 | 00:00:00 | |
| EA3IBE | 2026-08-31 11:23:02 | 41.41744 | 2.32037 | 76° | 58km/h | 7544m | 5.8m/s | 0°C | 0% | 0hPa | 0V | 00:00:00 | 00:00:00 | 00:00:00 | |
| EA3GEO | 2026-08-31 11:22:59 | 41.41730 | 2.31973 | 77° | 73km/h | 7525m | 5.1m/s | 0°C | 0% | 0hPa | 0V | 00:00:00 | 00:00:00 | 00:00:00 | |
| EA3IBE | 2026-08-31 11:22:57 | 41.41724 | 2.31925 | 84° | 68km/h | 7513m | 6.7m/s | 0°C | 0% | 0hPa | 0V | 00:00:00 | 00:00:00 | 00:00:00 | |
| EA3GEO | 2026-08-31 11:22:54 | 41.41719 | 2.31862 | 82° | 57km/h | 7493m | 5.5m/s | 0°C | 0% | 0hPa | 0V | 00:00:00 | 00:00:00 | 00:00:00 | |
| EA3IBE | 2026-08-31 11:22:51 | 41.41706 | 2.31803 | 70° | 71km/h | 7475m | 5.3m/s | 0°C | 0% | 0hPa | 0V | 00:00:00 | 00:00:00 | 00:00:00 | |
| EA3GEO | 2026-08-31 11:22:47 | 41.41692 | 2.31708 | 91° | 66km/h | 7450m | 7.0m/s | 0°C | 0% | 0hPa | 0V | 00:00:00 | 00:00:00 | 00:00:00 | |
| EA3IBE | 2026-08-31 11:22:45 | 41.41690 | 2.31666 | 88° | 60km/h | 7439m | 5.4m/s | 0°C | 0% | 0hPa | 0V | 00:00:00 | 00:00:00 | 00:00:00 | |
| EA3GEO | 2026-08-31 11:22:41 | 41.41679 | 2.31590 | 68° | 66km/h | 7412m | 5.9m/s | 0°C | 0% | 0hPa | 0V | 00:00:00 | 00:00:00 | 00:00:00 | |
| EA3IBE | 2026-08-31 11:22:39 | 41.41668 | 2.31546 | 77° | 69km/h | 7399m | 4.0m/s | 0°C | 0% | 0hPa | 0V | 00:00:00 | 00:00:00 | 00:00:00 | |
| EA3GEO | 2026-08-31 11:22:35 | 41.41659 | 2.31453 | 88° | 66km/h | 7374m | 6.7m/s | 0°C | 0% | 0hPa | 0V | 00:00:00 | 00:00:00 | 00:00:00 | |
| EA3IBE | 2026-08-31 11:22:34 | 41.41658 | 2.31431 | 84° | 60km/h | 7367m | 6.5m/s | 0°C | 0% | 0hPa | 0V | 00:00:00 | 00:00:00 | 00:00:00 | |
| EA3GEO | 2026-08-31 11:22:29 | 41.41640 | 2.31323 | 83° | 69km/h | 7336m | 6.2m/s | 0°C | 0% | 0hPa | 0V | 00:00:00 | 00:00:00 | 00:00:00 | |
| EA3IBE | 2026-08-31 11:22:28 | 41.41638 | 2.31299 | 89° | 71km/h | 7330m | 4.1m/s | 0°C | 0% | 0hPa | 0V | 00:00:00 | 00:00:00 | 00:00:00 | |
| EA3GEO | 2026-08-31 11:22:24 | 41.41633 | 2.31216 | 79° | 64km/h | 7308m | 5.2m/s | 0°C | 0% | 0hPa | 0V | 00:00:00 | 00:00:00 | 00:00:00 | |
| EA3IBE | 2026-08-31 11:22:23 | 41.41629 | 2.31194 | 78° | 69km/h | 7303m | 5.3m/s | 0°C | 0% | 0hPa | 0V | 00:00:00 | 00:00:00 | 00:00:00 | |
| EA3GEO | 2026-08-31 11:22:19 | 41.41616 | 2.31095 | 77° | 69km/h | 7278m | 5.0m/s | 0°C | 0% | 0hPa | 0V | 00:00:00 | 00:00:00 | 00:00:00 | |
| EA3IBE | 2026-08-31 11:22:16 | 41.41600 | 2.31032 | 77° | 71km/h | 7260m | 5.6m/s | 0°C | 0% | 0hPa | 0V | 00:00:00 | 00:00:00 | 00:00:00 | |
| EA3GEO | 2026-08-31 11:22:12 | 41.41591 | 2.30935 | 84° | 68km/h | 7239m | 4.8m/s | 0°C | 0% | 0hPa | 0V | 00:00:00 | 00:00:00 | 00:00:00 | |
| EA3IBE | 2026-08-31 11:22:10 | 41.41585 | 2.30894 | 74° | 66km/h | 7226m | 7.3m/s | 0°C | 0% | 0hPa | 0V | 00:00:00 | 00:00:00 | 00:00:00 | |
| EA3GEO | 2026-08-31 11:22:06 | 41.41568 | 2.30800 | 85° | 71km/h | 7200m | 4.5m/s | 0°C | 0% | 0hPa | 0V | 00:00:00 | 00:00:00 | 00:00:00 | |
| EA3IBE | 2026-08-31 11:22:05 | 41.41566 | 2.30777 | 83° | 69km/h | 7195m | 4.1m/s | 0°C | 0% | 0hPa | 0V | 00:00:00 | 00:00:00 | 00:00:00 | |
| EA3GEO | 2026-08-31 11:22:00 | 41.41548 | 2.30672 | 75° | 71km/h | 7165m | 6.7m/s | 0°C | 0% | 0hPa | 0V | 00:00:00 | 00:00:00 | 00:00:00 | |
| EA3IBE | 2026-08-31 11:21:59 | 41.41543 | 2.30647 | 80° | 77km/h | 7158m | 4.3m/s | 0°C | 0% | 0hPa | 0V | 00:00:00 | 00:00:00 | 00:00:00 | |
| EA3GEO | 2026-08-31 11:21:55 | 41.41534 | 2.30551 | 85° | 57km/h | 7134m | 5.9m/s | 0°C | 0% | 0hPa | 0V | 00:00:00 | 00:00:00 | 00:00:00 | |
| EA3IBE | 2026-08-31 11:21:53 | 41.41532 | 2.30514 | 81° | 58km/h | 7123m | 4.6m/s | 0°C | 0% | 0hPa | 0V | 00:00:00 | 00:00:00 | 00:00:00 | |
| EA3GEO | 2026-08-31 11:21:49 | 41.41512 | 2.30423 | 76° | 75km/h | 7096m | 5.7m/s | 0°C | 0% | 0hPa | 0V | 00:00:00 | 00:00:00 | 00:00:00 | |
| EA3GEO | 2026-08-31 11:21:44 | 41.41504 | 2.30313 | 86° | 64km/h | 7065m | 5.5m/s | 0°C | 0% | 0hPa | 0V | 00:00:00 | 00:00:00 | 00:00:00 | |
| EA3IBE | 2026-08-31 11:21:42 | 41.41499 | 2.30266 | 75° | 75km/h | 7050m | 7.0m/s | 0°C | 0% | 0hPa | 0V | 00:00:00 | 00:00:00 | 00:00:00 | |
| EA3GEO | 2026-08-31 11:21:38 | 41.41477 | 2.30176 | 75° | 66km/h | 7030m | 5.6m/s | 0°C | 0% | 0hPa | 0V | 00:00:00 | 00:00:00 | 00:00:00 | |
| EA3IBE | 2026-08-31 11:21:37 | 41.41473 | 2.30154 | 78° | 69km/h | 7023m | 5.3m/s | 0°C | 0% | 0hPa | 0V | 00:00:00 | 00:00:00 | 00:00:00 | |
| EA3IBE | 2026-08-31 11:21:32 | 41.41464 | 2.30032 | 90° | 64km/h | 6996m | 4.8m/s | 0°C | 0% | 0hPa | 0V | 00:00:00 | 00:00:00 | 00:00:00 | |
| EA3GEO | 2026-08-31 11:21:27 | 41.41451 | 2.29924 | 74° | 73km/h | 6965m | 5.4m/s | 0°C | 0% | 0hPa | 0V | 00:00:00 | 00:00:00 | 00:00:00 | |
| EA3IBE | 2026-08-31 11:21:24 | 41.41436 | 2.29852 | 79° | 69km/h | 6950m | 4.7m/s | 0°C | 0% | 0hPa | 0V | 00:00:00 | 00:00:00 | 00:00:00 | |
| EA3GEO | 2026-08-31 11:21:20 | 41.41431 | 2.29770 | 77° | 66km/h | 6934m | 2.3m/s | 0°C | 0% | 0hPa | 0V | 00:00:00 | 00:00:00 | 00:00:00 | |
| EA3IBE | 2026-08-31 11:21:17 | 41.41415 | 2.29705 | 74° | 75km/h | 6921m | 4.3m/s | 0°C | 0% | 0hPa | 0V | 00:00:00 | 00:00:00 | 00:00:00 | |
| EA3GEO | 2026-08-31 11:21:15 | 41.41406 | 2.29654 | 83° | 78km/h | 6909m | 6.3m/s | 0°C | 0% | 0hPa | 0V | 00:00:00 | 00:00:00 | 00:00:00 | |
| EA3IBE | 2026-08-31 11:21:09 | 41.41395 | 2.29516 | 76° | 68km/h | 6871m | 5.8m/s | 0°C | 0% | 0hPa | 0V | 00:00:00 | 00:00:00 | 00:00:00 | |
| EA3GEO | 2026-08-31 11:21:08 | 41.41391 | 2.29493 | 81° | 71km/h | 6863m | 7.1m/s | 0°C | 0% | 0hPa | 0V | 00:00:00 | 00:00:00 | 00:00:00 | |
| EA3IBE | 2026-08-31 11:21:02 | 41.41385 | 2.29353 | 82° | 57km/h | 6830m | 5.6m/s | 0°C | 0% | 0hPa | 0V | 00:00:00 | 00:00:00 | 00:00:00 | |
| EA3GEO | 2026-08-31 11:21:01 | 41.41382 | 2.29334 | 78° | 66km/h | 6824m | 5.9m/s | 0°C | 0% | 0hPa | 0V | 00:00:00 | 00:00:00 | 00:00:00 | |
| EA3IBE | 2026-08-31 11:20:56 | 41.41364 | 2.29210 | 89° | 77km/h | 6793m | 3.4m/s | 0°C | 0% | 0hPa | 0V | 00:00:00 | 00:00:00 | 00:00:00 | |
| EA3GEO | 2026-08-31 11:20:54 | 41.41364 | 2.29162 | 91° | 71km/h | 6783m | 5.5m/s | 0°C | 0% | 0hPa | 0V | 00:00:00 | 00:00:00 | 00:00:00 | |
| EA3IBE | 2026-08-31 11:20:50 | 41.41354 | 2.29075 | 73° | 69km/h | 6757m | 3.8m/s | 0°C | 0% | 0hPa | 0V | 00:00:00 | 00:00:00 | 00:00:00 | |
| EA3GEO | 2026-08-31 11:20:48 | 41.41345 | 2.29023 | 79° | 78km/h | 6742m | 8.3m/s | 0°C | 0% | 0hPa | 0V | 00:00:00 | 00:00:00 | 00:00:00 | |
| EA3IBE | 2026-08-31 11:20:44 | 41.41338 | 2.28922 | 88° | 73km/h | 6719m | 7.6m/s | 0°C | 0% | 0hPa | 0V | 00:00:00 | 00:00:00 | 00:00:00 | |
| EA3GEO | 2026-08-31 11:20:43 | 41.41338 | 2.28898 | 93° | 73km/h | 6712m | 5.5m/s | 0°C | 0% | 0hPa | 0V | 00:00:00 | 00:00:00 | 00:00:00 | |
| EA3IBE | 2026-08-31 11:20:33 | 41.41309 | 2.28667 | 76° | 75km/h | 6652m | 1.5m/s | 0°C | 0% | 0hPa | 0V | 00:00:00 | 00:00:00 | 00:00:00 | |
| EA3GEO | 2026-08-31 11:20:29 | 41.41288 | 2.28571 | 78° | 69km/h | 6637m | 5.4m/s | 0°C | 0% | 0hPa | 0V | 00:00:00 | 00:00:00 | 00:00:00 | |
| EA3GEO | 2026-08-31 11:20:21 | 41.41276 | 2.28375 | 93° | 62km/h | 6584m | 6.4m/s | 0°C | 0% | 0hPa | 0V | 00:00:00 | 00:00:00 | 00:00:00 | |
| EA3IBE | 2026-08-31 11:20:16 | 41.41262 | 2.28258 | 74° | 75km/h | 6553m | 4.6m/s | 0°C | 0% | 0hPa | 0V | 00:00:00 | 00:00:00 | 00:00:00 | |
| EA3GEO | 2026-08-31 11:20:15 | 41.41257 | 2.28233 | 76° | 75km/h | 6547m | 2.2m/s | 0°C | 0% | 0hPa | 0V | 00:00:00 | 00:00:00 | 00:00:00 | |
| EA3GEO | 2026-08-31 11:20:10 | 41.41237 | 2.28116 | 79° | 73km/h | 6523m | 7.1m/s | 0°C | 0% | 0hPa | 0V | 00:00:00 | 00:00:00 | 00:00:00 | |
| EA3IBE | 2026-08-31 11:20:09 | 41.41233 | 2.28092 | 75° | 68km/h | 6515m | 5.1m/s | 0°C | 0% | 0hPa | 0V | 00:00:00 | 00:00:00 | 00:00:00 | |
| EA3GEO | 2026-08-31 11:20:04 | 41.41213 | 2.27976 | 83° | 78km/h | 6486m | 6.8m/s | 0°C | 0% | 0hPa | 0V | 00:00:00 | 00:00:00 | 00:00:00 | |
| EA3IBE | 2026-08-31 11:19:58 | 41.41197 | 2.27837 | 82° | 66km/h | 6450m | 3.5m/s | 0°C | 0% | 0hPa | 0V | 00:00:00 | 00:00:00 | 00:00:00 | |
| EA3GEO | 2026-08-31 11:19:52 | 41.41174 | 2.27693 | 77° | 68km/h | 6422m | 3.3m/s | 0°C | 0% | 0hPa | 0V | 00:00:00 | 00:00:00 | 00:00:00 | |
| EA3GEO | 2026-08-31 11:19:46 | 41.41154 | 2.27550 | 83° | 82km/h | 6387m | 4.7m/s | 0°C | 0% | 0hPa | 0V | 00:00:00 | 00:00:00 | 00:00:00 | |
| EA3IBE | 2026-08-31 11:19:41 | 41.41138 | 2.27436 | 79° | 57km/h | 6364m | 2.5m/s | 0°C | 0% | 0hPa | 0V | 00:00:00 | 00:00:00 | 00:00:00 | |
| EA3GEO | 2026-08-31 11:19:40 | 41.41135 | 2.27418 | 82° | 55km/h | 6361m | 3.7m/s | 0°C | 0% | 0hPa | 0V | 00:00:00 | 00:00:00 | 00:00:00 | |
| EA3GEO | 2026-08-31 11:19:34 | 41.41109 | 2.27274 | 82° | 73km/h | 6333m | 2.7m/s | 0°C | 0% | 0hPa | 0V | 00:00:00 | 00:00:00 | 00:00:00 | |
| EA3IBE | 2026-08-31 11:19:33 | 41.41106 | 2.27251 | 81° | 71km/h | 6329m | 4.1m/s | 0°C | 0% | 0hPa | 0V | 00:00:00 | 00:00:00 | 00:00:00 | |
| EA3GEO | 2026-08-31 11:19:29 | 41.41096 | 2.27152 | 77° | 78km/h | 6301m | 6.3m/s | 0°C | 0% | 0hPa | 0V | 00:00:00 | 00:00:00 | 00:00:00 | |
| EA3IBE | 2026-08-31 11:19:27 | 41.41085 | 2.27101 | 71° | 77km/h | 6288m | 6.4m/s | 0°C | 0% | 0hPa | 0V | 00:00:00 | 00:00:00 | 00:00:00 | |
| EA3GEO | 2026-08-31 11:19:23 | 41.41064 | 2.27015 | 75° | 66km/h | 6267m | 5.5m/s | 0°C | 0% | 0hPa | 0V | 00:00:00 | 00:00:00 | 00:00:00 | |
| EA3IBE | 2026-08-31 11:19:17 | 41.41040 | 2.26876 | 87° | 71km/h | 6227m | 1.0m/s | 0°C | 0% | 0hPa | 0V | 00:00:00 | 00:00:00 | 00:00:00 | |
| EA3GEO | 2026-08-31 11:19:12 | 41.41035 | 2.26748 | 88° | 77km/h | 6201m | 5.5m/s | 0°C | 0% | 0hPa | 0V | 00:00:00 | 00:00:00 | 00:00:00 | |
| EA3GEO | 2026-08-31 11:19:07 | 41.41025 | 2.26627 | 83° | 75km/h | 6169m | 4.9m/s | 0°C | 0% | 0hPa | 0V | 00:00:00 | 00:00:00 | 00:00:00 | |
| EA3IBE | 2026-08-31 11:19:05 | 41.41019 | 2.26572 | 81° | 82km/h | 6159m | 3.0m/s | 0°C | 0% | 0hPa | 0V | 00:00:00 | 00:00:00 | 00:00:00 | |
| EA3GEO | 2026-08-31 11:19:02 | 41.41011 | 2.26492 | 85° | 78km/h | 6148m | 8.4m/s | 0°C | 0% | 0hPa | 0V | 00:00:00 | 00:00:00 | 00:00:00 | |
| EA3IBE | 2026-08-31 11:18:58 | 41.41003 | 2.26382 | 83° | 82km/h | 6122m | 5.5m/s | 0°C | 0% | 0hPa | 0V | 00:00:00 | 00:00:00 | 00:00:00 | |
| EA3GEO | 2026-08-31 11:18:55 | 41.40991 | 2.26302 | 74° | 73km/h | 6101m | 5.5m/s | 0°C | 0% | 0hPa | 0V | 00:00:00 | 00:00:00 | 00:00:00 | |
| EA3IBE | 2026-08-31 11:18:51 | 41.40974 | 2.26211 | 83° | 71km/h | 6074m | 5.8m/s | 0°C | 0% | 0hPa | 0V | 00:00:00 | 00:00:00 | 00:00:00 | |
| EA3GEO | 2026-08-31 11:18:49 | 41.40968 | 2.26167 | 81° | 66km/h | 6060m | 7.5m/s | 0°C | 0% | 0hPa | 0V | 00:00:00 | 00:00:00 | 00:00:00 | |
| EA3GEO | 2026-08-31 11:18:43 | 41.40947 | 2.26047 | 89° | 71km/h | 6029m | 5.0m/s | 0°C | 0% | 0hPa | 0V | 00:00:00 | 00:00:00 | 00:00:00 | |
| EA3IBE | 2026-08-31 11:18:42 | 41.40946 | 2.26021 | 87° | 78km/h | 6023m | 6.1m/s | 0°C | 0% | 0hPa | 0V | 00:00:00 | 00:00:00 | 00:00:00 | |
| EA3IBE | 2026-08-31 11:18:37 | 41.40935 | 2.25893 | 84° | 68km/h | 5991m | 8.3m/s | 0°C | 0% | 0hPa | 0V | 00:00:00 | 00:00:00 | 00:00:00 | |
| EA3IBE | 2026-08-31 11:18:31 | 41.40921 | 2.25764 | 78° | 66km/h | 5954m | 5.3m/s | 0°C | 0% | 0hPa | 0V | 00:00:00 | 00:00:00 | 00:00:00 | |
| EA3GEO | 2026-08-31 11:18:26 | 41.40909 | 2.25652 | 81° | 71km/h | 5930m | 3.2m/s | 0°C | 0% | 0hPa | 0V | 00:00:00 | 00:00:00 | 00:00:00 | |
| EA3IBE | 2026-08-31 11:18:25 | 41.40905 | 2.25629 | 78° | 69km/h | 5927m | 4.7m/s | 0°C | 0% | 0hPa | 0V | 00:00:00 | 00:00:00 | 00:00:00 | |
| EA3GEO | 2026-08-31 11:18:21 | 41.40890 | 2.25542 | 87° | 75km/h | 5908m | 4.1m/s | 0°C | 0% | 0hPa | 0V | 00:00:00 | 00:00:00 | 00:00:00 | |
| EA3IBE | 2026-08-31 11:18:18 | 41.40889 | 2.25468 | 88° | 68km/h | 5896m | 3.2m/s | 0°C | 0% | 0hPa | 0V | 00:00:00 | 00:00:00 | 00:00:00 | |
| EA3GEO | 2026-08-31 11:18:16 | 41.40888 | 2.25426 | 83° | 58km/h | 5884m | 7.2m/s | 0°C | 0% | 0hPa | 0V | 00:00:00 | 00:00:00 | 00:00:00 | |
| EA3IBE | 2026-08-31 11:18:11 | 41.40869 | 2.25319 | 82° | 69km/h | 5851m | 3.4m/s | 0°C | 0% | 0hPa | 0V | 00:00:00 | 00:00:00 | 00:00:00 | |
| EA3GEO | 2026-08-31 11:18:08 | 41.40864 | 2.25251 | 87° | 64km/h | 5836m | 6.2m/s | 0°C | 0% | 0hPa | 0V | 00:00:00 | 00:00:00 | 00:00:00 | |
| EA3GEO | 2026-08-31 11:18:02 | 41.40857 | 2.25136 | 87° | 66km/h | 5798m | 7.2m/s | 0°C | 0% | 0hPa | 0V | 00:00:00 | 00:00:00 | 00:00:00 | |
| EA3GEO | 2026-08-31 11:17:56 | 41.40854 | 2.24999 | 89° | 62km/h | 5764m | 7.2m/s | 0°C | 0% | 0hPa | 0V | 00:00:00 | 00:00:00 | 00:00:00 | |
| EA3IBE | 2026-08-31 11:17:53 | 41.40846 | 2.24933 | 82° | 71km/h | 5741m | 6.1m/s | 0°C | 0% | 0hPa | 0V | 00:00:00 | 00:00:00 | 00:00:00 | |
| EA3GEO | 2026-08-31 11:17:49 | 41.40832 | 2.24843 | 79° | 60km/h | 5715m | 5.8m/s | 0°C | 0% | 0hPa | 0V | 00:00:00 | 00:00:00 | 00:00:00 | |
| EA3IBE | 2026-08-31 11:17:48 | 41.40830 | 2.24823 | 85° | 62km/h | 5708m | 5.9m/s | 0°C | 0% | 0hPa | 0V | 00:00:00 | 00:00:00 | 00:00:00 | |
| EA3GEO | 2026-08-31 11:17:44 | 41.40825 | 2.24735 | 87° | 66km/h | 5687m | 5.2m/s | 0°C | 0% | 0hPa | 0V | 00:00:00 | 00:00:00 | 00:00:00 | |
| EA3IBE | 2026-08-31 11:17:41 | 41.40825 | 2.24667 | 95° | 68km/h | 5669m | 5.6m/s | 0°C | 0% | 0hPa | 0V | 00:00:00 | 00:00:00 | 00:00:00 | |
| EA3GEO | 2026-08-31 11:17:37 | 41.40822 | 2.24575 | 85° | 55km/h | 5640m | 5.9m/s | 0°C | 0% | 0hPa | 0V | 00:00:00 | 00:00:00 | 00:00:00 | |
| EA3IBE | 2026-08-31 11:17:36 | 41.40820 | 2.24557 | 76° | 49km/h | 5633m | 7.3m/s | 0°C | 0% | 0hPa | 0V | 00:00:00 | 00:00:00 | 00:00:00 | |
| EA3IBE | 2026-08-31 11:17:30 | 41.40794 | 2.24430 | 82° | 75km/h | 5597m | 8.3m/s | 0°C | 0% | 0hPa | 0V | 00:00:00 | 00:00:00 | 00:00:00 | |
| EA3GEO | 2026-08-31 11:17:29 | 41.40792 | 2.24406 | 85° | 71km/h | 5588m | 5.0m/s | 0°C | 0% | 0hPa | 0V | 00:00:00 | 00:00:00 | 00:00:00 | |
| EA3GEO | 2026-08-31 11:17:24 | 41.40790 | 2.24302 | 83° | 57km/h | 5559m | 5.0m/s | 0°C | 0% | 0hPa | 0V | 00:00:00 | 00:00:00 | 00:00:00 | |
| EA3IBE | 2026-08-31 11:17:20 | 41.40771 | 2.24220 | 65° | 66km/h | 5532m | 3.4m/s | 0°C | 0% | 0hPa | 0V | 00:00:00 | 00:00:00 | 00:00:00 | |
| EA3GEO | 2026-08-31 11:17:18 | 41.40760 | 2.24178 | 78° | 69km/h | 5522m | 4.2m/s | 0°C | 0% | 0hPa | 0V | 00:00:00 | 00:00:00 | 00:00:00 | |
| EA3IBE | 2026-08-31 11:17:14 | 41.40752 | 2.24084 | 90° | 69km/h | 5501m | 4.7m/s | 0°C | 0% | 0hPa | 0V | 00:00:00 | 00:00:00 | 00:00:00 | |
| EA3GEO | 2026-08-31 11:17:12 | 41.40751 | 2.24042 | 84° | 64km/h | 5489m | 6.2m/s | 0°C | 0% | 0hPa | 0V | 00:00:00 | 00:00:00 | 00:00:00 | |
| EA3IBE | 2026-08-31 11:17:09 | 41.40739 | 2.23984 | 66° | 57km/h | 5471m | 3.7m/s | 0°C | 0% | 0hPa | 0V | 00:00:00 | 00:00:00 | 00:00:00 | |
| EA3GEO | 2026-08-31 11:17:07 | 41.40726 | 2.23950 | 62° | 55km/h | 5463m | 4.0m/s | 0°C | 0% | 0hPa | 0V | 00:00:00 | 00:00:00 | 00:00:00 | |
| EA3IBE | 2026-08-31 11:17:02 | 41.40712 | 2.23849 | 76° | 69km/h | 5433m | 8.0m/s | 0°C | 0% | 0hPa | 0V | 00:00:00 | 00:00:00 | 00:00:00 | |
| EA3GEO | 2026-08-31 11:17:01 | 41.40706 | 2.23828 | 68° | 60km/h | 5426m | 4.9m/s | 0°C | 0% | 0hPa | 0V | 00:00:00 | 00:00:00 | 00:00:00 | |
| EA3GEO | 2026-08-31 11:16:55 | 41.40666 | 2.23714 | 73° | 69km/h | 5395m | 8.7m/s | 0°C | 0% | 0hPa | 0V | 00:00:00 | 00:00:00 | 00:00:00 | |
| EA3IBE | 2026-08-31 11:16:53 | 41.40658 | 2.23667 | 80° | 77km/h | 5379m | 6.2m/s | 0°C | 0% | 0hPa | 0V | 00:00:00 | 00:00:00 | 00:00:00 | |
| EA3GEO | 2026-08-31 11:16:49 | 41.40643 | 2.23578 | 71° | 57km/h | 5352m | 6.0m/s | 0°C | 0% | 0hPa | 0V | 00:00:00 | 00:00:00 | 00:00:00 | |
| EA3IBE | 2026-08-31 11:16:47 | 41.40633 | 2.23543 | 75° | 60km/h | 5342m | 3.3m/s | 0°C | 0% | 0hPa | 0V | 00:00:00 | 00:00:00 | 00:00:00 | |
| EA3GEO | 2026-08-31 11:16:43 | 41.40612 | 2.23449 | 72° | 82km/h | 5323m | 4.7m/s | 0°C | 0% | 0hPa | 0V | 00:00:00 | 00:00:00 | 00:00:00 | |
| EA3IBE | 2026-08-31 11:16:41 | 41.40599 | 2.23403 | 67° | 68km/h | 5314m | 4.2m/s | 0°C | 0% | 0hPa | 0V | 00:00:00 | 00:00:00 | 00:00:00 | |
| EA3GEO | 2026-08-31 11:16:37 | 41.40583 | 2.23317 | 82° | 77km/h | 5282m | 7.4m/s | 0°C | 0% | 0hPa | 0V | 00:00:00 | 00:00:00 | 00:00:00 | |
| EA3IBE | 2026-08-31 11:16:35 | 41.40575 | 2.23266 | 77° | 77km/h | 5271m | 5.4m/s | 0°C | 0% | 0hPa | 0V | 00:00:00 | 00:00:00 | 00:00:00 | |
| EA3GEO | 2026-08-31 11:16:32 | 41.40566 | 2.23201 | 81° | 55km/h | 5256m | 3.9m/s | 0°C | 0% | 0hPa | 0V | 00:00:00 | 00:00:00 | 00:00:00 | |
| EA3IBE | 2026-08-31 11:16:28 | 41.40551 | 2.23129 | 75° | 62km/h | 5239m | 7.4m/s | 0°C | 0% | 0hPa | 0V | 00:00:00 | 00:00:00 | 00:00:00 | |
| EA3GEO | 2026-08-31 11:16:26 | 41.40542 | 2.23093 | 77° | 53km/h | 5224m | 7.2m/s | 0°C | 0% | 0hPa | 0V | 00:00:00 | 00:00:00 | 00:00:00 | |
| EA3IBE | 2026-08-31 11:16:22 | 41.40531 | 2.23021 | 78° | 58km/h | 5200m | 4.8m/s | 0°C | 0% | 0hPa | 0V | 00:00:00 | 00:00:00 | 00:00:00 | |
| EA3GEO | 2026-08-31 11:16:21 | 41.40527 | 2.23002 | 78° | 57km/h | 5195m | 5.3m/s | 0°C | 0% | 0hPa | 0V | 00:00:00 | 00:00:00 | 00:00:00 | |
| EA3IBE | 2026-08-31 11:16:16 | 41.40508 | 2.22908 | 80° | 60km/h | 5168m | 7.3m/s | 0°C | 0% | 0hPa | 0V | 00:00:00 | 00:00:00 | 00:00:00 | |
| EA3GEO | 2026-08-31 11:16:15 | 41.40506 | 2.22887 | 88° | 66km/h | 5160m | 7.9m/s | 0°C | 0% | 0hPa | 0V | 00:00:00 | 00:00:00 | 00:00:00 | |
| EA3IBE | 2026-08-31 11:16:09 | 41.40489 | 2.22764 | 79° | 60km/h | 5129m | 4.2m/s | 0°C | 0% | 0hPa | 0V | 00:00:00 | 00:00:00 | 00:00:00 | |
| EA3IBE | 2026-08-31 11:16:04 | 41.40470 | 2.22638 | 75° | 80km/h | 5108m | 3.7m/s | 0°C | 0% | 0hPa | 0V | 00:00:00 | 00:00:00 | 00:00:00 | |
| EA3GEO | 2026-08-31 11:15:58 | 41.40459 | 2.22500 | 93° | 64km/h | 5071m | 5.5m/s | 0°C | 0% | 0hPa | 0V | 00:00:00 | 00:00:00 | 00:00:00 | |
| EA3IBE | 2026-08-31 11:15:57 | 41.40459 | 2.22478 | 87° | 69km/h | 5065m | 5.7m/s | 0°C | 0% | 0hPa | 0V | 00:00:00 | 00:00:00 | 00:00:00 | |
| EA3IBE | 2026-08-31 11:15:52 | 41.40453 | 2.22364 | 85° | 62km/h | 5037m | 1.1m/s | 0°C | 0% | 0hPa | 0V | 00:00:00 | 00:00:00 | 00:00:00 | |
| EA3GEO | 2026-08-31 11:15:47 | 41.40453 | 2.22262 | 89° | 64km/h | 5014m | 4.2m/s | 0°C | 0% | 0hPa | 0V | 00:00:00 | 00:00:00 | 00:00:00 | |
| EA3GEO | 2026-08-31 11:15:41 | 41.40448 | 2.22119 | 86° | 71km/h | 4977m | 3.9m/s | 0°C | 0% | 0hPa | 0V | 00:00:00 | 00:00:00 | 00:00:00 | |
| EA3IBE | 2026-08-31 11:15:40 | 41.40446 | 2.22095 | 82° | 73km/h | 4973m | 3.6m/s | 0°C | 0% | 0hPa | 0V | 00:00:00 | 00:00:00 | 00:00:00 | |
| EA3GEO | 2026-08-31 11:15:36 | 41.40434 | 2.21992 | 87° | 75km/h | 4951m | 2.7m/s | 0°C | 0% | 0hPa | 0V | 00:00:00 | 00:00:00 | 00:00:00 | |
| EA3IBE | 2026-08-31 11:15:34 | 41.40431 | 2.21940 | 83° | 77km/h | 4944m | 6.3m/s | 0°C | 0% | 0hPa | 0V | 00:00:00 | 00:00:00 | 00:00:00 | |
| EA3GEO | 2026-08-31 11:15:30 | 41.40417 | 2.21849 | 77° | 62km/h | 4916m | 3.9m/s | 0°C | 0% | 0hPa | 0V | 00:00:00 | 00:00:00 | 00:00:00 | |
| EA3IBE | 2026-08-31 11:15:29 | 41.40413 | 2.21830 | 68° | 55km/h | 4912m | 3.3m/s | 0°C | 0% | 0hPa | 0V | 00:00:00 | 00:00:00 | 00:00:00 | |
| EA3GEO | 2026-08-31 11:15:25 | 41.40391 | 2.21760 | 71° | 60km/h | 4897m | 4.5m/s | 0°C | 0% | 0hPa | 0V | 00:00:00 | 00:00:00 | 00:00:00 | |
| EA3IBE | 2026-08-31 11:15:23 | 41.40383 | 2.21720 | 80° | 64km/h | 4884m | 6.9m/s | 0°C | 0% | 0hPa | 0V | 00:00:00 | 00:00:00 | 00:00:00 | |
| EA3GEO | 2026-08-31 11:15:20 | 41.40371 | 2.21645 | 74° | 80km/h | 4866m | 3.8m/s | 0°C | 0% | 0hPa | 0V | 00:00:00 | 00:00:00 | 00:00:00 | |
| EA3IBE | 2026-08-31 11:15:17 | 41.40354 | 2.21570 | 78° | 69km/h | 4856m | 4.1m/s | 0°C | 0% | 0hPa | 0V | 00:00:00 | 00:00:00 | 00:00:00 | |
| EA3GEO | 2026-08-31 11:15:16 | 41.40347 | 2.21525 | 81° | 68km/h | 4844m | 4.4m/s | 0°C | 0% | 0hPa | 0V | 00:00:00 | 00:00:00 | 00:00:00 | |
| EA3IBE | 2026-08-31 11:15:12 | 41.40341 | 2.21450 | 86° | 75km/h | 4828m | 2.1m/s | 0°C | 0% | 0hPa | 0V | 00:00:00 | 00:00:00 | 00:00:00 | |
| EA3GEO | 2026-08-31 11:15:09 | 41.40332 | 2.21379 | 74° | 66km/h | 4816m | 3.7m/s | 0°C | 0% | 0hPa | 0V | 00:00:00 | 00:00:00 | 00:00:00 | |
| EA3IBE | 2026-08-31 11:15:04 | 41.40308 | 2.21287 | 75° | 71km/h | 4798m | 5.9m/s | 0°C | 0% | 0hPa | 0V | 00:00:00 | 00:00:00 | 00:00:00 | |
| EA3IBE | 2026-08-31 11:14:58 | 41.40279 | 2.21143 | 76° | 68km/h | 4757m | 5.0m/s | 0°C | 0% | 0hPa | 0V | 00:00:00 | 00:00:00 | 00:00:00 | |
| EA3GEO | 2026-08-31 11:14:52 | 41.40255 | 2.20998 | 84° | 80km/h | 4730m | 3.8m/s | 0°C | 0% | 0hPa | 0V | 00:00:00 | 00:00:00 | 00:00:00 | |
| EA3IBE | 2026-08-31 11:14:51 | 41.40251 | 2.20972 | 83° | 77km/h | 4726m | 3.3m/s | 0°C | 0% | 0hPa | 0V | 00:00:00 | 00:00:00 | 00:00:00 | |
| EA3IBE | 2026-08-31 11:14:46 | 41.40238 | 2.20845 | 84° | 75km/h | 4695m | 5.6m/s | 0°C | 0% | 0hPa | 0V | 00:00:00 | 00:00:00 | 00:00:00 | |
| EA3IBE | 2026-08-31 11:14:40 | 41.40204 | 2.20724 | 72° | 68km/h | 4668m | 3.5m/s | 0°C | 0% | 0hPa | 0V | 00:00:00 | 00:00:00 | 00:00:00 | |
| EA3IBE | 2026-08-31 11:14:35 | 41.40177 | 2.20606 | 76° | 75km/h | 4640m | 5.8m/s | 0°C | 0% | 0hPa | 0V | 00:00:00 | 00:00:00 | 00:00:00 | |
| EA3GEO | 2026-08-31 11:14:34 | 41.40171 | 2.20582 | 74° | 77km/h | 4634m | 6.2m/s | 0°C | 0% | 0hPa | 0V | 00:00:00 | 00:00:00 | 00:00:00 | |
| EA3IBE | 2026-08-31 11:14:29 | 41.40155 | 2.20477 | 82° | 58km/h | 4605m | 2.9m/s | 0°C | 0% | 0hPa | 0V | 00:00:00 | 00:00:00 | 00:00:00 | |
| EA3IBE | 2026-08-31 11:14:24 | 41.40151 | 2.20379 | 88° | 66km/h | 4580m | 3.7m/s | 0°C | 0% | 0hPa | 0V | 00:00:00 | 00:00:00 | 00:00:00 | |
| EA3GEO | 2026-08-31 11:14:19 | 41.40146 | 2.20259 | 88° | 80km/h | 4554m | 3.3m/s | 0°C | 0% | 0hPa | 0V | 00:00:00 | 00:00:00 | 00:00:00 | |
| EA3IBE | 2026-08-31 11:14:18 | 41.40145 | 2.20233 | 84° | 77km/h | 4550m | 4.8m/s | 0°C | 0% | 0hPa | 0V | 00:00:00 | 00:00:00 | 00:00:00 | |
| EA3GEO | 2026-08-31 11:14:13 | 41.40129 | 2.20118 | 67° | 69km/h | 4520m | 4.8m/s | 0°C | 0% | 0hPa | 0V | 00:00:00 | 00:00:00 | 00:00:00 | |
| EA3IBE | 2026-08-31 11:14:11 | 41.40119 | 2.20073 | 77° | 66km/h | 4514m | 5.7m/s | 0°C | 0% | 0hPa | 0V | 00:00:00 | 00:00:00 | 00:00:00 | |
| EA3GEO | 2026-08-31 11:14:07 | 41.40115 | 2.19984 | 86° | 60km/h | 4487m | 8.1m/s | 0°C | 0% | 0hPa | 0V | 00:00:00 | 00:00:00 | 00:00:00 | |
| EA3IBE | 2026-08-31 11:14:03 | 41.40106 | 2.19906 | 69° | 68km/h | 4459m | 6.5m/s | 0°C | 0% | 0hPa | 0V | 00:00:00 | 00:00:00 | 00:00:00 | |
| EA3GEO | 2026-08-31 11:14:02 | 41.40099 | 2.19884 | 69° | 77km/h | 4451m | 8.5m/s | 0°C | 0% | 0hPa | 0V | 00:00:00 | 00:00:00 | 00:00:00 | |
| EA3IBE | 2026-08-31 11:13:58 | 41.40088 | 2.19798 | 95° | 60km/h | 4431m | 3.3m/s | 0°C | 0% | 0hPa | 0V | 00:00:00 | 00:00:00 | 00:00:00 | |
| EA3GEO | 2026-08-31 11:13:57 | 41.40090 | 2.19777 | 100° | 64km/h | 4426m | 1.0m/s | 0°C | 0% | 0hPa | 0V | 00:00:00 | 00:00:00 | 00:00:00 | |
| EA3IBE | 2026-08-31 11:13:51 | 41.40082 | 2.19643 | 76° | 71km/h | 4396m | 5.9m/s | 0°C | 0% | 0hPa | 0V | 00:00:00 | 00:00:00 | 00:00:00 | |
| EA3IBE | 2026-08-31 11:13:46 | 41.40067 | 2.19539 | 84° | 75km/h | 4374m | 4.2m/s | 0°C | 0% | 0hPa | 0V | 00:00:00 | 00:00:00 | 00:00:00 | |
| EA3GEO | 2026-08-31 11:13:45 | 41.40064 | 2.19513 | 86° | 77km/h | 4370m | 2.2m/s | 0°C | 0% | 0hPa | 0V | 00:00:00 | 00:00:00 | 00:00:00 | |
| EA3GEO | 2026-08-31 11:13:40 | 41.40054 | 2.19392 | 88° | 60km/h | 4348m | 5.2m/s | 0°C | 0% | 0hPa | 0V | 00:00:00 | 00:00:00 | 00:00:00 | |
| EA3GEO | 2026-08-31 11:13:35 | 41.40032 | 2.19303 | 67° | 60km/h | 4325m | 0.2m/s | 0°C | 0% | 0hPa | 0V | 00:00:00 | 00:00:00 | 00:00:00 | |
| EA3IBE | 2026-08-31 11:13:29 | 41.40013 | 2.19166 | 89° | 66km/h | 4292m | 4.4m/s | 0°C | 0% | 0hPa | 0V | 00:00:00 | 00:00:00 | 00:00:00 | |
| EA3GEO | 2026-08-31 11:13:24 | 41.40010 | 2.19062 | 94° | 68km/h | 4265m | 8.6m/s | 0°C | 0% | 0hPa | 0V | 00:00:00 | 00:00:00 | 00:00:00 | |
| EA3IBE | 2026-08-31 11:13:23 | 41.40011 | 2.19039 | 92° | 69km/h | 4258m | 3.2m/s | 0°C | 0% | 0hPa | 0V | 00:00:00 | 00:00:00 | 00:00:00 | |
| EA3GEO | 2026-08-31 11:13:18 | 41.40012 | 2.18939 | 89° | 46km/h | 4227m | 5.2m/s | 0°C | 0% | 0hPa | 0V | 00:00:00 | 00:00:00 | 00:00:00 | |
| EA3IBE | 2026-08-31 11:13:14 | 41.39996 | 2.18863 | 75° | 66km/h | 4206m | 2.5m/s | 0°C | 0% | 0hPa | 0V | 00:00:00 | 00:00:00 | 00:00:00 | |
| EA3GEO | 2026-08-31 11:13:12 | 41.39987 | 2.18819 | 78° | 66km/h | 4197m | 2.4m/s | 0°C | 0% | 0hPa | 0V | 00:00:00 | 00:00:00 | 00:00:00 | |
| EA3IBE | 2026-08-31 11:13:09 | 41.39979 | 2.18752 | 85° | 60km/h | 4179m | 6.1m/s | 0°C | 0% | 0hPa | 0V | 00:00:00 | 00:00:00 | 00:00:00 | |
| EA3GEO | 2026-08-31 11:13:07 | 41.39976 | 2.18714 | 84° | 57km/h | 4166m | 6.6m/s | 0°C | 0% | 0hPa | 0V | 00:00:00 | 00:00:00 | 00:00:00 | |
| EA3GEO | 2026-08-31 11:13:01 | 41.39973 | 2.18619 | 91° | 57km/h | 4138m | 4.3m/s | 0°C | 0% | 0hPa | 0V | 00:00:00 | 00:00:00 | 00:00:00 | |
| EA3IBE | 2026-08-31 11:13:00 | 41.39972 | 2.18601 | 83° | 57km/h | 4132m | 5.0m/s | 0°C | 0% | 0hPa | 0V | 00:00:00 | 00:00:00 | 00:00:00 | |
| EA3GEO | 2026-08-31 11:12:56 | 41.39962 | 2.18531 | 80° | 49km/h | 4107m | 3.3m/s | 0°C | 0% | 0hPa | 0V | 00:00:00 | 00:00:00 | 00:00:00 | |
| EA3IBE | 2026-08-31 11:12:55 | 41.39960 | 2.18514 | 85° | 49km/h | 4102m | 3.6m/s | 0°C | 0% | 0hPa | 0V | 00:00:00 | 00:00:00 | 00:00:00 | |
| EA3GEO | 2026-08-31 11:12:50 | 41.39949 | 2.18428 | 60° | 55km/h | 4079m | 1.5m/s | 0°C | 0% | 0hPa | 0V | 00:00:00 | 00:00:00 | 00:00:00 | |
| EA3IBE | 2026-08-31 11:12:48 | 41.39937 | 2.18395 | 64° | 55km/h | 4075m | 2.8m/s | 0°C | 0% | 0hPa | 0V | 00:00:00 | 00:00:00 | 00:00:00 | |
| EA3GEO | 2026-08-31 11:12:44 | 41.39919 | 2.18329 | 87° | 57km/h | 4052m | 4.0m/s | 0°C | 0% | 0hPa | 0V | 00:00:00 | 00:00:00 | 00:00:00 | |
| EA3IBE | 2026-08-31 11:12:42 | 41.39919 | 2.18288 | 94° | 62km/h | 4043m | 2.2m/s | 0°C | 0% | 0hPa | 0V | 00:00:00 | 00:00:00 | 00:00:00 | |
| EA3GEO | 2026-08-31 11:12:39 | 41.39920 | 2.18232 | 91° | 44km/h | 4033m | 3.7m/s | 0°C | 0% | 0hPa | 0V | 00:00:00 | 00:00:00 | 00:00:00 | |
| EA3IBE | 2026-08-31 11:12:36 | 41.39923 | 2.18188 | 91° | 49km/h | 4014m | 4.8m/s | 0°C | 0% | 0hPa | 0V | 00:00:00 | 00:00:00 | 00:00:00 | |
| EA3GEO | 2026-08-31 11:12:33 | 41.39915 | 2.18134 | 76° | 51km/h | 3998m | 6.7m/s | 0°C | 0% | 0hPa | 0V | 00:00:00 | 00:00:00 | 00:00:00 | |
| EA3IBE | 2026-08-31 11:12:31 | 41.39911 | 2.18106 | 89° | 38km/h | 3986m | 4.8m/s | 0°C | 0% | 0hPa | 0V | 00:00:00 | 00:00:00 | 00:00:00 | |
| EA3GEO | 2026-08-31 11:12:28 | 41.39910 | 2.18059 | 85° | 51km/h | 3972m | 3.8m/s | 0°C | 0% | 0hPa | 0V | 00:00:00 | 00:00:00 | 00:00:00 | |
| EA3IBE | 2026-08-31 11:12:25 | 41.39904 | 2.18004 | 82° | 58km/h | 3960m | 2.8m/s | 0°C | 0% | 0hPa | 0V | 00:00:00 | 00:00:00 | 00:00:00 | |
| EA3GEO | 2026-08-31 11:12:23 | 41.39900 | 2.17968 | 82° | 51km/h | 3953m | 3.4m/s | 0°C | 0% | 0hPa | 0V | 00:00:00 | 00:00:00 | 00:00:00 | |
| EA3IBE | 2026-08-31 11:12:20 | 41.39894 | 2.17918 | 72° | 49km/h | 3942m | 4.5m/s | 0°C | 0% | 0hPa | 0V | 00:00:00 | 00:00:00 | 00:00:00 | |
| EA3GEO | 2026-08-31 11:12:17 | 41.39882 | 2.17866 | 68° | 55km/h | 3929m | 2.0m/s | 0°C | 0% | 0hPa | 0V | 00:00:00 | 00:00:00 | 00:00:00 | |
| EA3IBE | 2026-08-31 11:12:14 | 41.39870 | 2.17813 | 80° | 55km/h | 3917m | 4.6m/s | 0°C | 0% | 0hPa | 0V | 00:00:00 | 00:00:00 | 00:00:00 | |
| EA3GEO | 2026-08-31 11:12:11 | 41.39861 | 2.17760 | 82° | 58km/h | 3896m | 5.8m/s | 0°C | 0% | 0hPa | 0V | 00:00:00 | 00:00:00 | 00:00:00 | |
| EA3IBE | 2026-08-31 11:12:09 | 41.39859 | 2.17721 | 92° | 57km/h | 3885m | 4.1m/s | 0°C | 0% | 0hPa | 0V | 00:00:00 | 00:00:00 | 00:00:00 | |
| EA3GEO | 2026-08-31 11:12:06 | 41.39863 | 2.17667 | 101° | 53km/h | 3869m | 6.6m/s | 0°C | 0% | 0hPa | 0V | 00:00:00 | 00:00:00 | 00:00:00 | |
| EA3IBE | 2026-08-31 11:12:04 | 41.39867 | 2.17629 | 94° | 55km/h | 3857m | 1.4m/s | 0°C | 0% | 0hPa | 0V | 00:00:00 | 00:00:00 | 00:00:00 | |
| EA3GEO | 2026-08-31 11:12:00 | 41.39873 | 2.17568 | 98° | 31km/h | 3841m | 3.5m/s | 0°C | 0% | 0hPa | 0V | 00:00:00 | 00:00:00 | 00:00:00 | |
| EA3IBE | 2026-08-31 11:11:57 | 41.39875 | 2.17535 | 98° | 35km/h | 3830m | 3.8m/s | 0°C | 0% | 0hPa | 0V | 00:00:00 | 00:00:00 | 00:00:00 | |
| EA3GEO | 2026-08-31 11:11:54 | 41.39879 | 2.17497 | 94° | 47km/h | 3814m | 3.9m/s | 0°C | 0% | 0hPa | 0V | 00:00:00 | 00:00:00 | 00:00:00 | |
| EA3IBE | 2026-08-31 11:11:52 | 41.39875 | 2.17468 | 69° | 42km/h | 3800m | 3.8m/s | 0°C | 0% | 0hPa | 0V | 00:00:00 | 00:00:00 | 00:00:00 | |
| EA3GEO | 2026-08-31 11:11:49 | 41.39864 | 2.17430 | 91° | 40km/h | 3787m | 2.1m/s | 0°C | 0% | 0hPa | 0V | 00:00:00 | 00:00:00 | 00:00:00 | |
| EA3IBE | 2026-08-31 11:11:47 | 41.39866 | 2.17403 | 103° | 44km/h | 3778m | 6.1m/s | 0°C | 0% | 0hPa | 0V | 00:00:00 | 00:00:00 | 00:00:00 | |
| EA3GEO | 2026-08-31 11:11:43 | 41.39865 | 2.17346 | 79° | 42km/h | 3754m | 1.2m/s | 0°C | 0% | 0hPa | 0V | 00:00:00 | 00:00:00 | 00:00:00 | |
| EA3IBE | 2026-08-31 11:11:41 | 41.39864 | 2.17317 | 98° | 47km/h | 3747m | 1.3m/s | 0°C | 0% | 0hPa | 0V | 00:00:00 | 00:00:00 | 00:00:00 | |
| EA3GEO | 2026-08-31 11:11:37 | 41.39871 | 2.17243 | 102° | 53km/h | 3734m | 3.9m/s | 0°C | 0% | 0hPa | 0V | 00:00:00 | 00:00:00 | 00:00:00 | |
| EA3IBE | 2026-08-31 11:11:36 | 41.39873 | 2.17225 | 94° | 49km/h | 3728m | 4.4m/s | 0°C | 0% | 0hPa | 0V | 00:00:00 | 00:00:00 | 00:00:00 | |
| EA3GEO | 2026-08-31 11:11:31 | 41.39876 | 2.17132 | 96° | 51km/h | 3703m | 3.6m/s | 0°C | 0% | 0hPa | 0V | 00:00:00 | 00:00:00 | 00:00:00 | |
| EA3IBE | 2026-08-31 11:11:30 | 41.39877 | 2.17117 | 96° | 38km/h | 3699m | 4.6m/s | 0°C | 0% | 0hPa | 0V | 00:00:00 | 00:00:00 | 00:00:00 | |
| EA3IBE | 2026-08-31 11:11:25 | 41.39870 | 2.17053 | 75° | 42km/h | 3673m | 2.9m/s | 0°C | 0% | 0hPa | 0V | 00:00:00 | 00:00:00 | 00:00:00 | |
| EA3IBE | 2026-08-31 11:11:20 | 41.39862 | 2.16986 | 100° | 37km/h | 3644m | 3.2m/s | 0°C | 0% | 0hPa | 0V | 00:00:00 | 00:00:00 | 00:00:00 | |
| EA3GEO | 2026-08-31 11:11:14 | 41.39875 | 2.16915 | 91° | 31km/h | 3614m | 2.8m/s | 0°C | 0% | 0hPa | 0V | 00:00:00 | 00:00:00 | 00:00:00 | |
| EA3IBE | 2026-08-31 11:11:08 | 41.39871 | 2.16807 | 103° | 57km/h | 3586m | 4.6m/s | 0°C | 0% | 0hPa | 0V | 00:00:00 | 00:00:00 | 00:00:00 | |
| EA3IBE | 2026-08-31 11:11:03 | 41.39885 | 2.16733 | 100° | 47km/h | 3558m | 6.3m/s | 0°C | 0% | 0hPa | 0V | 00:00:00 | 00:00:00 | 00:00:00 | |
| EA3IBE | 2026-08-31 11:10:57 | 41.39890 | 2.16630 | 91° | 35km/h | 3528m | 4.5m/s | 0°C | 0% | 0hPa | 0V | 00:00:00 | 00:00:00 | 00:00:00 | |
| EA3GEO | 2026-08-31 11:10:52 | 41.39894 | 2.16565 | 100° | 49km/h | 3509m | 5.4m/s | 0°C | 0% | 0hPa | 0V | 00:00:00 | 00:00:00 | 00:00:00 | |
| EA3IBE | 2026-08-31 11:10:51 | 41.39895 | 2.16550 | 98° | 44km/h | 3502m | 6.5m/s | 0°C | 0% | 0hPa | 0V | 00:00:00 | 00:00:00 | 00:00:00 | |
| EA3IBE | 2026-08-31 11:10:46 | 41.39904 | 2.16469 | 77° | 49km/h | 3471m | 3.8m/s | 0°C | 0% | 0hPa | 0V | 00:00:00 | 00:00:00 | 00:00:00 | |
| EA3GEO | 2026-08-31 11:10:40 | 41.39897 | 2.16384 | 99° | 40km/h | 3437m | 6.1m/s | 0°C | 0% | 0hPa | 0V | 00:00:00 | 00:00:00 | 00:00:00 | |
| EA3GEO | 2026-08-31 11:10:35 | 41.39894 | 2.16318 | 83° | 51km/h | 3413m | 3.2m/s | 0°C | 0% | 0hPa | 0V | 00:00:00 | 00:00:00 | 00:00:00 | |
| EA3IBE | 2026-08-31 11:10:30 | 41.39886 | 2.16222 | 102° | 57km/h | 3391m | 3.7m/s | 0°C | 0% | 0hPa | 0V | 00:00:00 | 00:00:00 | 00:00:00 | |
| EA3IBE | 2026-08-31 11:10:24 | 41.39894 | 2.16135 | 70° | 40km/h | 3354m | 3.7m/s | 0°C | 0% | 0hPa | 0V | 00:00:00 | 00:00:00 | 00:00:00 | |
| EA3IBE | 2026-08-31 11:10:18 | 41.39885 | 2.16038 | 89° | 49km/h | 3320m | 4.2m/s | 0°C | 0% | 0hPa | 0V | 00:00:00 | 00:00:00 | 00:00:00 | |
| EA3IBE | 2026-08-31 11:10:13 | 41.39890 | 2.15975 | 111° | 37km/h | 3299m | 1.8m/s | 0°C | 0% | 0hPa | 0V | 00:00:00 | 00:00:00 | 00:00:00 | |
| EA3IBE | 2026-08-31 11:10:07 | 41.39888 | 2.15884 | 71° | 38km/h | 3273m | 6.1m/s | 0°C | 0% | 0hPa | 0V | 00:00:00 | 00:00:00 | 00:00:00 | |
| EA3IBE | 2026-08-31 11:10:00 | 41.39884 | 2.15798 | 104° | 33km/h | 3232m | 4.1m/s | 0°C | 0% | 0hPa | 0V | 00:00:00 | 00:00:00 | 00:00:00 | |
| EA3IBE | 2026-08-31 11:09:55 | 41.39887 | 2.15739 | 91° | 38km/h | 3210m | 7.1m/s | 0°C | 0% | 0hPa | 0V | 00:00:00 | 00:00:00 | 00:00:00 | |
| EA3GEO | 2026-08-31 11:09:54 | 41.39887 | 2.15725 | 94° | 42km/h | 3202m | 7.1m/s | 0°C | 0% | 0hPa | 0V | 00:00:00 | 00:00:00 | 00:00:00 | |
| EA3GEO | 2026-08-31 11:09:49 | 41.39886 | 2.15667 | 79° | 26km/h | 3171m | 3.4m/s | 0°C | 0% | 0hPa | 0V | 00:00:00 | 00:00:00 | 00:00:00 | |
| EA3IBE | 2026-08-31 11:09:43 | 41.39871 | 2.15594 | 72° | 35km/h | 3137m | 5.8m/s | 0°C | 0% | 0hPa | 0V | 00:00:00 | 00:00:00 | 00:00:00 | |
| EA3GEO | 2026-08-31 11:09:37 | 41.39849 | 2.15522 | 73° | 57km/h | 3110m | 0.2m/s | 0°C | 0% | 0hPa | 0V | 00:00:00 | 00:00:00 | 00:00:00 | |
| EA3IBE | 2026-08-31 11:09:36 | 41.39845 | 2.15504 | 76° | 60km/h | 3108m | 3.1m/s | 0°C | 0% | 0hPa | 0V | 00:00:00 | 00:00:00 | 00:00:00 | |
| EA3IBE | 2026-08-31 11:09:30 | 41.39835 | 2.15418 | 86° | 33km/h | 3072m | 5.8m/s | 0°C | 0% | 0hPa | 0V | 00:00:00 | 00:00:00 | 00:00:00 | |
| EA3IBE | 2026-08-31 11:09:25 | 41.39817 | 2.15343 | 77° | 58km/h | 3053m | 2.2m/s | 0°C | 0% | 0hPa | 0V | 00:00:00 | 00:00:00 | 00:00:00 | |
| EA3GEO | 2026-08-31 11:09:24 | 41.39814 | 2.15324 | 81° | 58km/h | 3050m | 3.2m/s | 0°C | 0% | 0hPa | 0V | 00:00:00 | 00:00:00 | 00:00:00 | |
| EA3IBE | 2026-08-31 11:09:19 | 41.39797 | 2.15241 | 83° | 47km/h | 3021m | 7.0m/s | 0°C | 0% | 0hPa | 0V | 00:00:00 | 00:00:00 | 00:00:00 | |
| EA3GEO | 2026-08-31 11:09:18 | 41.39796 | 2.15225 | 83° | 47km/h | 3014m | 4.1m/s | 0°C | 0% | 0hPa | 0V | 00:00:00 | 00:00:00 | 00:00:00 | |
| EA3IBE | 2026-08-31 11:09:14 | 41.39796 | 2.15173 | 101° | 40km/h | 2997m | 2.8m/s | 0°C | 0% | 0hPa | 0V | 00:00:00 | 00:00:00 | 00:00:00 | |
| EA3GEO | 2026-08-31 11:09:12 | 41.39798 | 2.15143 | 93° | 51km/h | 2991m | 3.6m/s | 0°C | 0% | 0hPa | 0V | 00:00:00 | 00:00:00 | 00:00:00 | |
| EA3IBE | 2026-08-31 11:09:08 | 41.39794 | 2.15073 | 81° | 53km/h | 2967m | 4.8m/s | 0°C | 0% | 0hPa | 0V | 00:00:00 | 00:00:00 | 00:00:00 | |
| EA3GEO | 2026-08-31 11:09:07 | 41.39791 | 2.15057 | 74° | 51km/h | 2961m | 5.8m/s | 0°C | 0% | 0hPa | 0V | 00:00:00 | 00:00:00 | 00:00:00 | |
| EA3IBE | 2026-08-31 11:09:03 | 41.39774 | 2.14994 | 81° | 51km/h | 2943m | 2.3m/s | 0°C | 0% | 0hPa | 0V | 00:00:00 | 00:00:00 | 00:00:00 | |
| EA3GEO | 2026-08-31 11:09:01 | 41.39770 | 2.14959 | 82° | 57km/h | 2931m | 6.8m/s | 0°C | 0% | 0hPa | 0V | 00:00:00 | 00:00:00 | 00:00:00 | |
| EA3IBE | 2026-08-31 11:08:57 | 41.39754 | 2.14895 | 71° | 42km/h | 2909m | 4.6m/s | 0°C | 0% | 0hPa | 0V | 00:00:00 | 00:00:00 | 00:00:00 | |
| EA3GEO | 2026-08-31 11:08:55 | 41.39747 | 2.14868 | 73° | 46km/h | 2897m | 5.0m/s | 0°C | 0% | 0hPa | 0V | 00:00:00 | 00:00:00 | 00:00:00 | |
| EA3IBE | 2026-08-31 11:08:51 | 41.39742 | 2.14803 | 93° | 53km/h | 2873m | 2.0m/s | 0°C | 0% | 0hPa | 0V | 00:00:00 | 00:00:00 | 00:00:00 | |
| EA3GEO | 2026-08-31 11:08:49 | 41.39744 | 2.14767 | 99° | 53km/h | 2866m | 3.8m/s | 0°C | 0% | 0hPa | 0V | 00:00:00 | 00:00:00 | 00:00:00 | |
| EA3IBE | 2026-08-31 11:08:46 | 41.39750 | 2.14722 | 103° | 35km/h | 2852m | 3.2m/s | 0°C | 0% | 0hPa | 0V | 00:00:00 | 00:00:00 | 00:00:00 | |
| EA3GEO | 2026-08-31 11:08:43 | 41.39745 | 2.14687 | 67° | 37km/h | 2837m | 6.1m/s | 0°C | 0% | 0hPa | 0V | 00:00:00 | 00:00:00 | 00:00:00 | |
| EA3IBE | 2026-08-31 11:08:40 | 41.39733 | 2.14643 | 82° | 51km/h | 2821m | 3.6m/s | 0°C | 0% | 0hPa | 0V | 00:00:00 | 00:00:00 | 00:00:00 | |
| EA3GEO | 2026-08-31 11:08:37 | 41.39735 | 2.14597 | 99° | 44km/h | 2808m | 1.0m/s | 0°C | 0% | 0hPa | 0V | 00:00:00 | 00:00:00 | 00:00:00 | |
| EA3IBE | 2026-08-31 11:08:34 | 41.39736 | 2.14561 | 72° | 37km/h | 2794m | 4.6m/s | 0°C | 0% | 0hPa | 0V | 00:00:00 | 00:00:00 | 00:00:00 | |
| EA3GEO | 2026-08-31 11:08:32 | 41.39728 | 2.14536 | 63° | 40km/h | 2781m | 5.0m/s | 0°C | 0% | 0hPa | 0V | 00:00:00 | 00:00:00 | 00:00:00 | |
| EA3IBE | 2026-08-31 11:08:29 | 41.39711 | 2.14497 | 63° | 53km/h | 2765m | 4.3m/s | 0°C | 0% | 0hPa | 0V | 00:00:00 | 00:00:00 | 00:00:00 | |
| EA3GEO | 2026-08-31 11:08:26 | 41.39702 | 2.14444 | 93° | 53km/h | 2751m | 5.4m/s | 0°C | 0% | 0hPa | 0V | 00:00:00 | 00:00:00 | 00:00:00 | |
| EA3IBE | 2026-08-31 11:08:24 | 41.39703 | 2.14407 | 91° | 55km/h | 2739m | 4.2m/s | 0°C | 0% | 0hPa | 0V | 00:00:00 | 00:00:00 | 00:00:00 | |
| EA3GEO | 2026-08-31 11:08:21 | 41.39703 | 2.14354 | 84° | 46km/h | 2726m | 5.0m/s | 0°C | 0% | 0hPa | 0V | 00:00:00 | 00:00:00 | 00:00:00 | |
| EA3IBE | 2026-08-31 11:08:18 | 41.39691 | 2.14309 | 68° | 53km/h | 2708m | 4.4m/s | 0°C | 0% | 0hPa | 0V | 00:00:00 | 00:00:00 | 00:00:00 | |
| EA3GEO | 2026-08-31 11:08:15 | 41.39679 | 2.14254 | 82° | 62km/h | 2696m | 2.4m/s | 0°C | 0% | 0hPa | 0V | 00:00:00 | 00:00:00 | 00:00:00 | |
| EA3IBE | 2026-08-31 11:08:13 | 41.39675 | 2.14220 | 85° | 49km/h | 2688m | 4.6m/s | 0°C | 0% | 0hPa | 0V | 00:00:00 | 00:00:00 | 00:00:00 | |
| EA3GEO | 2026-08-31 11:08:09 | 41.39662 | 2.14167 | 56° | 38km/h | 2662m | 3.0m/s | 0°C | 0% | 0hPa | 0V | 00:00:00 | 00:00:00 | 00:00:00 | |
| EA3IBE | 2026-08-31 11:08:07 | 41.39651 | 2.14144 | 67° | 42km/h | 2655m | 2.8m/s | 0°C | 0% | 0hPa | 0V | 00:00:00 | 00:00:00 | 00:00:00 | |
| EA3GEO | 2026-08-31 11:08:04 | 41.39639 | 2.14107 | 78° | 47km/h | 2639m | 5.0m/s | 0°C | 0% | 0hPa | 0V | 00:00:00 | 00:00:00 | 00:00:00 | |
| EA3IBE | 2026-08-31 11:08:02 | 41.39635 | 2.14072 | 89° | 57km/h | 2629m | 2.1m/s | 0°C | 0% | 0hPa | 0V | 00:00:00 | 00:00:00 | 00:00:00 | |
| EA3GEO | 2026-08-31 11:07:58 | 41.39631 | 2.14002 | 89° | 42km/h | 2613m | 4.5m/s | 0°C | 0% | 0hPa | 0V | 00:00:00 | 00:00:00 | 00:00:00 | |
| EA3IBE | 2026-08-31 11:07:56 | 41.39633 | 2.13974 | 101° | 46km/h | 2601m | 5.6m/s | 0°C | 0% | 0hPa | 0V | 00:00:00 | 00:00:00 | 00:00:00 | |
| EA3GEO | 2026-08-31 11:07:52 | 41.39632 | 2.13908 | 82° | 44km/h | 2580m | 6.6m/s | 0°C | 0% | 0hPa | 0V | 00:00:00 | 00:00:00 | 00:00:00 | |
| EA3IBE | 2026-08-31 11:07:50 | 41.39627 | 2.13886 | 76° | 33km/h | 2571m | 3.5m/s | 0°C | 0% | 0hPa | 0V | 00:00:00 | 00:00:00 | 00:00:00 | |
| EA3GEO | 2026-08-31 11:07:46 | 41.39616 | 2.13820 | 73° | 55km/h | 2547m | 6.8m/s | 0°C | 0% | 0hPa | 0V | 00:00:00 | 00:00:00 | 00:00:00 | |
| EA3IBE | 2026-08-31 11:07:42 | 41.39605 | 2.13755 | 86° | 42km/h | 2520m | 5.9m/s | 0°C | 0% | 0hPa | 0V | 00:00:00 | 00:00:00 | 00:00:00 | |
| EA3GEO | 2026-08-31 11:07:41 | 41.39603 | 2.13739 | 81° | 49km/h | 2512m | 7.8m/s | 0°C | 0% | 0hPa | 0V | 00:00:00 | 00:00:00 | 00:00:00 | |
| EA3IBE | 2026-08-31 11:07:36 | 41.39595 | 2.13645 | 78° | 60km/h | 2490m | 2.5m/s | 0°C | 0% | 0hPa | 0V | 00:00:00 | 00:00:00 | 00:00:00 | |
| EA3GEO | 2026-08-31 11:07:35 | 41.39591 | 2.13626 | 76° | 55km/h | 2486m | 2.1m/s | 0°C | 0% | 0hPa | 0V | 00:00:00 | 00:00:00 | 00:00:00 | |
| EA3IBE | 2026-08-31 11:07:30 | 41.39579 | 2.13556 | 97° | 31km/h | 2462m | 4.5m/s | 0°C | 0% | 0hPa | 0V | 00:00:00 | 00:00:00 | 00:00:00 | |
| EA3GEO | 2026-08-31 11:07:29 | 41.39579 | 2.13545 | 83° | 35km/h | 2458m | 4.8m/s | 0°C | 0% | 0hPa | 0V | 00:00:00 | 00:00:00 | 00:00:00 | |
| EA3IBE | 2026-08-31 11:07:25 | 41.39563 | 2.13489 | 65° | 44km/h | 2435m | 3.8m/s | 0°C | 0% | 0hPa | 0V | 00:00:00 | 00:00:00 | 00:00:00 | |
| EA3GEO | 2026-08-31 11:07:24 | 41.39560 | 2.13476 | 75° | 38km/h | 2432m | 2.0m/s | 0°C | 0% | 0hPa | 0V | 00:00:00 | 00:00:00 | 00:00:00 | |
| EA3IBE | 2026-08-31 11:07:20 | 41.39558 | 2.13431 | 97° | 44km/h | 2417m | 4.7m/s | 0°C | 0% | 0hPa | 0V | 00:00:00 | 00:00:00 | 00:00:00 | |
| EA3GEO | 2026-08-31 11:07:18 | 41.39556 | 2.13402 | 75° | 46km/h | 2408m | 3.4m/s | 0°C | 0% | 0hPa | 0V | 00:00:00 | 00:00:00 | 00:00:00 | |
| EA3IBE | 2026-08-31 11:07:13 | 41.39544 | 2.13335 | 98° | 46km/h | 2376m | 3.5m/s | 0°C | 0% | 0hPa | 0V | 00:00:00 | 00:00:00 | 00:00:00 | |
| EA3GEO | 2026-08-31 11:07:12 | 41.39545 | 2.13319 | 96° | 47km/h | 2372m | 4.5m/s | 0°C | 0% | 0hPa | 0V | 00:00:00 | 00:00:00 | 00:00:00 | |
| EA3GEO | 2026-08-31 11:07:07 | 41.39531 | 2.13243 | 67° | 35km/h | 2352m | 4.8m/s | 0°C | 0% | 0hPa | 0V | 00:00:00 | 00:00:00 | 00:00:00 | |
| EA3IBE | 2026-08-31 11:07:03 | 41.39521 | 2.13209 | 75° | 35km/h | 2335m | 4.3m/s | 0°C | 0% | 0hPa | 0V | 00:00:00 | 00:00:00 | 00:00:00 | |
| EA3GEO | 2026-08-31 11:07:01 | 41.39515 | 2.13187 | 67° | 40km/h | 2323m | 6.3m/s | 0°C | 0% | 0hPa | 0V | 00:00:00 | 00:00:00 | 00:00:00 | |
| EA3IBE | 2026-08-31 11:06:58 | 41.39505 | 2.13156 | 78° | 29km/h | 2310m | 3.1m/s | 0°C | 0% | 0hPa | 0V | 00:00:00 | 00:00:00 | 00:00:00 | |
| EA3GEO | 2026-08-31 11:06:55 | 41.39494 | 2.13129 | 59° | 35km/h | 2299m | 4.7m/s | 0°C | 0% | 0hPa | 0V | 00:00:00 | 00:00:00 | 00:00:00 | |
| EA3GEO | 2026-08-31 11:06:49 | 41.39464 | 2.13034 | 81° | 55km/h | 2269m | 3.3m/s | 0°C | 0% | 0hPa | 0V | 00:00:00 | 00:00:00 | 00:00:00 | |
| EA3IBE | 2026-08-31 11:06:46 | 41.39457 | 2.12986 | 66° | 44km/h | 2254m | 5.3m/s | 0°C | 0% | 0hPa | 0V | 00:00:00 | 00:00:00 | 00:00:00 | |
| EA3GEO | 2026-08-31 11:06:43 | 41.39439 | 2.12946 | 56° | 49km/h | 2234m | 3.9m/s | 0°C | 0% | 0hPa | 0V | 00:00:00 | 00:00:00 | 00:00:00 | |
| EA3IBE | 2026-08-31 11:06:40 | 41.39418 | 2.12908 | 55° | 46km/h | 2223m | 3.7m/s | 0°C | 0% | 0hPa | 0V | 00:00:00 | 00:00:00 | 00:00:00 | |
| EA3GEO | 2026-08-31 11:06:38 | 41.39407 | 2.12885 | 66° | 35km/h | 2214m | 5.9m/s | 0°C | 0% | 0hPa | 0V | 00:00:00 | 00:00:00 | 00:00:00 | |
| EA3IBE | 2026-08-31 11:06:35 | 41.39402 | 2.12855 | 95° | 35km/h | 2198m | 1.9m/s | 0°C | 0% | 0hPa | 0V | 00:00:00 | 00:00:00 | 00:00:00 | |
| EA3GEO | 2026-08-31 11:06:32 | 41.39397 | 2.12818 | 61° | 40km/h | 2184m | 4.5m/s | 0°C | 0% | 0hPa | 0V | 00:00:00 | 00:00:00 | 00:00:00 | |
| EA3IBE | 2026-08-31 11:06:29 | 41.39375 | 2.12785 | 50° | 42km/h | 2165m | 4.6m/s | 0°C | 0% | 0hPa | 0V | 00:00:00 | 00:00:00 | 00:00:00 | |
| EA3GEO | 2026-08-31 11:06:27 | 41.39362 | 2.12765 | 52° | 35km/h | 2156m | 4.0m/s | 0°C | 0% | 0hPa | 0V | 00:00:00 | 00:00:00 | 00:00:00 | |
| EA3IBE | 2026-08-31 11:06:23 | 41.39354 | 2.12716 | 91° | 38km/h | 2127m | 7.7m/s | 0°C | 0% | 0hPa | 0V | 00:00:00 | 00:00:00 | 00:00:00 | |
| EA3GEO | 2026-08-31 11:06:21 | 41.39352 | 2.12688 | 82° | 46km/h | 2113m | 6.3m/s | 0°C | 0% | 0hPa | 0V | 00:00:00 | 00:00:00 | 00:00:00 | |
| EA3IBE | 2026-08-31 11:06:17 | 41.39343 | 2.12633 | 82° | 35km/h | 2087m | 5.5m/s | 0°C | 0% | 0hPa | 0V | 00:00:00 | 00:00:00 | 00:00:00 | |
| EA3GEO | 2026-08-31 11:06:16 | 41.39343 | 2.12622 | 90° | 29km/h | 2080m | 4.5m/s | 0°C | 0% | 0hPa | 0V | 00:00:00 | 00:00:00 | 00:00:00 | |
| EA3IBE | 2026-08-31 11:06:10 | 41.39326 | 2.12542 | 70° | 46km/h | 2053m | 4.9m/s | 0°C | 0% | 0hPa | 0V | 00:00:00 | 00:00:00 | 00:00:00 | |
| EA3GEO | 2026-08-31 11:06:05 | 41.39314 | 2.12478 | 60° | 42km/h | 2027m | 4.0m/s | 0°C | 0% | 0hPa | 0V | 00:00:00 | 00:00:00 | 00:00:00 | |
| EA3GEO | 2026-08-31 11:05:59 | 41.39284 | 2.12437 | 65° | 20km/h | 1995m | 4.6m/s | 0°C | 0% | 0hPa | 0V | 00:00:00 | 00:00:00 | 00:00:00 | |
| EA3GEO | 2026-08-31 11:05:54 | 41.39277 | 2.12390 | 84° | 35km/h | 1964m | 4.3m/s | 0°C | 0% | 0hPa | 0V | 00:00:00 | 00:00:00 | 00:00:00 | |
| EA3GEO | 2026-08-31 11:05:48 | 41.39249 | 2.12342 | 57° | 38km/h | 1939m | 3.8m/s | 0°C | 0% | 0hPa | 0V | 00:00:00 | 00:00:00 | 00:00:00 | |
| EA3IBE | 2026-08-31 11:05:48 | 41.39249 | 2.12342 | 57° | 38km/h | 1939m | 3.8m/s | 0°C | 0% | 0hPa | 0V | 00:00:00 | 00:00:00 | 00:00:00 | |
| EA3GEO | 2026-08-31 11:05:42 | 41.39210 | 2.12277 | 60° | 31km/h | 1913m | 5.1m/s | 0°C | 0% | 0hPa | 0V | 00:00:00 | 00:00:00 | 00:00:00 | |
| EA3GEO | 2026-08-31 11:05:37 | 41.39195 | 2.12217 | 68° | 47km/h | 1886m | 5.8m/s | 0°C | 0% | 0hPa | 0V | 00:00:00 | 00:00:00 | 00:00:00 | |
| EA3IBE | 2026-08-31 11:05:36 | 41.39191 | 2.12203 | 69° | 44km/h | 1880m | 5.1m/s | 0°C | 0% | 0hPa | 0V | 00:00:00 | 00:00:00 | 00:00:00 | |
| EA3GEO | 2026-08-31 11:05:31 | 41.39182 | 2.12149 | 57° | 29km/h | 1853m | 5.2m/s | 0°C | 0% | 0hPa | 0V | 00:00:00 | 00:00:00 | 00:00:00 | |
| EA3IBE | 2026-08-31 11:05:31 | 41.39182 | 2.12149 | 57° | 29km/h | 1853m | 5.2m/s | 0°C | 0% | 0hPa | 0V | 00:00:00 | 00:00:00 | 00:00:00 | |
| EA3GEO | 2026-08-31 11:05:26 | 41.39160 | 2.12092 | 76° | 40km/h | 1824m | 5.5m/s | 0°C | 0% | 0hPa | 0V | 00:00:00 | 00:00:00 | 00:00:00 | |
| EA3IBE | 2026-08-31 11:05:21 | 41.39146 | 2.12041 | 51° | 29km/h | 1793m | 6.1m/s | 0°C | 0% | 0hPa | 0V | 00:00:00 | 00:00:00 | 00:00:00 | |
| EA3GEO | 2026-08-31 11:05:21 | 41.39146 | 2.12041 | 51° | 29km/h | 1793m | 6.1m/s | 0°C | 0% | 0hPa | 0V | 00:00:00 | 00:00:00 | 00:00:00 | |
| EA3IBE | 2026-08-31 11:05:16 | 41.39132 | 2.11992 | 82° | 40km/h | 1768m | 3.3m/s | 0°C | 0% | 0hPa | 0V | 00:00:00 | 00:00:00 | 00:00:00 | |
| EA3GEO | 2026-08-31 11:05:15 | 41.39129 | 2.11979 | 70° | 37km/h | 1764m | 2.5m/s | 0°C | 0% | 0hPa | 0V | 00:00:00 | 00:00:00 | 00:00:00 | |
| EA3GEO | 2026-08-31 11:05:10 | 41.39110 | 2.11943 | 56° | 24km/h | 1737m | 5.0m/s | 0°C | 0% | 0hPa | 0V | 00:00:00 | 00:00:00 | 00:00:00 | |
| EA3IBE | 2026-08-31 11:05:10 | 41.39110 | 2.11943 | 56° | 24km/h | 1737m | 5.0m/s | 0°C | 0% | 0hPa | 0V | 00:00:00 | 00:00:00 | 00:00:00 | |
| EA3GEO | 2026-08-31 11:05:04 | 41.39091 | 2.11892 | 53° | 15km/h | 1710m | 4.2m/s | 0°C | 0% | 0hPa | 0V | 00:00:00 | 00:00:00 | 00:00:00 | |
| EA3IBE | 2026-08-31 11:05:04 | 41.39091 | 2.11892 | 53° | 15km/h | 1710m | 4.2m/s | 0°C | 0% | 0hPa | 0V | 00:00:00 | 00:00:00 | 00:00:00 | |
| EA3IBE | 2026-08-31 11:04:59 | 41.39093 | 2.11857 | 103° | 35km/h | 1683m | 5.3m/s | 0°C | 0% | 0hPa | 0V | 00:00:00 | 00:00:00 | 00:00:00 | |
| EA3GEO | 2026-08-31 11:04:58 | 41.39096 | 2.11846 | 110° | 37km/h | 1677m | 3.8m/s | 0°C | 0% | 0hPa | 0V | 00:00:00 | 00:00:00 | 00:00:00 | |
| EA3GEO | 2026-08-31 11:04:53 | 41.39110 | 2.11797 | 93° | 33km/h | 1655m | 5.1m/s | 0°C | 0% | 0hPa | 0V | 00:00:00 | 00:00:00 | 00:00:00 | |
| EA3IBE | 2026-08-31 11:04:53 | 41.39110 | 2.11797 | 93° | 33km/h | 1655m | 5.1m/s | 0°C | 0% | 0hPa | 0V | 00:00:00 | 00:00:00 | 00:00:00 | |
| EA3GEO | 2026-08-31 11:04:47 | 41.39105 | 2.11765 | 106° | 11km/h | 1622m | 5.5m/s | 0°C | 0% | 0hPa | 0V | 00:00:00 | 00:00:00 | 00:00:00 | |
| EA3IBE | 2026-08-31 11:04:47 | 41.39105 | 2.11765 | 106° | 11km/h | 1622m | 5.5m/s | 0°C | 0% | 0hPa | 0V | 00:00:00 | 00:00:00 | 00:00:00 | |
| EA3GEO | 2026-08-31 11:04:42 | 41.39094 | 2.11747 | 32° | 16km/h | 1590m | 2.2m/s | 0°C | 0% | 0hPa | 0V | 00:00:00 | 00:00:00 | 00:00:00 | |
| EA3IBE | 2026-08-31 11:04:41 | 41.39091 | 2.11746 | 33° | 9km/h | 1586m | 4.0m/s | 0°C | 0% | 0hPa | 0V | 00:00:00 | 00:00:00 | 00:00:00 | |
| EA3GEO | 2026-08-31 11:04:36 | 41.39090 | 2.11718 | 58° | 29km/h | 1560m | 5.7m/s | 0°C | 0% | 0hPa | 0V | 00:00:00 | 00:00:00 | 00:00:00 | |
| EA3IBE | 2026-08-31 11:04:36 | 41.39090 | 2.11718 | 58° | 29km/h | 1560m | 5.7m/s | 0°C | 0% | 0hPa | 0V | 00:00:00 | 00:00:00 | 00:00:00 | |
| EA3GEO | 2026-08-31 11:04:31 | 41.39066 | 2.11686 | 28° | 26km/h | 1537m | 3.6m/s | 0°C | 0% | 0hPa | 0V | 00:00:00 | 00:00:00 | 00:00:00 | |
| EA3IBE | 2026-08-31 11:04:31 | 41.39066 | 2.11686 | 28° | 26km/h | 1537m | 3.6m/s | 0°C | 0% | 0hPa | 0V | 00:00:00 | 00:00:00 | 00:00:00 | |
| EA3IBE | 2026-08-31 11:04:25 | 41.39054 | 2.11656 | 114° | 9km/h | 1501m | 6.3m/s | 0°C | 0% | 0hPa | 0V | 00:00:00 | 00:00:00 | 00:00:00 | |
| EA3GEO | 2026-08-31 11:04:25 | 41.39054 | 2.11656 | 114° | 9km/h | 1501m | 6.3m/s | 0°C | 0% | 0hPa | 0V | 00:00:00 | 00:00:00 | 00:00:00 | |
| EA3GEO | 2026-08-31 11:04:20 | 41.39054 | 2.11635 | 117° | 16km/h | 1470m | 5.3m/s | 0°C | 0% | 0hPa | 0V | 00:00:00 | 00:00:00 | 00:00:00 | |
| EA3IBE | 2026-08-31 11:04:19 | 41.39056 | 2.11632 | 147° | 9km/h | 1465m | 2.7m/s | 0°C | 0% | 0hPa | 0V | 00:00:00 | 00:00:00 | 00:00:00 | |
| EA3GEO | 2026-08-31 11:04:15 | 41.39049 | 2.11633 | 10° | 18km/h | 1447m | 4.2m/s | 0°C | 0% | 0hPa | 0V | 00:00:00 | 00:00:00 | 00:00:00 | |
| EA3IBE | 2026-08-31 11:04:13 | 41.39038 | 2.11630 | 14° | 24km/h | 1437m | 6.0m/s | 0°C | 0% | 0hPa | 0V | 00:00:00 | 00:00:00 | 00:00:00 | |
| EA3IBE | 2026-08-31 11:04:08 | 41.39036 | 2.11619 | 115° | 7km/h | 1408m | 2.1m/s | 0°C | 0% | 0hPa | 0V | 00:00:00 | 00:00:00 | 00:00:00 | |
| EA3GEO | 2026-08-31 11:04:04 | 41.39036 | 2.11618 | 352° | 11km/h | 1394m | 5.4m/s | 0°C | 0% | 0hPa | 0V | 00:00:00 | 00:00:00 | 00:00:00 | |
| EA3IBE | 2026-08-31 11:04:03 | 41.39032 | 2.11618 | 4° | 18km/h | 1388m | 4.8m/s | 0°C | 0% | 0hPa | 0V | 00:00:00 | 00:00:00 | 00:00:00 | |
| EA3GEO | 2026-08-31 11:03:58 | 41.39020 | 2.11607 | 160° | 5km/h | 1360m | 7.2m/s | 0°C | 0% | 0hPa | 0V | 00:00:00 | 00:00:00 | 00:00:00 | |
| EA3IBE | 2026-08-31 11:03:57 | 41.39021 | 2.11607 | 248° | 4km/h | 1352m | 6.6m/s | 0°C | 0% | 0hPa | 0V | 00:00:00 | 00:00:00 | 00:00:00 | |
| EA3GEO | 2026-08-31 11:03:53 | 41.39007 | 2.11606 | 37° | 24km/h | 1333m | 4.2m/s | 0°C | 0% | 0hPa | 0V | 00:00:00 | 00:00:00 | 00:00:00 | |
| EA3IBE | 2026-08-31 11:03:52 | 41.39002 | 2.11600 | 52° | 26km/h | 1328m | 4.3m/s | 0°C | 0% | 0hPa | 0V | 00:00:00 | 00:00:00 | 00:00:00 | |
| EA3GEO | 2026-08-31 11:03:47 | 41.38985 | 2.11579 | 16° | 15km/h | 1302m | 5.7m/s | 0°C | 0% | 0hPa | 0V | 00:00:00 | 00:00:00 | 00:00:00 | |
| EA3IBE | 2026-08-31 11:03:47 | 41.38985 | 2.11579 | 16° | 15km/h | 1302m | 5.7m/s | 0°C | 0% | 0hPa | 0V | 00:00:00 | 00:00:00 | 00:00:00 | |
| EA3GEO | 2026-08-31 11:03:42 | 41.38979 | 2.11579 | 301° | 11km/h | 1275m | 6.9m/s | 0°C | 0% | 0hPa | 0V | 00:00:00 | 00:00:00 | 00:00:00 | |
| EA3IBE | 2026-08-31 11:03:41 | 41.38975 | 2.11582 | 339° | 18km/h | 1267m | 8.4m/s | 0°C | 0% | 0hPa | 0V | 00:00:00 | 00:00:00 | 00:00:00 | |
| EA3GEO | 2026-08-31 11:03:36 | 41.38953 | 2.11580 | 55° | 18km/h | 1242m | 3.6m/s | 0°C | 0% | 0hPa | 0V | 00:00:00 | 00:00:00 | 00:00:00 | |
| EA3IBE | 2026-08-31 11:03:36 | 41.38953 | 2.11580 | 55° | 18km/h | 1242m | 3.6m/s | 0°C | 0% | 0hPa | 0V | 00:00:00 | 00:00:00 | 00:00:00 | |
| EA3GEO | 2026-08-31 11:03:30 | 41.38946 | 2.11569 | 332° | 9km/h | 1211m | 5.3m/s | 0°C | 0% | 0hPa | 0V | 00:00:00 | 00:00:00 | 00:00:00 | |
| EA3IBE | 2026-08-31 11:03:30 | 41.38946 | 2.11569 | 332° | 9km/h | 1211m | 5.3m/s | 0°C | 0% | 0hPa | 0V | 00:00:00 | 00:00:00 | 00:00:00 | |
| EA3IBE | 2026-08-31 11:03:25 | 41.38936 | 2.11579 | 36° | 11km/h | 1188m | 4.3m/s | 0°C | 0% | 0hPa | 0V | 00:00:00 | 00:00:00 | 00:00:00 | |
| EA3GEO | 2026-08-31 11:03:24 | 41.38934 | 2.11576 | 42° | 15km/h | 1183m | 5.1m/s | 0°C | 0% | 0hPa | 0V | 00:00:00 | 00:00:00 | 00:00:00 | |
| EA3IBE | 2026-08-31 11:03:19 | 41.38910 | 2.11552 | 20° | 24km/h | 1157m | 6.2m/s | 0°C | 0% | 0hPa | 0V | 00:00:00 | 00:00:00 | 00:00:00 | |
| EA3GEO | 2026-08-31 11:03:18 | 41.38905 | 2.11551 | 2° | 16km/h | 1151m | 7.1m/s | 0°C | 0% | 0hPa | 0V | 00:00:00 | 00:00:00 | 00:00:00 | |
| EA3IBE | 2026-08-31 11:03:13 | 41.38881 | 2.11561 | 353° | 24km/h | 1127m | 3.3m/s | 0°C | 0% | 0hPa | 0V | 00:00:00 | 00:00:00 | 00:00:00 | |
| EA3GEO | 2026-08-31 11:03:12 | 41.38874 | 2.11562 | 361° | 27km/h | 1123m | 1.4m/s | 0°C | 0% | 0hPa | 0V | 00:00:00 | 00:00:00 | 00:00:00 | |
| EA3IBE | 2026-08-31 11:03:08 | 41.38856 | 2.11549 | 71° | 15km/h | 1106m | 5.0m/s | 0°C | 0% | 0hPa | 0V | 00:00:00 | 00:00:00 | 00:00:00 | |
| EA3GEO | 2026-08-31 11:03:07 | 41.38854 | 2.11547 | 50° | 11km/h | 1100m | 5.9m/s | 0°C | 0% | 0hPa | 0V | 00:00:00 | 00:00:00 | 00:00:00 | |
| EA3IBE | 2026-08-31 11:03:02 | 41.38836 | 2.11538 | 71° | 15km/h | 1069m | 3.8m/s | 0°C | 0% | 0hPa | 0V | 00:00:00 | 00:00:00 | 00:00:00 | |
| EA3GEO | 2026-08-31 11:03:01 | 41.38835 | 2.11534 | 64° | 5km/h | 1064m | 5.1m/s | 0°C | 0% | 0hPa | 0V | 00:00:00 | 00:00:00 | 00:00:00 | |
| EA3IBE | 2026-08-31 11:02:56 | 41.38834 | 2.11537 | 90° | 5km/h | 1036m | 2.4m/s | 0°C | 0% | 0hPa | 0V | 00:00:00 | 00:00:00 | 00:00:00 | |
| EA3GEO | 2026-08-31 11:02:55 | 41.38834 | 2.11534 | 100° | 13km/h | 1033m | 3.8m/s | 0°C | 0% | 0hPa | 0V | 00:00:00 | 00:00:00 | 00:00:00 | |
| EA3IBE | 2026-08-31 11:02:50 | 41.38832 | 2.11534 | 288° | 11km/h | 1008m | 6.2m/s | 0°C | 0% | 0hPa | 0V | 00:00:00 | 00:00:00 | 00:00:00 | |
| EA3GEO | 2026-08-31 11:02:49 | 41.38832 | 2.11537 | 288° | 9km/h | 1002m | 4.4m/s | 0°C | 0% | 0hPa | 0V | 00:00:00 | 00:00:00 | 00:00:00 | |
| EA3IBE | 2026-08-31 11:02:45 | 41.38832 | 2.11542 | 75° | 9km/h | 985m | 3.9m/s | 0°C | 0% | 0hPa | 0V | 00:00:00 | 00:00:00 | 00:00:00 | |
| EA3GEO | 2026-08-31 11:02:44 | 41.38830 | 2.11539 | 55° | 15km/h | 979m | 5.6m/s | 0°C | 0% | 0hPa | 0V | 00:00:00 | 00:00:00 | 00:00:00 | |
| EA3GEO | 2026-08-31 11:02:39 | 41.38811 | 2.11537 | 30° | 13km/h | 949m | 3.6m/s | 0°C | 0% | 0hPa | 0V | 00:00:00 | 00:00:00 | 00:00:00 | |
| EA3IBE | 2026-08-31 11:02:39 | 41.38811 | 2.11537 | 30° | 13km/h | 949m | 3.6m/s | 0°C | 0% | 0hPa | 0V | 00:00:00 | 00:00:00 | 00:00:00 | |
| EA3GEO | 2026-08-31 11:02:34 | 41.38806 | 2.11538 | 140° | 4km/h | 917m | 2.2m/s | 0°C | 0% | 0hPa | 0V | 00:00:00 | 00:00:00 | 00:00:00 | |
| EA3IBE | 2026-08-31 11:02:34 | 41.38806 | 2.11538 | 140° | 4km/h | 917m | 2.2m/s | 0°C | 0% | 0hPa | 0V | 00:00:00 | 00:00:00 | 00:00:00 | |
| EA3GEO | 2026-08-31 11:02:28 | 41.38786 | 2.11533 | 322° | 22km/h | 888m | 7.0m/s | 0°C | 0% | 0hPa | 0V | 00:00:00 | 00:00:00 | 00:00:00 | |
| EA3GEO | 2026-08-31 11:02:23 | 41.38779 | 2.11535 | 55° | 20km/h | 862m | 5.4m/s | 0°C | 0% | 0hPa | 0V | 00:00:00 | 00:00:00 | 00:00:00 | |
| EA3IBE | 2026-08-31 11:02:22 | 41.38775 | 2.11530 | 28° | 22km/h | 857m | 2.3m/s | 0°C | 0% | 0hPa | 0V | 00:00:00 | 00:00:00 | 00:00:00 | |
| EA3GEO | 2026-08-31 11:02:17 | 41.38760 | 2.11536 | 360° | 4km/h | 830m | 4.5m/s | 0°C | 0% | 0hPa | 0V | 00:00:00 | 00:00:00 | 00:00:00 | |
| EA3IBE | 2026-08-31 11:02:16 | 41.38758 | 2.11534 | 39° | 9km/h | 826m | 3.9m/s | 0°C | 0% | 0hPa | 0V | 00:00:00 | 00:00:00 | 00:00:00 | |
| EA3GEO | 2026-08-31 11:02:11 | 41.38743 | 2.11531 | 84° | 7km/h | 798m | 6.4m/s | 0°C | 0% | 0hPa | 0V | 00:00:00 | 00:00:00 | 00:00:00 | |
| EA3IBE | 2026-08-31 11:02:10 | 41.38742 | 2.11528 | 68° | 15km/h | 792m | 5.7m/s | 0°C | 0% | 0hPa | 0V | 00:00:00 | 00:00:00 | 00:00:00 | |
| EA3GEO | 2026-08-31 11:02:06 | 41.38727 | 2.11520 | 338° | 16km/h | 770m | 4.9m/s | 0°C | 0% | 0hPa | 0V | 00:00:00 | 00:00:00 | 00:00:00 | |
| EA3IBE | 2026-08-31 11:02:05 | 41.38724 | 2.11523 | 310° | 16km/h | 764m | 5.5m/s | 0°C | 0% | 0hPa | 0V | 00:00:00 | 00:00:00 | 00:00:00 | |
| EA3GEO | 2026-08-31 11:02:00 | 41.38719 | 2.11546 | 295° | 18km/h | 739m | 4.3m/s | 0°C | 0% | 0hPa | 0V | 00:00:00 | 00:00:00 | 00:00:00 | |
| EA3IBE | 2026-08-31 11:02:00 | 41.38719 | 2.11546 | 295° | 18km/h | 739m | 4.3m/s | 0°C | 0% | 0hPa | 0V | 00:00:00 | 00:00:00 | 00:00:00 | |
| EA3GEO | 2026-08-31 11:01:55 | 41.38717 | 2.11559 | 57° | 9km/h | 716m | 4.9m/s | 0°C | 0% | 0hPa | 0V | 00:00:00 | 00:00:00 | 00:00:00 | |
| EA3IBE | 2026-08-31 11:01:54 | 41.38714 | 2.11557 | 17° | 16km/h | 711m | 2.7m/s | 0°C | 0% | 0hPa | 0V | 00:00:00 | 00:00:00 | 00:00:00 | |
| EA3IBE | 2026-08-31 11:01:45 | 41.38699 | 2.11571 | 317° | 13km/h | 651m | 5.9m/s | 0°C | 0% | 0hPa | 0V | 00:00:00 | 00:00:00 | 00:00:00 | |
| EA3GEO | 2026-08-31 11:01:43 | 41.38696 | 2.11574 | 339° | 15km/h | 646m | 4.1m/s | 0°C | 0% | 0hPa | 0V | 00:00:00 | 00:00:00 | 00:00:00 | |
| EA3IBE | 2026-08-31 11:01:38 | 41.38687 | 2.11570 | 0° | 0km/h | 619m | 3.7m/s | 0°C | 0% | 0hPa | 0V | 00:00:00 | 00:00:00 | 00:00:00 | |
| EA3GEO | 2026-08-31 11:01:38 | 41.38687 | 2.11570 | 0° | 0km/h | 619m | 3.7m/s | 0°C | 0% | 0hPa | 0V | 00:00:00 | 00:00:00 | 00:00:00 | |
| EA3IBE | 2026-08-31 11:01:33 | 41.38691 | 2.11581 | 243° | 11km/h | 597m | 2.3m/s | 0°C | 0% | 0hPa | 0V | 00:00:00 | 00:00:00 | 00:00:00 | |
| EA3GEO | 2026-08-31 11:01:33 | 41.38691 | 2.11581 | 243° | 11km/h | 597m | 2.3m/s | 0°C | 0% | 0hPa | 0V | 00:00:00 | 00:00:00 | 00:00:00 | |
| EA3GEO | 2026-08-31 11:01:27 | 41.38686 | 2.11589 | 346° | 24km/h | 572m | 3.1m/s | 0°C | 0% | 0hPa | 0V | 00:00:00 | 00:00:00 | 00:00:00 | |
| EA3IBE | 2026-08-31 11:01:27 | 41.38686 | 2.11589 | 346° | 24km/h | 572m | 3.1m/s | 0°C | 0% | 0hPa | 0V | 00:00:00 | 00:00:00 | 00:00:00 | |
| EA3GEO | 2026-08-31 11:01:18 | 41.38668 | 2.11606 | 320° | 16km/h | 517m | 8.7m/s | 0°C | 0% | 0hPa | 0V | 00:00:00 | 00:00:00 | 00:00:00 | |
| EA3GEO | 2026-08-31 11:01:13 | 41.38655 | 2.11608 | 22° | 20km/h | 480m | 7.5m/s | 0°C | 0% | 0hPa | 0V | 00:00:00 | 00:00:00 | 00:00:00 | |
| EA3GEO | 2026-08-31 11:01:04 | 41.38621 | 2.11620 | 319° | 15km/h | 419m | 5.6m/s | 0°C | 0% | 0hPa | 0V | 00:00:00 | 00:00:00 | 00:00:00 | |
| EA3GEO | 2026-08-31 11:00:55 | 41.38569 | 2.11657 | 325° | 22km/h | 335m | 7.7m/s | 0°C | 0% | 0hPa | 0V | 00:00:00 | 00:00:00 | 00:00:00 |